Provisional Data: Long Run near Gaines, PA


Please select a monitoring station.
Please select start date.
Please select start date.

Toggle Unit: C/F Toggle Unit: C/F
Sample Time Temperature (C) Temperature (F) Specific Conductivity (mS/cm) pH   Turbidity (NTU+) DO (mg/L)
4/18/2023 12:00:00 AM 9 48.2 0.105 7.19 13.09 10.56
4/18/2023 12:15:00 AM 8.94 48.092 0.106 7.18 13.43 10.58
4/18/2023 12:30:00 AM 8.87 47.966 0.105 7.18 13.25 10.6
4/18/2023 12:45:00 AM 8.81 47.858 0.105 7.18 13.03 10.62
4/18/2023 1:00:00 AM 8.76 47.768 0.105 7.18 13.47 10.63
4/18/2023 1:15:00 AM 8.69 47.642 0.105 7.18 13.15 10.66
4/18/2023 1:30:00 AM 8.65 47.57 0.105 7.18 13.23 10.66
4/18/2023 1:45:00 AM 8.6 47.48 0.105 7.18 12.86 10.68
4/18/2023 2:00:00 AM 8.56 47.408 0.105 7.18 13.09 10.68
4/18/2023 2:15:00 AM 8.5 47.3 0.105 7.17 14.12 10.7
4/18/2023 2:30:00 AM 8.45 47.21 0.105 7.18 13.89 10.72
4/18/2023 2:45:00 AM 8.41 47.138 0.105 7.18 14.2 10.73
4/18/2023 3:00:00 AM 8.37 47.066 0.105 7.18 14.04 10.74
4/18/2023 3:15:00 AM 8.33 46.994 0.106 7.18 14.05 10.75
4/18/2023 3:30:00 AM 8.29 46.922 0.106 7.17 14.05 10.76
4/18/2023 3:45:00 AM 8.25 46.85 0.106 7.17 13.82 10.77
4/18/2023 4:00:00 AM 8.21 46.778 0.106 7.17 13.99 10.78
4/18/2023 4:15:00 AM 8.16 46.688 0.106 7.17 14.08 10.79
4/18/2023 4:30:00 AM 8.12 46.616 0.106 7.17 14.14 10.81
4/18/2023 4:45:00 AM 8.08 46.544 0.106 7.17 14.28 10.81
4/18/2023 5:00:00 AM 8.04 46.472 0.106 7.17 14.06 10.83
4/18/2023 5:15:00 AM 7.99 46.382 0.106 7.17 14.19 10.84
4/18/2023 5:30:00 AM 7.96 46.328 0.106 7.17 14.15 10.84
4/18/2023 5:45:00 AM 7.92 46.256 0.106 7.17 14.13 10.86
4/18/2023 6:00:00 AM 7.87 46.166 0.106 7.17 14.24 10.87
4/18/2023 6:15:00 AM 7.83 46.094 0.106 7.17 14.21 10.88
4/18/2023 6:30:00 AM 7.79 46.022 0.106 7.17 14.24 10.89
4/18/2023 6:45:00 AM 7.76 45.968 0.106 7.17 14.5 10.91
4/18/2023 7:00:00 AM 7.73 45.914 0.106 7.17 14.37 10.94
4/18/2023 7:15:00 AM 7.7 45.86 0.106 7.18 14.2 11
4/18/2023 7:30:00 AM 7.69 45.842 0.106 7.19 14.13 11.05
4/18/2023 7:45:00 AM 7.68 45.824 0.105 7.2 14.24 11.09
4/18/2023 8:00:00 AM 7.66 45.788 0.105 7.21 14.26 11.11
4/18/2023 8:15:00 AM 7.64 45.752 0.105 7.22 14.24 11.14
4/18/2023 8:30:00 AM 7.67 45.806 0.105 7.23 14.3 11.18
4/18/2023 8:45:00 AM 7.69 45.842 0.105 7.24 14.12 11.23
4/18/2023 9:00:00 AM 7.73 45.914 0.105 7.25 14.12 11.26
4/18/2023 9:15:00 AM 7.75 45.95 0.105 7.26 14.12 11.27
4/18/2023 9:30:00 AM 7.78 46.004 0.105 7.27 14.29 11.28
4/18/2023 9:45:00 AM 7.81 46.058 0.105 7.27 14.12 11.29
4/18/2023 10:00:00 AM 7.84 46.112 0.105 7.28 14.27 11.28
4/18/2023 10:15:00 AM 7.84 46.112 0.104 7.28 14.08 11.28
4/18/2023 10:30:00 AM 7.92 46.256 0.104 7.29 13.95 11.3
4/18/2023 10:45:00 AM 8 46.4 0.104 7.3 14.05 11.3
4/18/2023 11:00:00 AM 8.04 46.472 0.104 7.3 14.05 11.29
4/18/2023 11:15:00 AM 8.18 46.724 0.104 7.31 14.09 11.3
4/18/2023 11:30:00 AM 8.24 46.832 0.104 7.32 14.15 11.28
4/18/2023 11:45:00 AM 8.3 46.94 0.104 7.32 14.14 11.26
4/18/2023 12:00:00 PM 8.3 46.94 0.104 7.32 14.33 11.24
4/18/2023 12:15:00 PM 8.39 47.102 0.104 7.32 14.1 11.24
4/18/2023 12:30:00 PM 8.42 47.156 0.103 7.33 14.14 11.22
4/18/2023 12:45:00 PM 8.41 47.138 0.103 7.33 13.98 11.21
4/18/2023 1:00:00 PM 8.39 47.102 0.103 7.33 14.12 11.2
4/18/2023 1:15:00 PM 8.38 47.084 0.103 7.33 14.17 11.21
4/18/2023 1:30:00 PM 8.37 47.066 0.103 7.32 14.1 11.2
4/18/2023 1:45:00 PM 8.38 47.084 0.103 7.32 14.12 11.2
4/18/2023 2:00:00 PM 8.38 47.084 0.103 7.33 14.15 11.2
4/18/2023 2:15:00 PM 8.36 47.048 0.103 7.32 13.75 11.17
4/18/2023 2:30:00 PM 8.34 47.012 0.103 7.31 14.08 11.16
4/18/2023 2:45:00 PM 8.38 47.084 0.103 7.31 14.24 11.18
4/18/2023 3:00:00 PM 8.37 47.066 0.103 7.31 14.12 11.17
4/18/2023 3:15:00 PM 8.34 47.012 0.103 7.31 13.89 11.15
4/18/2023 3:30:00 PM 8.28 46.904 0.103 7.3 13.75 11.14
4/18/2023 3:45:00 PM 8.23 46.814 0.103 7.3 13.71 11.14
4/18/2023 4:00:00 PM 8.2 46.76 0.103 7.29 13.69 11.14
4/18/2023 4:15:00 PM 8.16 46.688 0.103 7.29 13.71 11.15
4/18/2023 4:30:00 PM 8.12 46.616 0.103 7.29 13.8 11.16
4/18/2023 4:45:00 PM 8.08 46.544 0.103 7.28 13.68 11.17
4/18/2023 5:00:00 PM 8.05 46.49 0.103 7.28 13.81 11.18
4/18/2023 5:15:00 PM 8.01 46.418 0.103 7.29 13.64 11.21
4/18/2023 5:30:00 PM 8.02 46.436 0.103 7.29 13.78 11.24
4/18/2023 5:45:00 PM 7.98 46.364 0.103 7.29 14.29 11.23
4/18/2023 6:00:00 PM 7.96 46.328 0.103 7.29 13.72 11.23
4/18/2023 6:15:00 PM 7.94 46.292 0.103 7.29 14.46 11.25
4/18/2023 6:30:00 PM 7.93 46.274 0.103 7.29 14.02 11.24
4/18/2023 6:45:00 PM 7.89 46.202 0.103 7.28 14.17 11.21
4/18/2023 7:00:00 PM 7.83 46.094 0.103 7.27 14.01 11.18
4/18/2023 7:15:00 PM 7.78 46.004 0.103 7.25 13.93 11.16
4/18/2023 7:30:00 PM 7.72 45.896 0.104 7.24 21.68 11.12
4/18/2023 7:45:00 PM 7.67 45.806 0.104 7.23 13.98 11.1
4/18/2023 8:00:00 PM 7.62 45.716 0.103 7.21 15.99 11.09
4/18/2023 8:15:00 PM 7.57 45.626 0.104 7.2 14.63 11.09
4/18/2023 8:30:00 PM 7.52 45.536 0.104 7.2 14.62 11.09
4/18/2023 8:45:00 PM 7.48 45.464 0.104 7.19 14.54 11.1
4/18/2023 9:00:00 PM 7.44 45.392 0.104 7.18 14.27 11.11
4/18/2023 9:15:00 PM 7.4 45.32 0.104 7.18 14.52 11.11
4/18/2023 9:30:00 PM 7.36 45.248 0.104 7.18 15.12 11.12
4/18/2023 9:45:00 PM 7.33 45.194 0.104 7.18 14.26 11.14
4/18/2023 10:00:00 PM 7.29 45.122 0.104 7.17 14.13 11.15
4/18/2023 10:15:00 PM 7.26 45.068 0.104 7.17 14.39 11.16
4/18/2023 10:30:00 PM 7.23 45.014 0.105 7.17 14.32 11.17
4/18/2023 10:45:00 PM 7.2 44.96 0.104 7.17 14.19 11.18
4/18/2023 11:00:00 PM 7.17 44.906 0.105 7.17 14.32 11.18
4/18/2023 11:15:00 PM 7.14 44.852 0.105 7.17 14.28 11.19
4/18/2023 11:30:00 PM 7.11 44.798 0.105 7.17 14.04 11.2
4/18/2023 11:45:00 PM 7.08 44.744 0.105 7.17 13.89 11.21
4/19/2023 12:00:00 AM 7.06 44.708 0.105 7.17 14.11 11.22
4/19/2023 12:15:00 AM 7.03 44.654 0.105 7.17 14.41 11.23
4/19/2023 12:30:00 AM 7.01 44.618 0.105 7.17 14.3 11.24
4/19/2023 12:45:00 AM 6.97 44.546 0.105 7.17 14.22 11.25
4/19/2023 1:00:00 AM 6.97 44.546 0.105 7.17 14.32 11.25
4/19/2023 1:15:00 AM 6.95 44.51 0.106 7.17 14.44 11.25
4/19/2023 1:30:00 AM 6.91 44.438 0.105 7.16 14.37 11.27
4/19/2023 1:45:00 AM 6.91 44.438 0.105 7.17 14.41 11.26
4/19/2023 2:00:00 AM 6.9 44.42 0.105 7.16 14.54 11.28
4/19/2023 2:15:00 AM 6.88 44.384 0.106 7.16 14.47 11.28
4/19/2023 2:30:00 AM 6.87 44.366 0.105 7.16 14.48 11.28
4/19/2023 2:45:00 AM 6.85 44.33 0.105 7.16 14.74 11.29
4/19/2023 3:00:00 AM 6.84 44.312 0.105 7.16 14.63 11.3
4/19/2023 3:15:00 AM 6.83 44.294 0.105 7.16 14.74 11.3
4/19/2023 3:30:00 AM 6.81 44.258 0.105 7.16 14.56 11.3
4/19/2023 3:45:00 AM 6.8 44.24 0.105 7.16 14.67 11.31
4/19/2023 4:00:00 AM 6.78 44.204 0.105 7.16 14.78 11.31
4/19/2023 4:15:00 AM 6.76 44.168 0.105 7.16 14.75 11.32
4/19/2023 4:30:00 AM 6.75 44.15 0.105 7.16 14.59 11.33
4/19/2023 4:45:00 AM 6.74 44.132 0.105 7.16 14.54 11.33
4/19/2023 5:00:00 AM 6.72 44.096 0.105 7.17 14.68 11.33
4/19/2023 5:15:00 AM 6.71 44.078 0.105 7.17 14.47 11.34
4/19/2023 5:30:00 AM 6.7 44.06 0.105 7.16 14.51 11.34
4/19/2023 5:45:00 AM 6.68 44.024 0.105 7.16 14.19 11.34
4/19/2023 6:00:00 AM 6.67 44.006 0.105 7.16 14.08 11.35
4/19/2023 6:15:00 AM 6.66 43.988 0.106 7.16 14.12 11.35
4/19/2023 6:30:00 AM 6.65 43.97 0.105 7.16 14.18 11.36
4/19/2023 6:45:00 AM 6.64 43.952 0.106 7.16 14.2 11.37
4/19/2023 7:00:00 AM 6.63 43.934 0.105 7.16 14.19 11.39
4/19/2023 7:15:00 AM 6.63 43.934 0.105 7.17 14.11 11.42
4/19/2023 7:30:00 AM 6.63 43.934 0.105 7.18 14.28 11.45
4/19/2023 7:45:00 AM 6.64 43.952 0.106 7.19 14.34 11.47
4/19/2023 8:00:00 AM 6.65 43.97 0.106 7.2 14.17 11.51
4/19/2023 8:15:00 AM 6.67 44.006 0.105 7.21 14.28 11.53
4/19/2023 8:30:00 AM 6.69 44.042 0.105 7.22 14.27 11.57
4/19/2023 8:45:00 AM 6.71 44.078 0.105 7.23 14.29 11.6
4/19/2023 9:00:00 AM 6.75 44.15 0.105 7.24 14.43 11.63
4/19/2023 9:15:00 AM 6.8 44.24 0.105 7.25 14.26 11.65
4/19/2023 9:30:00 AM 6.85 44.33 0.105 7.26 14.24 11.67
4/19/2023 9:45:00 AM 6.91 44.438 0.105 7.27 14.27 11.68
4/19/2023 10:00:00 AM 7 44.6 0.104 7.28 14.14 11.7
4/19/2023 10:15:00 AM 7.13 44.834 0.105 7.3 14.09 11.7
4/19/2023 10:30:00 AM 7.24 45.032 0.104 7.3 14.02 11.69
4/19/2023 10:45:00 AM 7.38 45.284 0.104 7.31 13.96 11.67
4/19/2023 11:00:00 AM 7.65 45.77 0.104 7.32 14.25 11.63
4/19/2023 11:15:00 AM 7.92 46.256 0.104 7.32 14.06 11.59
4/19/2023 11:30:00 AM 8.26 46.868 0.105 7.33 14.11 11.53
4/19/2023 11:45:00 AM 8.65 47.57 0.104 7.33 14.18 11.45
4/19/2023 12:00:00 PM 8.98 48.164 0.104 7.33 14.13 11.35
4/19/2023 12:15:00 PM 9.34 48.812 0.104 7.33 13.92 11.26
4/19/2023 12:30:00 PM 9.7 49.46 0.104 7.33 14.07 11.18
4/19/2023 12:45:00 PM 10.01 50.018 0.104 7.34 17.18 11.09
4/19/2023 1:00:00 PM 10.28 50.504 0.104 7.34 14.46 11.01
4/19/2023 1:15:00 PM 10.53 50.954 0.104 7.35 14.28 10.95
4/19/2023 1:30:00 PM 10.76 51.368 0.104 7.35 14.43 10.89
4/19/2023 1:45:00 PM 10.97 51.746 0.104 7.36 14.4 10.84
4/19/2023 2:00:00 PM 11.19 52.142 0.104 7.37 14.44 10.78
4/19/2023 2:15:00 PM 11.42 52.556 0.104 7.37 14.26 10.73
4/19/2023 2:30:00 PM 11.6 52.88 0.104 7.37 14.36 10.65
4/19/2023 2:45:00 PM 11.82 53.276 0.103 7.37 14.36 10.57
4/19/2023 3:00:00 PM 12.04 53.672 0.103 7.37 14.37 10.51
4/19/2023 3:15:00 PM 12.23 54.014 0.103 7.37 14.51 10.46
4/19/2023 3:30:00 PM 12.39 54.302 0.103 7.38 14.54 10.42
4/19/2023 3:45:00 PM 12.48 54.464 0.103 7.38 14.54 10.38
4/19/2023 4:00:00 PM 12.53 54.554 0.103 7.37 14.42 10.34
4/19/2023 4:15:00 PM 12.55 54.59 0.103 7.37 14.56 10.31
4/19/2023 4:30:00 PM 12.55 54.59 0.103 7.37 14.65 10.29
4/19/2023 4:45:00 PM 12.51 54.518 0.103 7.36 14.64 10.28
4/19/2023 5:00:00 PM 12.43 54.374 0.104 7.36 14.64 10.27
4/19/2023 5:15:00 PM 12.29 54.122 0.103 7.35 14.74 10.27
4/19/2023 5:30:00 PM 12.1 53.78 0.103 7.34 14.97 10.29
4/19/2023 5:45:00 PM 11.89 53.402 0.103 7.33 14.8 10.31
4/19/2023 6:00:00 PM 11.68 53.024 0.103 7.32 14.68 10.33
4/19/2023 6:15:00 PM 11.45 52.61 0.103 7.31 14.88 10.35
4/19/2023 6:30:00 PM 11.21 52.178 0.103 7.3 14.59 10.38
4/19/2023 6:45:00 PM 11.02 51.836 0.103 7.29 15.3 10.4
4/19/2023 7:00:00 PM 10.87 51.566 0.103 7.28 14.79 10.42
4/19/2023 7:15:00 PM 10.73 51.314 0.103 7.27 16.57 10.44
4/19/2023 7:30:00 PM 10.59 51.062 0.103 7.26 15.41 10.46
4/19/2023 7:45:00 PM 10.44 50.792 0.103 7.25 15.27 10.46
4/19/2023 8:00:00 PM 10.3 50.54 0.103 7.24 15.06 10.46
4/19/2023 8:15:00 PM 10.16 50.288 0.103 7.22 15.19 10.46
4/19/2023 8:30:00 PM 10.03 50.054 0.103 7.21 15.26 10.47
4/19/2023 8:45:00 PM 9.92 49.856 0.104 7.2 15.52 10.48
4/19/2023 9:00:00 PM 9.79 49.622 0.103 7.2 15.19 10.5
4/19/2023 9:15:00 PM 9.68 49.424 0.103 7.19 15.44 10.53
4/19/2023 9:30:00 PM 9.56 49.208 0.104 7.19 14.95 10.56
4/19/2023 9:45:00 PM 9.44 48.992 0.104 7.18 15.58 10.59
4/19/2023 10:00:00 PM 9.33 48.794 0.103 7.18 15.27 10.62
4/19/2023 10:15:00 PM 9.21 48.578 0.104 7.18 15.35 10.65
4/19/2023 10:30:00 PM 9.09 48.362 0.104 7.17 15.25 10.69
4/19/2023 10:45:00 PM 8.98 48.164 0.104 7.17 15.41 10.71
4/19/2023 11:00:00 PM 8.89 48.002 0.104 7.17 15.34 10.74
4/19/2023 11:15:00 PM 8.82 47.876 0.104 7.17 15.09 10.77
4/19/2023 11:30:00 PM 8.76 47.768 0.104 7.17 15.24 10.79
4/19/2023 11:45:00 PM 8.7 47.66 0.104 7.17 15.93 10.82
4/20/2023 12:00:00 AM 8.64 47.552 0.104 7.17 15.01 10.84
4/20/2023 12:15:00 AM 8.6 47.48 0.104 7.17 15.07 10.85
4/20/2023 12:30:00 AM 8.55 47.39 0.104 7.16 15.16 10.86
4/20/2023 12:45:00 AM 8.51 47.318 0.104 7.17 14.95 10.88
4/20/2023 1:00:00 AM 8.47 47.246 0.104 7.16 15.05 10.89
4/20/2023 1:15:00 AM 8.43 47.174 0.104 7.16 14.81 10.91
4/20/2023 1:30:00 AM 8.4 47.12 0.105 7.16 14.9 10.92
4/20/2023 1:45:00 AM 8.35 47.03 0.104 7.16 14.98 10.93
4/20/2023 2:00:00 AM 8.33 46.994 0.105 7.16 15.15 10.94
4/20/2023 2:15:00 AM 8.3 46.94 0.105 7.16 14.95 10.95
4/20/2023 2:30:00 AM 8.27 46.886 0.105 7.16 15.04 10.96
4/20/2023 2:45:00 AM 8.24 46.832 0.105 7.16 14.79 10.96
4/20/2023 3:00:00 AM 8.21 46.778 0.105 7.16 15 10.97
4/20/2023 3:15:00 AM 8.19 46.742 0.105 7.16 14.98 10.98
4/20/2023 3:30:00 AM 8.16 46.688 0.106 7.16 14.91 10.98
4/20/2023 3:45:00 AM 8.13 46.634 0.105 7.16 14.96 10.99
4/20/2023 4:00:00 AM 8.11 46.598 0.105 7.16 15.18 11
4/20/2023 4:15:00 AM 8.09 46.562 0.105 7.16 15.18 11
4/20/2023 4:30:00 AM 8.07 46.526 0.105 7.16 15.45 11.01
4/20/2023 4:45:00 AM 8.05 46.49 0.105 7.15 15.16 11.02
4/20/2023 5:00:00 AM 8.03 46.454 0.105 7.15 15.32 11.02
4/20/2023 5:15:00 AM 8.01 46.418 0.105 7.16 15.05 11.04
4/20/2023 5:30:00 AM 8 46.4 0.105 7.15 15.2 11.04
4/20/2023 5:45:00 AM 7.98 46.364 0.105 7.16 15.5 11.04
4/20/2023 6:00:00 AM 7.96 46.328 0.105 7.15 15.27 11.05
4/20/2023 6:15:00 AM 7.95 46.31 0.105 7.16 15.34 11.05
4/20/2023 6:30:00 AM 7.93 46.274 0.106 7.15 15.27 11.06
4/20/2023 6:45:00 AM 7.92 46.256 0.105 7.16 15.31 11.07
4/20/2023 7:00:00 AM 7.91 46.238 0.105 7.16 15.26 11.09
4/20/2023 7:15:00 AM 7.91 46.238 0.106 7.17 15.12 11.12
4/20/2023 7:30:00 AM 7.92 46.256 0.105 7.18 15.13 11.17
4/20/2023 7:45:00 AM 7.92 46.256 0.105 7.19 15.26 11.19
4/20/2023 8:00:00 AM 7.92 46.256 0.105 7.19 15.17 11.18
4/20/2023 8:15:00 AM 7.92 46.256 0.105 7.19 15.01 11.18
4/20/2023 8:30:00 AM 7.92 46.256 0.105 7.2 15.31 11.24
4/20/2023 8:45:00 AM 8 46.4 0.105 7.22 15.34 11.3
4/20/2023 9:00:00 AM 8.08 46.544 0.105 7.24 15.22 11.36
4/20/2023 9:15:00 AM 8.18 46.724 0.105 7.26 15.14 11.39
4/20/2023 9:30:00 AM 8.28 46.904 0.104 7.28 14.26 11.41
4/20/2023 9:45:00 AM 8.36 47.048 0.104 7.29 14.7 11.4
4/20/2023 10:00:00 AM 8.49 47.282 0.104 7.3 15.62 11.4
4/20/2023 10:15:00 AM 8.74 47.732 0.104 7.31 15.08 11.39
4/20/2023 10:30:00 AM 8.93 48.074 0.104 7.32 15.13 11.35
4/20/2023 10:45:00 AM 9.1 48.38 0.104 7.33 14.9 11.31
4/20/2023 11:00:00 AM 9.28 48.704 0.104 7.34 15.32 11.27
4/20/2023 11:15:00 AM 9.47 49.046 0.104 7.34 15.25 11.22
4/20/2023 11:30:00 AM 9.88 49.784 0.104 7.35 14.6 11.16
4/20/2023 11:45:00 AM 10.25 50.45 0.104 7.36 14.74 11.08
4/20/2023 12:00:00 PM 10.63 51.134 0.105 7.36 14.21 11
4/20/2023 12:15:00 PM 10.97 51.746 0.104 7.36 14.63 10.93
4/20/2023 12:30:00 PM 11.32 52.376 0.105 7.36 14.57 10.84
4/20/2023 12:45:00 PM 11.7 53.06 0.104 7.37 14.05 10.74
4/20/2023 1:00:00 PM 12.06 53.708 0.104 7.37 17.56 10.64
4/20/2023 1:15:00 PM 12.4 54.32 0.104 7.38 14.93 10.56
4/20/2023 1:30:00 PM 12.71 54.878 0.104 7.38 14.91 10.48
4/20/2023 1:45:00 PM 13.02 55.436 0.104 7.39 14.99 10.4
4/20/2023 2:00:00 PM 13.31 55.958 0.104 7.39 14.77 10.33
4/20/2023 2:15:00 PM 13.57 56.426 0.104 7.4 14.83 10.26
4/20/2023 2:30:00 PM 13.84 56.912 0.104 7.4 14.94 10.19
4/20/2023 2:45:00 PM 14.07 57.326 0.104 7.41 14.78 10.15
4/20/2023 3:00:00 PM 14.23 57.614 0.104 7.42 14.62 10.1
4/20/2023 3:15:00 PM 14.31 57.758 0.104 7.42 14.52 10.06
4/20/2023 3:30:00 PM 14.39 57.902 0.104 7.42 14.51 10.03
4/20/2023 3:45:00 PM 14.44 57.992 0.104 7.42 14.32 9.99
4/20/2023 4:00:00 PM 14.38 57.884 0.103 7.41 14.28 9.95
4/20/2023 4:15:00 PM 14.26 57.668 0.103 7.41 14.74 9.97
4/20/2023 4:30:00 PM 14.16 57.488 0.103 7.41 14.55 9.97
4/20/2023 4:45:00 PM 14.04 57.272 0.103 7.4 14.38 9.96
4/20/2023 5:00:00 PM 13.93 57.074 0.104 7.39 14.56 9.97
4/20/2023 5:15:00 PM 13.79 56.822 0.103 7.39 14.61 10
4/20/2023 5:30:00 PM 13.63 56.534 0.104 7.38 15.29 9.99
4/20/2023 5:45:00 PM 13.48 56.264 0.104 7.36 14.83 9.99
4/20/2023 6:00:00 PM 13.35 56.03 0.103 7.35 15.12 10.02
4/20/2023 6:15:00 PM 13.23 55.814 0.104 7.35 14.95 10.05
4/20/2023 6:30:00 PM 13.1 55.58 0.104 7.34 14.92 10.05
4/20/2023 6:45:00 PM 12.95 55.31 0.104 7.33 14.95 10.03
4/20/2023 7:00:00 PM 12.8 55.04 0.104 7.32 14.67 10.02
4/20/2023 7:15:00 PM 12.66 54.788 0.104 7.3 14.48 10.02
4/20/2023 7:30:00 PM 12.52 54.536 0.104 7.29 14.59 10.02
4/20/2023 7:45:00 PM 12.37 54.266 0.104 7.27 14.76 10
4/20/2023 8:00:00 PM 12.21 53.978 0.104 7.25 14.98 9.99
4/20/2023 8:15:00 PM 12.07 53.726 0.104 7.23 15.44 9.99
4/20/2023 8:30:00 PM 11.93 53.474 0.105 7.21 14.48 9.99
4/20/2023 8:45:00 PM 11.78 53.204 0.105 7.2 15.02 10.02
4/20/2023 9:00:00 PM 11.66 52.988 0.105 7.19 15.5 10.03
4/20/2023 9:15:00 PM 11.54 52.772 0.105 7.19 15.57 10.05
4/20/2023 9:30:00 PM 11.42 52.556 0.105 7.18 15.43 10.08
4/20/2023 9:45:00 PM 11.29 52.322 0.105 7.17 15.23 10.1
4/20/2023 10:00:00 PM 11.17 52.106 0.105 7.17 16.02 10.13
4/20/2023 10:15:00 PM 11.06 51.908 0.105 7.17 15.74 10.15
4/20/2023 10:30:00 PM 10.95 51.71 0.105 7.16 15.46 10.18
4/20/2023 10:45:00 PM 10.84 51.512 0.105 7.16 15.88 10.21
4/20/2023 11:00:00 PM 10.72 51.296 0.105 7.16 15.38 10.24
4/20/2023 11:15:00 PM 10.61 51.098 0.105 7.16 15.37 10.26
4/20/2023 11:30:00 PM 10.51 50.918 0.104 7.16 14.75 10.28
4/20/2023 11:45:00 PM 10.41 50.738 0.105 7.15 14.53 10.31
4/21/2023 12:00:00 AM 10.31 50.558 0.105 7.15 14.74 10.34
4/21/2023 12:15:00 AM 10.21 50.378 0.105 7.15 15.56 10.36
4/21/2023 12:30:00 AM 10.11 50.198 0.105 7.15 15.24 10.39
4/21/2023 12:45:00 AM 10.01 50.018 0.105 7.15 14.7 10.41
4/21/2023 1:00:00 AM 9.93 49.874 0.105 7.15 14.99 10.44
4/21/2023 1:15:00 AM 9.84 49.712 0.105 7.15 15.24 10.46
4/21/2023 1:30:00 AM 9.76 49.568 0.105 7.15 14.88 10.48
4/21/2023 1:45:00 AM 9.68 49.424 0.105 7.15 14.94 10.5
4/21/2023 2:00:00 AM 9.6 49.28 0.105 7.15 15.65 10.52
4/21/2023 2:15:00 AM 9.53 49.154 0.105 7.15 15.39 10.53
4/21/2023 2:30:00 AM 9.46 49.028 0.105 7.15 14.98 10.56
4/21/2023 2:45:00 AM 9.39 48.902 0.105 7.15 15.44 10.57
4/21/2023 3:00:00 AM 9.33 48.794 0.105 7.15 14.63 10.59
4/21/2023 3:15:00 AM 9.27 48.686 0.106 7.15 14.76 10.6
4/21/2023 3:30:00 AM 9.22 48.596 0.106 7.15 14.55 10.61
4/21/2023 3:45:00 AM 9.17 48.506 0.106 7.15 14.82 10.63
4/21/2023 4:00:00 AM 9.12 48.416 0.105 7.15 14.94 10.65
4/21/2023 4:15:00 AM 9.06 48.308 0.105 7.15 15.47 10.65
4/21/2023 4:30:00 AM 9 48.2 0.106 7.15 15 10.67
4/21/2023 4:45:00 AM 8.94 48.092 0.105 7.14 15.37 10.69
4/21/2023 5:00:00 AM 8.87 47.966 0.105 7.14 15.42 10.71
4/21/2023 5:15:00 AM 8.81 47.858 0.106 7.14 15 10.73
4/21/2023 5:30:00 AM 8.75 47.75 0.106 7.14 15.17 10.74
4/21/2023 5:45:00 AM 8.7 47.66 0.106 7.14 15.19 10.76
4/21/2023 6:00:00 AM 8.65 47.57 0.106 7.14 15.1 10.77
4/21/2023 6:15:00 AM 8.62 47.516 0.106 7.14 14.78 10.79
4/21/2023 6:30:00 AM 8.57 47.426 0.106 7.14 15.06 10.8
4/21/2023 6:45:00 AM 8.53 47.354 0.106 7.14 15.04 10.83
4/21/2023 7:00:00 AM 8.48 47.264 0.105 7.15 14.96 10.87
4/21/2023 7:15:00 AM 8.45 47.21 0.105 7.16 15.41 10.92
4/21/2023 7:30:00 AM 8.42 47.156 0.106 7.17 15.7 10.98
4/21/2023 7:45:00 AM 8.42 47.156 0.105 7.18 15.49 11.03
4/21/2023 8:00:00 AM 8.43 47.174 0.106 7.19 15.27 11.08
4/21/2023 8:15:00 AM 8.45 47.21 0.105 7.21 15.69 11.12
4/21/2023 8:30:00 AM 8.48 47.264 0.105 7.21 15.64 11.15
4/21/2023 8:45:00 AM 8.54 47.372 0.105 7.23 15.32 11.17
4/21/2023 9:00:00 AM 8.63 47.534 0.105 7.24 15.12 11.18
4/21/2023 9:15:00 AM 8.78 47.804 0.105 7.25 15.26 11.19
4/21/2023 9:30:00 AM 8.96 48.128 0.105 7.27 15.25 11.17
4/21/2023 9:45:00 AM 9.19 48.542 0.105 7.28 15.36 11.15
4/21/2023 10:00:00 AM 9.45 49.01 0.105 7.29 14.96 11.11
4/21/2023 10:15:00 AM 9.73 49.514 0.105 7.3 15.1 11.06
4/21/2023 10:30:00 AM 10.04 50.072 0.105 7.31 15.12 11.01
4/21/2023 10:45:00 AM 10.39 50.702 0.105 7.32 15.3 10.95
4/21/2023 11:00:00 AM 10.78 51.404 0.105 7.33 15.38 10.88
4/21/2023 11:15:00 AM 11.19 52.142 0.105 7.34 15.36 10.81
4/21/2023 11:30:00 AM 11.59 52.862 0.105 7.35 15.23 10.72
4/21/2023 11:45:00 AM 12.02 53.636 0.105 7.36 14.54 10.64
4/21/2023 12:00:00 PM 12.44 54.392 0.105 7.37 15.17 10.55
4/21/2023 12:15:00 PM 12.83 55.094 0.105 7.38 15.11 10.46
4/21/2023 12:30:00 PM 13.22 55.796 0.105 7.39 14.99 10.37
4/21/2023 12:45:00 PM 13.59 56.462 0.105 7.4 15.04 10.28
4/21/2023 1:00:00 PM 13.94 57.092 0.105 7.4 14.81 10.2
4/21/2023 1:15:00 PM 14.29 57.722 0.105 7.41 15.1 10.11
4/21/2023 1:30:00 PM 14.6 58.28 0.105 7.41 14.74 10.03
4/21/2023 1:45:00 PM 14.86 58.748 0.105 7.42 14.83 9.96
4/21/2023 2:00:00 PM 15.13 59.234 0.105 7.43 14.81 9.9
4/21/2023 2:15:00 PM 15.3 59.54 0.105 7.43 14.97 9.84
4/21/2023 2:30:00 PM 15.37 59.666 0.105 7.43 14.43 9.77
4/21/2023 2:45:00 PM 15.36 59.648 0.105 7.42 14.66 9.74
4/21/2023 3:00:00 PM 15.4 59.72 0.104 7.43 16.75 9.75
4/21/2023 3:15:00 PM 15.37 59.666 0.104 7.43 19.39 9.75
4/21/2023 3:30:00 PM 15.42 59.756 0.105 7.43 15.68 9.69
4/21/2023 3:45:00 PM 15.43 59.774 0.105 7.43 15.06 9.66
4/21/2023 4:00:00 PM 15.43 59.774 0.104 7.42 14.82 9.66
4/21/2023 4:15:00 PM 15.46 59.828 0.105 7.42 15.22 9.65
4/21/2023 4:30:00 PM 15.53 59.954 0.105 7.42 16.3 9.63
4/21/2023 4:45:00 PM 15.55 59.99 0.104 7.42 17.22 9.62
4/21/2023 5:00:00 PM 15.5 59.9 0.104 7.41 15.95 9.58
4/21/2023 5:15:00 PM 15.36 59.648 0.104 7.4 16.14 9.56
4/21/2023 5:30:00 PM 15.16 59.288 0.104 7.39 15.95 9.57
4/21/2023 5:45:00 PM 14.97 58.946 0.104 7.38 16.17 9.58
4/21/2023 6:00:00 PM 14.8 58.64 0.104 7.37 16.64 9.57
4/21/2023 6:15:00 PM 14.66 58.388 0.104 7.36 16.31 9.59
4/21/2023 6:30:00 PM 14.51 58.118 0.104 7.35 16.34 9.61
4/21/2023 6:45:00 PM 14.38 57.884 0.105 7.34 16.39 9.61
4/21/2023 7:00:00 PM 14.26 57.668 0.104 7.32 16.19 9.59
4/21/2023 7:15:00 PM 14.13 57.434 0.105 7.3 16.27 9.56
4/21/2023 7:30:00 PM 14 57.2 0.105 7.28 16.24 9.52
4/21/2023 7:45:00 PM 13.86 56.948 0.105 7.26 16.2 9.52
4/21/2023 8:00:00 PM 13.72 56.696 0.104 7.25 15.36 9.53
4/21/2023 8:15:00 PM 13.58 56.444 0.105 7.24 16.12 9.53
4/21/2023 8:30:00 PM 13.45 56.21 0.105 7.22 15.6 9.54
4/21/2023 8:45:00 PM 13.32 55.976 0.105 7.21 16.55 9.55
4/21/2023 9:00:00 PM 13.2 55.76 0.105 7.2 16.34 9.57
4/21/2023 9:15:00 PM 13.07 55.526 0.105 7.19 16.48 9.59
4/21/2023 9:30:00 PM 12.95 55.31 0.105 7.18 16.56 9.62
4/21/2023 9:45:00 PM 12.85 55.13 0.106 7.18 15.89 9.64
4/21/2023 10:00:00 PM 12.74 54.932 0.106 7.17 16.44 9.66
4/21/2023 10:15:00 PM 12.66 54.788 0.106 7.17 16.13 9.69
4/21/2023 10:30:00 PM 12.58 54.644 0.106 7.17 16.07 9.71
4/21/2023 10:45:00 PM 12.51 54.518 0.106 7.17 15.95 9.73
4/21/2023 11:00:00 PM 12.45 54.41 0.105 7.17 16.28 9.74
4/21/2023 11:15:00 PM 12.38 54.284 0.106 7.16 16.47 9.75
4/21/2023 11:30:00 PM 12.32 54.176 0.106 7.16 16.48 9.76
4/21/2023 11:45:00 PM 12.26 54.068 0.105 7.16 16.48 9.77
4/22/2023 12:00:00 AM 12.2 53.96 0.106 7.16 16.22 9.79
4/22/2023 12:15:00 AM 12.15 53.87 0.106 7.16 16.57 9.8
4/22/2023 12:30:00 AM 12.09 53.762 0.105 7.16 16.52 9.81
4/22/2023 12:45:00 AM 12.03 53.654 0.106 7.15 16.67 9.81
4/22/2023 1:00:00 AM 11.97 53.546 0.106 7.15 16.18 9.84
4/22/2023 1:15:00 AM 11.92 53.456 0.106 7.15 13.66 9.85
4/22/2023 1:30:00 AM 11.86 53.348 0.106 7.15 14.67 9.87
4/22/2023 1:45:00 AM 11.81 53.258 0.106 7.15 15.75 9.88
4/22/2023 2:00:00 AM 11.76 53.168 0.106 7.16 15.28 9.89
4/22/2023 2:15:00 AM 11.72 53.096 0.106 7.16 15.12 9.9
4/22/2023 2:30:00 AM 11.67 53.006 0.105 7.16 15.02 9.92
4/22/2023 2:45:00 AM 11.6 52.88 0.105 7.16 15.28 9.94
4/22/2023 3:00:00 AM 11.56 52.808 0.106 7.15 15.58 9.94
4/22/2023 3:15:00 AM 11.5 52.7 0.106 7.15 15.29 9.96
4/22/2023 3:30:00 AM 11.42 52.556 0.106 7.15 15.07 9.97
4/22/2023 3:45:00 AM 11.35 52.43 0.106 7.15 15.21 9.99
4/22/2023 4:00:00 AM 11.27 52.286 0.106 7.15 15.21 10.01
4/22/2023 4:15:00 AM 11.19 52.142 0.106 7.15 15.21 10.02
4/22/2023 4:30:00 AM 11.13 52.034 0.106 7.16 15.09 10.04
4/22/2023 4:45:00 AM 11.06 51.908 0.106 7.15 15.18 10.06
4/22/2023 5:00:00 AM 10.99 51.782 0.106 7.15 15.18 10.07
4/22/2023 5:15:00 AM 10.92 51.656 0.106 7.15 15.19 10.08
4/22/2023 5:30:00 AM 10.85 51.53 0.106 7.15 15.14 10.1
4/22/2023 5:45:00 AM 10.79 51.422 0.106 7.15 15.02 10.11
4/22/2023 6:00:00 AM 10.73 51.314 0.106 7.15 15.44 10.12
4/22/2023 6:15:00 AM 10.67 51.206 0.106 7.15 15.32 10.13
4/22/2023 6:30:00 AM 10.61 51.098 0.106 7.15 15.85 10.16
4/22/2023 6:45:00 AM 10.56 51.008 0.106 7.15 14.98 10.19
4/22/2023 7:00:00 AM 10.52 50.936 0.106 7.16 15.14 10.23
4/22/2023 7:15:00 AM 10.5 50.9 0.106 7.17 15.44 10.29
4/22/2023 7:30:00 AM 10.49 50.882 0.106 7.19 15.07 10.35
4/22/2023 7:45:00 AM 10.49 50.882 0.105 7.2 15.18 10.41
4/22/2023 8:00:00 AM 10.51 50.918 0.105 7.22 15.41 10.47
4/22/2023 8:15:00 AM 10.57 51.026 0.106 7.24 15.1 10.53
4/22/2023 8:30:00 AM 10.65 51.17 0.105 7.27 15.85 10.57
4/22/2023 8:45:00 AM 10.77 51.386 0.105 7.29 15.77 10.6
4/22/2023 9:00:00 AM 10.89 51.602 0.105 7.31 15.2 10.61
4/22/2023 9:15:00 AM 11 51.8 0.105 7.33 15.04 10.6
4/22/2023 9:30:00 AM 11.14 52.052 0.105 7.35 15.74 10.6
4/22/2023 9:45:00 AM 11.27 52.286 0.105 7.36 14.94 10.58
4/22/2023 10:00:00 AM 11.42 52.556 0.105 7.37 15.74 10.56
4/22/2023 10:15:00 AM 11.63 52.934 0.105 7.38 18.28 10.54
4/22/2023 10:30:00 AM 11.79 53.222 0.105 7.39 14.58 10.51
4/22/2023 10:45:00 AM 11.97 53.546 0.105 7.4 14.21 10.48
4/22/2023 11:00:00 AM 12.24 54.032 0.105 7.41 14.86 10.45
4/22/2023 11:15:00 AM 12.5 54.5 0.105 7.42 13.99 10.4
4/22/2023 11:30:00 AM 12.52 54.536 0.105 7.41 14.39 10.3
4/22/2023 11:45:00 AM 12.48 54.464 0.105 7.39 14.63 10.19
4/22/2023 12:00:00 PM 12.4 54.32 0.106 7.37 14.53 10.16
4/22/2023 12:15:00 PM 12.39 54.302 0.105 7.37 14.07 10.16
4/22/2023 12:30:00 PM 12.45 54.41 0.105 7.38 14.08 10.21
4/22/2023 12:45:00 PM 12.51 54.518 0.105 7.39 16.05 10.23
4/22/2023 1:00:00 PM 12.52 54.536 0.105 7.4 14.82 10.22
4/22/2023 1:15:00 PM 12.51 54.518 0.105 7.39 14.65 10.2
4/22/2023 1:30:00 PM 12.44 54.392 0.105 7.38 14.56 10.15
4/22/2023 1:45:00 PM 12.39 54.302 0.105 7.37 14.57 10.13
4/22/2023 2:00:00 PM 12.35 54.23 0.104 7.36 14.83 10.14
4/22/2023 2:15:00 PM 12.32 54.176 0.105 7.36 14.78 10.16
4/22/2023 2:30:00 PM 12.28 54.104 0.105 7.36 14.86 10.18
4/22/2023 2:45:00 PM 12.29 54.122 0.105 7.37 14.97 10.2
4/22/2023 3:00:00 PM 12.36 54.248 0.105 7.38 14.79 10.25
4/22/2023 3:15:00 PM 12.43 54.374 0.105 7.39 14.34 10.24
4/22/2023 3:30:00 PM 12.38 54.284 0.105 7.38 14.7 10.16
4/22/2023 3:45:00 PM 12.27 54.086 0.105 7.36 14.89 10.1
4/22/2023 4:00:00 PM 12.18 53.924 0.105 7.34 16 10.07
4/22/2023 4:15:00 PM 12.1 53.78 0.105 7.32 15.46 10.07
4/22/2023 4:30:00 PM 12.02 53.636 0.105 7.31 15.26 10.09
4/22/2023 4:45:00 PM 11.95 53.51 0.104 7.31 15.33 10.1
4/22/2023 5:00:00 PM 11.87 53.366 0.105 7.3 15.01 10.08
4/22/2023 5:15:00 PM 11.79 53.222 0.104 7.29 16.24 10.07
4/22/2023 5:30:00 PM 11.72 53.096 0.105 7.28 15.09 10.06
4/22/2023 5:45:00 PM 11.66 52.988 0.105 7.27 14.97 10.07
4/22/2023 6:00:00 PM 11.59 52.862 0.104 7.26 15.43 10.08
4/22/2023 6:15:00 PM 11.53 52.754 0.104 7.26 15.15 10.1
4/22/2023 6:30:00 PM 11.48 52.664 0.104 7.26 15.32 10.14
4/22/2023 6:45:00 PM 11.43 52.574 0.105 7.26 15.2 10.15
4/22/2023 7:00:00 PM 11.38 52.484 0.105 7.25 15.5 10.13
4/22/2023 7:15:00 PM 11.32 52.376 0.105 7.24 15.63 10.13
4/22/2023 7:30:00 PM 11.27 52.286 0.105 7.24 15.83 10.13
4/22/2023 7:45:00 PM 11.2 52.16 0.106 7.23 15.74 10.13
4/22/2023 8:00:00 PM 11.12 52.016 0.107 7.23 16.82 10.12
4/22/2023 8:15:00 PM 11.02 51.836 0.107 7.22 16.6 10.14
4/22/2023 8:30:00 PM 10.96 51.728 0.108 7.22 16.69 10.13
4/22/2023 8:45:00 PM 10.88 51.584 0.108 7.21 16.19 10.15
4/22/2023 9:00:00 PM 10.81 51.458 0.108 7.21 16.36 10.16
4/22/2023 9:15:00 PM 10.75 51.35 0.108 7.21 16.83 10.18
4/22/2023 9:30:00 PM 10.69 51.242 0.107 7.2 16.44 10.2
4/22/2023 9:45:00 PM 10.63 51.134 0.108 7.2 16.66 10.21
4/22/2023 10:00:00 PM 10.58 51.044 0.108 7.2 17.12 10.23
4/22/2023 10:15:00 PM 10.51 50.918 0.107 7.2 17.92 10.26
4/22/2023 10:30:00 PM 10.49 50.882 0.108 7.2 16.8 10.27
4/22/2023 10:45:00 PM 10.43 50.774 0.108 7.2 100.99 10.28
4/22/2023 11:00:00 PM 10.38 50.684 0.107 7.2 18.07 10.3
4/22/2023 11:15:00 PM 10.32 50.576 0.107 7.2 18.09 10.32
4/22/2023 11:30:00 PM 10.28 50.504 0.107 7.2 16.29 10.33
4/22/2023 11:45:00 PM 10.24 50.432 0.107 7.2 16.24 10.35
4/23/2023 12:00:00 AM 10.2 50.36 0.107 7.2 18.18 10.36
4/23/2023 12:15:00 AM 10.15 50.27 0.108 7.21 16.87 10.38
4/23/2023 12:30:00 AM 10.12 50.216 0.109 7.21 17.6 10.38
4/23/2023 12:45:00 AM 10.09 50.162 0.109 7.21 17.2 10.39
4/23/2023 1:00:00 AM 10.06 50.108 0.11 7.22 16.78 10.4
4/23/2023 1:15:00 AM 10.01 50.018 0.11 7.22 16.69 10.41
4/23/2023 1:30:00 AM 9.97 49.946 0.111 7.22 16.72 10.42
4/23/2023 1:45:00 AM 9.94 49.892 0.112 7.23 16.68 10.43
4/23/2023 2:00:00 AM 9.88 49.784 0.113 7.23 16.89 10.44
4/23/2023 2:15:00 AM 9.83 49.694 0.114 7.23 16.32 10.46
4/23/2023 2:30:00 AM 9.79 49.622 0.114 7.23 16.78 10.46
4/23/2023 2:45:00 AM 9.75 49.55 0.114 7.23 16.79 10.47
4/23/2023 3:00:00 AM 9.72 49.496 0.115 7.24 17.03 10.49
4/23/2023 3:15:00 AM 9.69 49.442 0.115 7.24 16.21 10.49
4/23/2023 3:30:00 AM 9.66 49.388 0.116 7.25 16.47 10.5
4/23/2023 3:45:00 AM 9.62 49.316 0.116 7.25 16.51 10.51
4/23/2023 4:00:00 AM 9.58 49.244 0.116 7.25 16.45 10.51
4/23/2023 4:15:00 AM 9.54 49.172 0.116 7.25 16.42 10.53
4/23/2023 4:30:00 AM 9.51 49.118 0.117 7.25 15.99 10.53
4/23/2023 4:45:00 AM 9.48 49.064 0.116 7.25 15.85 10.55
4/23/2023 5:00:00 AM 9.45 49.01 0.116 7.25 15.83 10.55
4/23/2023 5:15:00 AM 9.41 48.938 0.116 7.25 16.79 10.56
4/23/2023 5:30:00 AM 9.38 48.884 0.116 7.25 16.58 10.57
4/23/2023 5:45:00 AM 9.34 48.812 0.116 7.25 18.08 10.58
4/23/2023 6:00:00 AM 9.3 48.74 0.116 7.25 16.46 10.59
4/23/2023 6:15:00 AM 9.26 48.668 0.116 7.25 15.78 10.6
4/23/2023 6:30:00 AM 9.23 48.614 0.116 7.25 15.65 10.61
4/23/2023 6:45:00 AM 9.19 48.542 0.116 7.25 16.05 10.63
4/23/2023 7:00:00 AM 9.16 48.488 0.116 7.25 16.9 10.66
4/23/2023 7:15:00 AM 9.14 48.452 0.115 7.26 15.63 10.69
4/23/2023 7:30:00 AM 9.12 48.416 0.115 7.27 15.73 10.73
4/23/2023 7:45:00 AM 9.1 48.38 0.115 7.28 16.75 10.79
4/23/2023 8:00:00 AM 9.11 48.398 0.115 7.29 15.48 10.85
4/23/2023 8:15:00 AM 9.13 48.434 0.115 7.31 16.34 10.9
4/23/2023 8:30:00 AM 9.15 48.47 0.115 7.32 15.91 10.95
4/23/2023 8:45:00 AM 9.2 48.56 0.114 7.34 15.68 10.98
4/23/2023 9:00:00 AM 9.23 48.614 0.114 7.35 15.94 10.99
4/23/2023 9:15:00 AM 9.35 48.83 0.114 7.36 16.03 11.03
4/23/2023 9:30:00 AM 9.43 48.974 0.114 7.38 15.71 11.03
4/23/2023 9:45:00 AM 9.48 49.064 0.113 7.38 16.04 11
4/23/2023 10:00:00 AM 9.46 49.028 0.113 7.38 15.54 10.98
4/23/2023 10:15:00 AM 9.48 49.064 0.113 7.38 15.38 10.93
4/23/2023 10:30:00 AM 9.48 49.064 0.113 7.37 15.75 10.9
4/23/2023 10:45:00 AM 9.47 49.046 0.113 7.37 16.24 10.89
4/23/2023 11:00:00 AM 9.51 49.118 0.113 7.37 15.66 10.92
4/23/2023 11:15:00 AM 9.62 49.316 0.113 7.38 15.88 10.97
4/23/2023 11:30:00 AM 9.78 49.604 0.113 7.4 15.62 10.98
4/23/2023 11:45:00 AM 9.86 49.748 0.113 7.41 16.18 10.97
4/23/2023 12:00:00 PM 9.96 49.928 0.112 7.41 16.29 10.95
4/23/2023 12:15:00 PM 10.14 50.252 0.113 7.42 15.48 10.93
4/23/2023 12:30:00 PM 10.27 50.486 0.112 7.43 19.95 10.9
4/23/2023 12:45:00 PM 10.38 50.684 0.112 7.43 16.67 10.87
4/23/2023 1:00:00 PM 10.4 50.72 0.112 7.43 16.24 10.84
4/23/2023 1:15:00 PM 10.44 50.792 0.112 7.43 16.8 10.83
4/23/2023 1:30:00 PM 10.49 50.882 0.112 7.43 16.32 10.8
4/23/2023 1:45:00 PM 10.5 50.9 0.112 7.43 15.88 10.76
4/23/2023 2:00:00 PM 10.41 50.738 0.111 7.42 16.07 10.74
4/23/2023 2:15:00 PM 10.39 50.702 0.111 7.42 16.31 10.75
4/23/2023 2:30:00 PM 10.37 50.666 0.111 7.42 16.33 10.77
4/23/2023 2:45:00 PM 10.32 50.576 0.111 7.42 16.32 10.77
4/23/2023 3:00:00 PM 10.26 50.468 0.111 7.4 15.85 10.73
4/23/2023 3:15:00 PM 10.21 50.378 0.11 7.39 16.06 10.72
4/23/2023 3:30:00 PM 10.14 50.252 0.111 7.38 15.63 10.71
4/23/2023 3:45:00 PM 10.06 50.108 0.111 7.38 15.16 10.71
4/23/2023 4:00:00 PM 10 50 0.111 7.37 15.37 10.72
4/23/2023 4:15:00 PM 9.93 49.874 0.11 7.37 15.32 10.74
4/23/2023 4:30:00 PM 9.88 49.784 0.11 7.37 15.34 10.76
4/23/2023 4:45:00 PM 9.84 49.712 0.111 7.36 15.01 10.78
4/23/2023 5:00:00 PM 9.79 49.622 0.11 7.37 15.24 10.81
4/23/2023 5:15:00 PM 9.75 49.55 0.11 7.37 15.99 10.83
4/23/2023 5:30:00 PM 9.72 49.496 0.11 7.37 15.18 10.84
4/23/2023 5:45:00 PM 9.66 49.388 0.11 7.36 14.88 10.83
4/23/2023 6:00:00 PM 9.59 49.262 0.11 7.36 15.29 10.82
4/23/2023 6:15:00 PM 9.54 49.172 0.11 7.35 15.36 10.82
4/23/2023 6:30:00 PM 9.49 49.082 0.11 7.34 15.67 10.8
4/23/2023 6:45:00 PM 9.42 48.956 0.11 7.33 15.83 10.79
4/23/2023 7:00:00 PM 9.35 48.83 0.111 7.32 15.36 10.78
4/23/2023 7:15:00 PM 9.29 48.722 0.11 7.31 14.69 10.77
4/23/2023 7:30:00 PM 9.23 48.614 0.111 7.3 15.36 10.75
4/23/2023 7:45:00 PM 9.17 48.506 0.11 7.29 15.6 10.74
4/23/2023 8:00:00 PM 9.1 48.38 0.111 7.28 15.26 10.74
4/23/2023 8:15:00 PM 9.03 48.254 0.111 7.27 15.05 10.73
4/23/2023 8:30:00 PM 8.97 48.146 0.111 7.26 14.91 10.73
4/23/2023 8:45:00 PM 8.92 48.056 0.111 7.25 15.53 10.73
4/23/2023 9:00:00 PM 8.86 47.948 0.111 7.25 15.53 10.75
4/23/2023 9:15:00 PM 8.8 47.84 0.111 7.25 15.56 10.76
4/23/2023 9:30:00 PM 8.73 47.714 0.111 7.24 15.58 10.78
4/23/2023 9:45:00 PM 8.67 47.606 0.111 7.24 15.8 10.8
4/23/2023 10:00:00 PM 8.6 47.48 0.111 7.23 15.27 10.81
4/23/2023 10:15:00 PM 8.53 47.354 0.111 7.23 15.34 10.83
4/23/2023 10:30:00 PM 8.45 47.21 0.111 7.23 15.52 10.85
4/23/2023 10:45:00 PM 8.36 47.048 0.111 7.23 15.41 10.87
4/23/2023 11:00:00 PM 8.27 46.886 0.112 7.23 15.89 10.89
4/23/2023 11:15:00 PM 8.18 46.724 0.111 7.22 15.66 10.92
4/23/2023 11:30:00 PM 8.1 46.58 0.111 7.22 15.52 10.94
4/23/2023 11:45:00 PM 8.02 46.436 0.111 7.22 15.69 10.96
4/24/2023 12:00:00 AM 7.94 46.292 0.111 7.22 15.76 10.98
4/24/2023 12:15:00 AM 7.86 46.148 0.111 7.22 15.95 11
4/24/2023 12:30:00 AM 7.78 46.004 0.112 7.22 15.61 11.02
4/24/2023 12:45:00 AM 7.7 45.86 0.111 7.22 15.74 11.05
4/24/2023 1:00:00 AM 7.62 45.716 0.112 7.22 14.63 11.07
4/24/2023 1:15:00 AM 7.56 45.608 0.112 7.22 14.64 11.09
4/24/2023 1:30:00 AM 7.51 45.518 0.112 7.22 15.98 11.1
4/24/2023 1:45:00 AM 7.46 45.428 0.112 7.22 16.04 11.12
4/24/2023 2:00:00 AM 7.42 45.356 0.112 7.22 17.91 11.13
4/24/2023 2:15:00 AM 7.38 45.284 0.112 7.21 15.41 11.15
4/24/2023 2:30:00 AM 7.34 45.212 0.112 7.22 15.58 11.16
4/24/2023 2:45:00 AM 7.31 45.158 0.112 7.21 15.53 11.18
4/24/2023 3:00:00 AM 7.27 45.086 0.112 7.21 15.59 11.18
4/24/2023 3:15:00 AM 7.23 45.014 0.112 7.21 15.61 11.2
4/24/2023 3:30:00 AM 7.19 44.942 0.112 7.21 15.57 11.2
4/24/2023 3:45:00 AM 7.14 44.852 0.112 7.21 14.92 11.22
4/24/2023 4:00:00 AM 7.12 44.816 0.112 7.21 15.14 11.22
4/24/2023 4:15:00 AM 7.09 44.762 0.112 7.21 18.61 11.23
4/24/2023 4:30:00 AM 7.05 44.69 0.112 7.21 17.35 11.25
4/24/2023 4:45:00 AM 7.04 44.672 0.112 7.21 16.81 11.25
4/24/2023 5:00:00 AM 7.01 44.618 0.112 7.21 19.56 11.26
4/24/2023 5:15:00 AM 6.98 44.564 0.112 7.21 17.95 11.26
4/24/2023 5:30:00 AM 6.96 44.528 0.112 7.21 16.71 11.27
4/24/2023 5:45:00 AM 6.94 44.492 0.108 7.21 28.94 11.27
4/24/2023 6:00:00 AM 6.91 44.438 0.112 7.21 18.94 11.28
4/24/2023 6:15:00 AM 6.89 44.402 0.112 7.2 12.15 11.29
4/24/2023 6:30:00 AM 6.87 44.366 0.113 7.21 13.28 11.3
4/24/2023 6:45:00 AM 6.85 44.33 0.112 7.21 12.59 11.33
4/24/2023 7:00:00 AM 6.84 44.312 0.112 7.22 12.53 11.37
4/24/2023 7:15:00 AM 6.83 44.294 0.112 7.23 12.3 11.42
4/24/2023 7:30:00 AM 6.83 44.294 0.112 7.24 12.17 11.48
4/24/2023 7:45:00 AM 6.85 44.33 0.112 7.25 12.98 11.54
4/24/2023 8:00:00 AM 6.88 44.384 0.112 7.27 12.64 11.58
4/24/2023 8:15:00 AM 6.91 44.438 0.112 7.28 12.44 11.61
4/24/2023 8:30:00 AM 6.95 44.51 0.112 7.29 12.56 11.63
4/24/2023 8:45:00 AM 7 44.6 0.112 7.3 12.36 11.65
4/24/2023 9:00:00 AM 7.09 44.762 0.112 7.31 12.3 11.66
4/24/2023 9:15:00 AM 7.22 44.996 0.112 7.32 12.46 11.65
4/24/2023 9:30:00 AM 7.33 45.194 0.111 7.33 12.36 11.63
4/24/2023 9:45:00 AM 7.41 45.338 0.111 7.34 12.2 11.6
4/24/2023 10:00:00 AM 7.56 45.608 0.111 7.35 12.27 11.57
4/24/2023 10:15:00 AM 7.62 45.716 0.112 7.35 12.25 11.54
4/24/2023 10:30:00 AM 7.66 45.788 0.111 7.35 12.23 11.52
4/24/2023 10:45:00 AM 7.71 45.878 0.111 7.35 12.05 11.51
4/24/2023 11:00:00 AM 8.03 46.454 0.111 7.36 12.09 11.51
4/24/2023 11:15:00 AM 8.44 47.192 0.111 7.37 12.23 11.47
4/24/2023 11:30:00 AM 8.63 47.534 0.111 7.38 12.07 11.4
4/24/2023 11:45:00 AM 9.02 48.236 0.112 7.39 12.09 11.34
4/24/2023 12:00:00 PM 9.42 48.956 0.111 7.39 12.1 11.28
4/24/2023 12:15:00 PM 9.81 49.658 0.111 7.4 11.98 11.19
4/24/2023 12:30:00 PM 10.06 50.108 0.111 7.4 12.3 11.12
4/24/2023 12:45:00 PM 10.21 50.378 0.111 7.4 12.21 11.04
4/24/2023 1:00:00 PM 10.26 50.468 0.11 7.4 12.14 10.95
4/24/2023 1:15:00 PM 10.15 50.27 0.109 7.39 12.48 10.9
4/24/2023 1:30:00 PM 10.16 50.288 0.11 7.4 12.72 10.93
4/24/2023 1:45:00 PM 10.21 50.378 0.109 7.4 12.78 10.91
4/24/2023 2:00:00 PM 10.16 50.288 0.109 7.4 12.71 10.91
4/24/2023 2:15:00 PM 10.09 50.162 0.109 7.4 12.7 10.96
4/24/2023 2:30:00 PM 10.17 50.306 0.109 7.41 12.81 10.97
4/24/2023 2:45:00 PM 10.29 50.522 0.109 7.41 12.47 10.91
4/24/2023 3:00:00 PM 10.16 50.288 0.109 7.4 12.52 10.89
4/24/2023 3:15:00 PM 10.03 50.054 0.109 7.39 12.49 10.88
4/24/2023 3:30:00 PM 9.98 49.964 0.109 7.39 12.43 10.89
4/24/2023 3:45:00 PM 9.9 49.82 0.109 7.4 12.67 10.92
4/24/2023 4:00:00 PM 9.86 49.748 0.109 7.4 12.6 10.95
4/24/2023 4:15:00 PM 9.86 49.748 0.109 7.4 12.53 10.97
4/24/2023 4:30:00 PM 9.9 49.82 0.108 7.41 12.52 11
4/24/2023 4:45:00 PM 9.98 49.964 0.108 7.42 12.69 10.98
4/24/2023 5:00:00 PM 10.02 50.036 0.108 7.41 12.63 10.94
4/24/2023 5:15:00 PM 9.94 49.892 0.108 7.4 12.54 10.91
4/24/2023 5:30:00 PM 9.83 49.694 0.108 7.39 12.81 10.92
4/24/2023 5:45:00 PM 9.74 49.532 0.108 7.39 12.63 10.92
4/24/2023 6:00:00 PM 9.63 49.334 0.109 7.38 12.74 10.92
4/24/2023 6:15:00 PM 9.56 49.208 0.109 7.37 12.63 10.91
4/24/2023 6:30:00 PM 9.49 49.082 0.109 7.37 12.69 10.93
4/24/2023 6:45:00 PM 9.43 48.974 0.109 7.36 12.8 10.93
4/24/2023 7:00:00 PM 9.35 48.83 0.109 7.35 12.85 10.91
4/24/2023 7:15:00 PM 9.24 48.632 0.109 7.34 12.76 10.89
4/24/2023 7:30:00 PM 9.15 48.47 0.109 7.33 13.02 10.88
4/24/2023 7:45:00 PM 9.05 48.29 0.109 7.31 12.97 10.87
4/24/2023 8:00:00 PM 8.94 48.092 0.11 7.3 12.91 10.86
4/24/2023 8:15:00 PM 8.83 47.894 0.11 7.29 12.83 10.85
4/24/2023 8:30:00 PM 8.75 47.75 0.11 7.27 12.95 10.84
4/24/2023 8:45:00 PM 8.67 47.606 0.11 7.26 13.06 10.85
4/24/2023 9:00:00 PM 8.59 47.462 0.11 7.25 13.16 10.85
4/24/2023 9:15:00 PM 8.52 47.336 0.111 7.25 13.02 10.87
4/24/2023 9:30:00 PM 8.45 47.21 0.111 7.24 12.99 10.89
4/24/2023 9:45:00 PM 8.37 47.066 0.111 7.24 13.04 10.9
4/24/2023 10:00:00 PM 8.28 46.904 0.111 7.23 13.12 10.92
4/24/2023 10:15:00 PM 8.19 46.742 0.111 7.23 12.83 10.95
4/24/2023 10:30:00 PM 8.12 46.616 0.111 7.23 13.16 10.97
4/24/2023 10:45:00 PM 8.06 46.508 0.111 7.23 13.18 10.99
4/24/2023 11:00:00 PM 7.98 46.364 0.112 7.22 13.02 11
4/24/2023 11:15:00 PM 7.9 46.22 0.112 7.22 13.02 11.03
4/24/2023 11:30:00 PM 7.83 46.094 0.111 7.22 12.97 11.04
4/24/2023 11:45:00 PM 7.75 45.95 0.111 7.22 12.82 11.06
4/25/2023 12:00:00 AM 7.7 45.86 0.111 7.22 12.94 11.08
4/25/2023 12:15:00 AM 7.64 45.752 0.111 7.22 13.13 11.1
4/25/2023 12:30:00 AM 7.6 45.68 0.112 7.21 12.93 11.11
4/25/2023 12:45:00 AM 7.57 45.626 0.112 7.21 12.98 11.12
4/25/2023 1:00:00 AM 7.53 45.554 0.112 7.22 12.93 11.14
4/25/2023 1:15:00 AM 7.49 45.482 0.111 7.21 12.93 11.16
4/25/2023 1:30:00 AM 7.45 45.41 0.112 7.22 12.9 11.17
4/25/2023 1:45:00 AM 7.41 45.338 0.112 7.22 12.95 11.18
4/25/2023 2:00:00 AM 7.38 45.284 0.112 7.22 13.04 11.19
4/25/2023 2:15:00 AM 7.34 45.212 0.112 7.22 13.09 11.2
4/25/2023 2:30:00 AM 7.3 45.14 0.112 7.22 13.15 11.21
4/25/2023 2:45:00 AM 7.26 45.068 0.112 7.22 13.01 11.22
4/25/2023 3:00:00 AM 7.23 45.014 0.112 7.22 13.06 11.24
4/25/2023 3:15:00 AM 7.19 44.942 0.112 7.22 13.02 11.25
4/25/2023 3:30:00 AM 7.15 44.87 0.112 7.22 12.89 11.26
4/25/2023 3:45:00 AM 7.12 44.816 0.112 7.21 13.14 11.26
4/25/2023 4:00:00 AM 7.1 44.78 0.112 7.22 12.92 11.28
4/25/2023 4:15:00 AM 7.07 44.726 0.112 7.22 13.08 11.28
4/25/2023 4:30:00 AM 7.03 44.654 0.112 7.22 12.95 11.29
4/25/2023 4:45:00 AM 7 44.6 0.112 7.22 13.1 11.3
4/25/2023 5:00:00 AM 6.97 44.546 0.112 7.22 13.06 11.31
4/25/2023 5:15:00 AM 6.92 44.456 0.112 7.22 13.07 11.33
4/25/2023 5:30:00 AM 6.9 44.42 0.112 7.21 13.05 11.33
4/25/2023 5:45:00 AM 6.86 44.348 0.112 7.22 13.15 11.34
4/25/2023 6:00:00 AM 6.83 44.294 0.112 7.22 13.1 11.35
4/25/2023 6:15:00 AM 6.79 44.222 0.112 7.22 13.25 11.36
4/25/2023 6:30:00 AM 6.75 44.15 0.112 7.21 13.47 11.38
4/25/2023 6:45:00 AM 6.72 44.096 0.112 7.22 13.14 11.41
4/25/2023 7:00:00 AM 6.7 44.06 0.112 7.23 13.33 11.46
4/25/2023 7:15:00 AM 6.68 44.024 0.112 7.23 12.79 11.5
4/25/2023 7:30:00 AM 6.66 43.988 0.112 7.24 13.28 11.55
4/25/2023 7:45:00 AM 6.67 44.006 0.112 7.26 13.06 11.61
4/25/2023 8:00:00 AM 6.68 44.024 0.112 7.27 13.1 11.66
4/25/2023 8:15:00 AM 6.75 44.15 0.112 7.29 13.27 11.71
4/25/2023 8:30:00 AM 6.81 44.258 0.112 7.3 13.24 11.75
4/25/2023 8:45:00 AM 6.89 44.402 0.112 7.32 13.1 11.76
4/25/2023 9:00:00 AM 6.95 44.51 0.112 7.32 13.19 11.75
4/25/2023 9:15:00 AM 7.05 44.69 0.112 7.33 13.22 11.73
4/25/2023 9:30:00 AM 7.2 44.96 0.112 7.33 13.18 11.71
4/25/2023 9:45:00 AM 7.39 45.302 0.112 7.34 13.12 11.68
4/25/2023 10:00:00 AM 7.58 45.644 0.112 7.35 13.11 11.65
4/25/2023 10:15:00 AM 7.8 46.04 0.112 7.35 13.07 11.61
4/25/2023 10:30:00 AM 8 46.4 0.112 7.35 12.94 11.57
4/25/2023 10:45:00 AM 8.24 46.832 0.112 7.36 13.1 11.54
4/25/2023 11:00:00 AM 8.51 47.318 0.112 7.36 13.02 11.49
4/25/2023 11:15:00 AM 8.77 47.786 0.112 7.37 13.04 11.42
4/25/2023 11:30:00 AM 8.76 47.768 0.112 7.37 13.1 11.36
4/25/2023 11:45:00 AM 8.97 48.146 0.112 7.38 12.98 11.34
4/25/2023 12:00:00 PM 9.26 48.668 0.112 7.39 13.02 11.28
4/25/2023 12:15:00 PM 9.33 48.794 0.111 7.39 13.01 11.23
4/25/2023 12:30:00 PM 9.31 48.758 0.111 7.4 13.1 11.21
4/25/2023 12:45:00 PM 9.47 49.046 0.111 7.4 13.15 11.21
4/25/2023 1:00:00 PM 9.67 49.406 0.111 7.41 12.9 11.18
4/25/2023 1:15:00 PM 9.8 49.64 0.111 7.41 13.16 11.15
4/25/2023 1:30:00 PM 9.89 49.802 0.111 7.42 13.21 11.11
4/25/2023 1:45:00 PM 9.97 49.946 0.111 7.42 13.23 11.08
4/25/2023 2:00:00 PM 10.02 50.036 0.111 7.42 13.14 11.03
4/25/2023 2:15:00 PM 10.1 50.18 0.111 7.43 13.1 11.02
4/25/2023 2:30:00 PM 10.24 50.432 0.111 7.43 13.02 10.99
4/25/2023 2:45:00 PM 10.37 50.666 0.111 7.43 13.11 10.95
4/25/2023 3:00:00 PM 10.54 50.972 0.111 7.44 13.15 10.93
4/25/2023 3:15:00 PM 10.68 51.224 0.11 7.43 13.91 10.89
4/25/2023 3:30:00 PM 10.76 51.368 0.111 7.43 13.33 10.86
4/25/2023 3:45:00 PM 10.76 51.368 0.11 7.43 13.69 10.84
4/25/2023 4:00:00 PM 10.66 51.188 0.111 7.43 13.14 10.84
4/25/2023 4:15:00 PM 10.61 51.098 0.11 7.43 13.07 10.85
4/25/2023 4:30:00 PM 10.6 51.08 0.11 7.43 13.16 10.85
4/25/2023 4:45:00 PM 10.51 50.918 0.11 7.42 13.07 10.85
4/25/2023 5:00:00 PM 10.4 50.72 0.11 7.42 13.29 10.86
4/25/2023 5:15:00 PM 10.34 50.612 0.11 7.42 13.35 10.87
4/25/2023 5:30:00 PM 10.29 50.522 0.11 7.42 13.25 10.87
4/25/2023 5:45:00 PM 10.19 50.342 0.11 7.41 13.24 10.87
4/25/2023 6:00:00 PM 10.06 50.108 0.11 7.4 13.22 10.88
4/25/2023 6:15:00 PM 9.97 49.946 0.11 7.39 13.15 10.87
4/25/2023 6:30:00 PM 9.87 49.766 0.109 7.38 13.18 10.85
4/25/2023 6:45:00 PM 9.78 49.604 0.11 7.37 13.12 10.84
4/25/2023 7:00:00 PM 9.7 49.46 0.11 7.36 13.1 10.84
4/25/2023 7:15:00 PM 9.61 49.298 0.11 7.34 13.29 10.82
4/25/2023 7:30:00 PM 9.52 49.136 0.11 7.33 13.31 10.8
4/25/2023 7:45:00 PM 9.42 48.956 0.11 7.32 13.26 10.79
4/25/2023 8:00:00 PM 9.31 48.758 0.11 7.3 13.15 10.77
4/25/2023 8:15:00 PM 9.19 48.542 0.11 7.28 13.52 10.77
4/25/2023 8:30:00 PM 9.08 48.344 0.111 7.27 13.4 10.77
4/25/2023 8:45:00 PM 8.98 48.164 0.11 7.26 13.37 10.77
4/25/2023 9:00:00 PM 8.88 47.984 0.11 7.25 13.5 10.79
4/25/2023 9:15:00 PM 8.79 47.822 0.111 7.24 13.58 10.81
4/25/2023 9:30:00 PM 8.71 47.678 0.111 7.24 13.7 10.83
4/25/2023 9:45:00 PM 8.62 47.516 0.111 7.23 13.5 10.85
4/25/2023 10:00:00 PM 8.54 47.372 0.111 7.23 13.47 10.87
4/25/2023 10:15:00 PM 8.46 47.228 0.111 7.23 13.33 10.89
4/25/2023 10:30:00 PM 8.38 47.084 0.111 7.22 13.7 10.91
4/25/2023 10:45:00 PM 8.3 46.94 0.111 7.22 13.66 10.93
4/25/2023 11:00:00 PM 8.21 46.778 0.111 7.22 13.7 10.95
4/25/2023 11:15:00 PM 8.12 46.616 0.111 7.21 14.15 10.97
4/25/2023 11:30:00 PM 8.03 46.454 0.111 7.21 14.01 11
4/25/2023 11:45:00 PM 7.94 46.292 0.111 7.21 13.96 11.02
4/26/2023 12:00:00 AM 7.84 46.112 0.112 7.21 13.8 11.05
4/26/2023 12:15:00 AM 7.76 45.968 0.112 7.2 13.89 11.07
4/26/2023 12:30:00 AM 7.69 45.842 0.112 7.2 13.96 11.09
4/26/2023 12:45:00 AM 7.63 45.734 0.112 7.2 13.74 11.11
4/26/2023 1:00:00 AM 7.58 45.644 0.112 7.2 14.71 11.13
4/26/2023 1:15:00 AM 7.53 45.554 0.112 7.2 13.9 11.14
4/26/2023 1:30:00 AM 7.49 45.482 0.111 7.2 13.76 11.16
4/26/2023 1:45:00 AM 7.45 45.41 0.112 7.2 13.55 11.17
4/26/2023 2:00:00 AM 7.42 45.356 0.113 7.2 13.86 11.18
4/26/2023 2:15:00 AM 7.39 45.302 0.112 7.2 14.5 11.19
4/26/2023 2:30:00 AM 7.35 45.23 0.112 7.2 15.03 11.2
4/26/2023 2:45:00 AM 7.31 45.158 0.112 7.2 14.8 11.21
4/26/2023 3:00:00 AM 7.29 45.122 0.112 7.2 14.66 11.22
4/26/2023 3:15:00 AM 7.27 45.086 0.112 7.2 15.01 11.22
4/26/2023 3:30:00 AM 7.22 44.996 0.112 7.2 14.7 11.24
4/26/2023 3:45:00 AM 7.21 44.978 0.112 7.2 14.66 11.24
4/26/2023 4:00:00 AM 7.19 44.942 0.112 7.2 14.9 11.25
4/26/2023 4:15:00 AM 7.16 44.888 0.112 7.2 14.92 11.26
4/26/2023 4:30:00 AM 7.14 44.852 0.112 7.2 15.14 11.27
4/26/2023 4:45:00 AM 7.11 44.798 0.112 7.2 15.69 11.27
4/26/2023 5:00:00 AM 7.09 44.762 0.112 7.2 15.22 11.28
4/26/2023 5:15:00 AM 7.07 44.726 0.112 7.2 15.08 11.29
4/26/2023 5:30:00 AM 7.04 44.672 0.112 7.19 15.21 11.29
4/26/2023 5:45:00 AM 7.01 44.618 0.112 7.19 15.62 11.3
4/26/2023 6:00:00 AM 6.98 44.564 0.112 7.19 15.19 11.31
4/26/2023 6:15:00 AM 6.96 44.528 0.112 7.19 15.1 11.32
4/26/2023 6:30:00 AM 6.94 44.492 0.112 7.19 14.92 11.32
4/26/2023 6:45:00 AM 6.93 44.474 0.112 7.19 14.93 11.34
4/26/2023 7:00:00 AM 6.92 44.456 0.112 7.2 14.93 11.37
4/26/2023 7:15:00 AM 6.92 44.456 0.112 7.21 15.33 11.42
4/26/2023 7:30:00 AM 6.92 44.456 0.112 7.22 14.93 11.49
4/26/2023 7:45:00 AM 6.95 44.51 0.111 7.24 15.13 11.55
4/26/2023 8:00:00 AM 6.97 44.546 0.112 7.25 15.15 11.59
4/26/2023 8:15:00 AM 7.01 44.618 0.112 7.27 15.29 11.62
4/26/2023 8:30:00 AM 7.08 44.744 0.112 7.28 14.85 11.64
4/26/2023 8:45:00 AM 7.14 44.852 0.111 7.28 14.86 11.63
4/26/2023 9:00:00 AM 7.22 44.996 0.112 7.29 14.94 11.63
4/26/2023 9:15:00 AM 7.29 45.122 0.112 7.3 14.98 11.62
4/26/2023 9:30:00 AM 7.33 45.194 0.111 7.3 14.66 11.57
4/26/2023 9:45:00 AM 7.38 45.284 0.111 7.3 14.69 11.56
4/26/2023 10:00:00 AM 7.45 45.41 0.112 7.31 15.16 11.57
4/26/2023 10:15:00 AM 7.51 45.518 0.111 7.32 14.86 11.56
4/26/2023 10:30:00 AM 7.53 45.554 0.111 7.32 15.04 11.53
4/26/2023 10:45:00 AM 7.59 45.662 0.111 7.32 14.96 11.54
4/26/2023 11:00:00 AM 7.77 45.986 0.111 7.34 15.38 11.57
4/26/2023 11:15:00 AM 7.94 46.292 0.111 7.35 15.4 11.56
4/26/2023 11:30:00 AM 8.07 46.526 0.11 7.36 15.47 11.52
4/26/2023 11:45:00 AM 8.11 46.598 0.111 7.36 15.32 11.5
4/26/2023 12:00:00 PM 8.34 47.012 0.111 7.37 15.41 11.5
4/26/2023 12:15:00 PM 8.58 47.444 0.111 7.38 15.08 11.47
4/26/2023 12:30:00 PM 8.78 47.804 0.111 7.38 15.17 11.41
4/26/2023 12:45:00 PM 8.96 48.128 0.11 7.39 15.12 11.37
4/26/2023 1:00:00 PM 9.07 48.326 0.11 7.39 15.36 11.32
4/26/2023 1:15:00 PM 9.18 48.524 0.11 7.4 15.16 11.28
4/26/2023 1:30:00 PM 9.21 48.578 0.11 7.39 15.12 11.21
4/26/2023 1:45:00 PM 9.3 48.74 0.11 7.39 15.04 11.21
4/26/2023 2:00:00 PM 9.51 49.118 0.11 7.4 14.96 11.18
4/26/2023 2:15:00 PM 9.72 49.496 0.11 7.4 14.98 11.12
4/26/2023 2:30:00 PM 9.74 49.532 0.11 7.39 15.16 11.06
4/26/2023 2:45:00 PM 9.71 49.478 0.11 7.39 15.23 11.07
4/26/2023 3:00:00 PM 9.78 49.604 0.109 7.4 15.14 11.06
4/26/2023 3:15:00 PM 9.88 49.784 0.11 7.4 15.32 11.05
4/26/2023 3:30:00 PM 9.91 49.838 0.11 7.41 15.18 11.04
4/26/2023 3:45:00 PM 9.95 49.91 0.11 7.4 15.28 10.98
4/26/2023 4:00:00 PM 10 50 0.109 7.4 15.33 10.97
4/26/2023 4:15:00 PM 10.08 50.144 0.109 7.4 14.65 10.94
4/26/2023 4:30:00 PM 10.24 50.432 0.11 7.4 15.34 10.91
4/26/2023 4:45:00 PM 10.38 50.684 0.11 7.4 15.78 10.88
4/26/2023 5:00:00 PM 10.36 50.648 0.109 7.4 15.54 10.86
4/26/2023 5:15:00 PM 10.4 50.72 0.109 7.4 15.44 10.84
4/26/2023 5:30:00 PM 10.34 50.612 0.109 7.39 15.04 10.83
4/26/2023 5:45:00 PM 10.26 50.468 0.109 7.39 15.52 10.83
4/26/2023 6:00:00 PM 10.21 50.378 0.109 7.38 15.49 10.83
4/26/2023 6:15:00 PM 10.12 50.216 0.109 7.37 15.24 10.79
4/26/2023 6:30:00 PM 10 50 0.109 7.36 15.35 10.77
4/26/2023 6:45:00 PM 9.95 49.91 0.109 7.35 15.04 10.77
4/26/2023 7:00:00 PM 9.87 49.766 0.109 7.34 15.3 10.76
4/26/2023 7:15:00 PM 9.79 49.622 0.109 7.32 15.33 10.74
4/26/2023 7:30:00 PM 9.72 49.496 0.109 7.31 15.66 10.73
4/26/2023 7:45:00 PM 9.64 49.352 0.11 7.3 15.39 10.72
4/26/2023 8:00:00 PM 9.57 49.226 0.11 7.29 15.61 10.7
4/26/2023 8:15:00 PM 9.49 49.082 0.11 7.27 16.74 10.68
4/26/2023 8:30:00 PM 9.38 48.884 0.11 7.26 16.82 10.69
4/26/2023 8:45:00 PM 9.29 48.722 0.11 7.25 16.27 10.69
4/26/2023 9:00:00 PM 9.18 48.524 0.11 7.24 16.39 10.71
4/26/2023 9:15:00 PM 9.09 48.362 0.11 7.23 16.29 10.72
4/26/2023 9:30:00 PM 8.99 48.182 0.11 7.23 15.95 10.74
4/26/2023 9:45:00 PM 8.89 48.002 0.11 7.22 16.24 10.76
4/26/2023 10:00:00 PM 8.79 47.822 0.11 7.22 16.85 10.8
4/26/2023 10:15:00 PM 8.7 47.66 0.11 7.22 16.35 10.82
4/26/2023 10:30:00 PM 8.63 47.534 0.111 7.21 16.16 10.84
4/26/2023 10:45:00 PM 8.58 47.444 0.11 7.21 16.1 10.86
4/26/2023 11:00:00 PM 8.53 47.354 0.111 7.21 16.14 10.87
4/26/2023 11:15:00 PM 8.47 47.246 0.11 7.21 16.07 10.89
4/26/2023 11:30:00 PM 8.42 47.156 0.111 7.21 16.03 10.91
4/26/2023 11:45:00 PM 8.36 47.048 0.111 7.21 16.18 10.92
4/27/2023 12:00:00 AM 8.32 46.976 0.111 7.21 15.82 10.93
4/27/2023 12:15:00 AM 8.28 46.904 0.111 7.21 16.2 10.95
4/27/2023 12:30:00 AM 8.24 46.832 0.11 7.21 15.55 10.96
4/27/2023 12:45:00 AM 8.21 46.778 0.111 7.21 15.93 10.96
4/27/2023 1:00:00 AM 8.18 46.724 0.111 7.21 16.37 10.98
4/27/2023 1:15:00 AM 8.14 46.652 0.111 7.21 16.16 10.98
4/27/2023 1:30:00 AM 8.08 46.544 0.111 7.21 16.1 11
4/27/2023 1:45:00 AM 8.01 46.418 0.111 7.21 16.59 11.01
4/27/2023 2:00:00 AM 7.95 46.31 0.111 7.2 16.26 11.03
4/27/2023 2:15:00 AM 7.89 46.202 0.111 7.2 16.47 11.04
4/27/2023 2:30:00 AM 7.82 46.076 0.111 7.2 16.13 11.06
4/27/2023 2:45:00 AM 7.76 45.968 0.111 7.2 16.61 11.08
4/27/2023 3:00:00 AM 7.71 45.878 0.111 7.2 17.01 11.09
4/27/2023 3:15:00 AM 7.66 45.788 0.112 7.2 15.99 11.11
4/27/2023 3:30:00 AM 7.6 45.68 0.111 7.2 16.3 11.13
4/27/2023 3:45:00 AM 7.55 45.59 0.111 7.2 16.2 11.14
4/27/2023 4:00:00 AM 7.48 45.464 0.111 7.2 16.37 11.15
4/27/2023 4:15:00 AM 7.42 45.356 0.112 7.2 16.08 11.17
4/27/2023 4:30:00 AM 7.37 45.266 0.111 7.2 15.92 11.19
4/27/2023 4:45:00 AM 7.35 45.23 0.111 7.2 16.17 11.2
4/27/2023 5:00:00 AM 7.34 45.212 0.111 7.2 15.86 11.21
4/27/2023 5:15:00 AM 7.33 45.194 0.112 7.2 15.81 11.21
4/27/2023 5:30:00 AM 7.31 45.158 0.111 7.2 15.51 11.22
4/27/2023 5:45:00 AM 7.3 45.14 0.112 7.2 16.15 11.23
4/27/2023 6:00:00 AM 7.29 45.122 0.112 7.2 15.92 11.22
4/27/2023 6:15:00 AM 7.29 45.122 0.111 7.2 16.15 11.24
4/27/2023 6:30:00 AM 7.28 45.104 0.112 7.2 16.69 11.24
4/27/2023 6:45:00 AM 7.27 45.086 0.112 7.2 16.83 11.26
4/27/2023 7:00:00 AM 7.27 45.086 0.111 7.21 15.6 11.3
4/27/2023 7:15:00 AM 7.26 45.068 0.111 7.22 118.35 11.35
4/27/2023 7:30:00 AM 7.26 45.068 0.111 7.23 15.98 11.41
4/27/2023 7:45:00 AM 7.27 45.086 0.111 7.24 14.31 11.46
4/27/2023 8:00:00 AM 7.29 45.122 0.111 7.26 15.36 11.51
4/27/2023 8:15:00 AM 7.34 45.212 0.111 7.27 18.08 11.54
4/27/2023 8:30:00 AM 7.42 45.356 0.111 7.29 15.41 11.57
4/27/2023 8:45:00 AM 7.51 45.518 0.11 7.3 15.19 11.57
4/27/2023 9:00:00 AM 7.62 45.716 0.111 7.32 13.81 11.58
4/27/2023 9:15:00 AM 7.74 45.932 0.11 7.33 15.49 11.58
4/27/2023 9:30:00 AM 7.87 46.166 0.11 7.34 13.99 11.57
4/27/2023 9:45:00 AM 8 46.4 0.111 7.35 14.07 11.55
4/27/2023 10:00:00 AM 8.15 46.67 0.11 7.36 13.97 11.54
4/27/2023 10:15:00 AM 8.23 46.814 0.111 7.36 12.75 11.51
4/27/2023 10:30:00 AM 8.28 46.904 0.11 7.36 13.11 11.48
4/27/2023 10:45:00 AM 8.41 47.138 0.11 7.36 14.28 11.44
4/27/2023 11:00:00 AM 8.4 47.12 0.11 7.36 13.28 11.42
4/27/2023 11:15:00 AM 8.68 47.624 0.11 7.37 251.77 11.41
4/27/2023 11:30:00 AM 8.95 48.11 0.11 7.37 13.63 11.35
4/27/2023 11:45:00 AM 9.09 48.362 0.11 7.37 13.86 11.29
4/27/2023 12:00:00 PM 9.44 48.992 0.11 7.37 13.58 11.25
4/27/2023 12:15:00 PM 9.78 49.604 0.11 7.38 13.83 11.19
4/27/2023 12:30:00 PM 10.29 50.522 0.11 7.38 14.11 11.08
4/27/2023 12:45:00 PM 10.91 51.638 0.111 7.39 14.74 10.97
4/27/2023 1:00:00 PM 11.15 52.07 0.11 7.4 14.37 10.89
4/27/2023 1:15:00 PM 11.57 52.826 0.11 7.4 14.34 10.79
4/27/2023 1:30:00 PM 11.97 53.546 0.11 7.4 15.55 10.68
4/27/2023 1:45:00 PM 12.3 54.14 0.11 7.41 14.23 10.59
4/27/2023 2:00:00 PM 12.59 54.662 0.11 7.42 14.24 10.51
4/27/2023 2:15:00 PM 12.88 55.184 0.11 7.42 13.38 10.42
4/27/2023 2:30:00 PM 13.12 55.616 0.11 7.42 14.91 10.35
4/27/2023 2:45:00 PM 13.32 55.976 0.11 7.42 15.1 10.29
4/27/2023 3:00:00 PM 13.52 56.336 0.11 7.43 13.56 10.23
4/27/2023 3:15:00 PM 13.67 56.606 0.11 7.43 14.35 10.18
4/27/2023 3:30:00 PM 13.78 56.804 0.11 7.43 14.12 10.14
4/27/2023 3:45:00 PM 13.85 56.93 0.109 7.43 14.95 10.11
4/27/2023 4:00:00 PM 13.87 56.966 0.109 7.42 13.56 10.09
4/27/2023 4:15:00 PM 13.88 56.984 0.109 7.43 13.73 10.07
4/27/2023 4:30:00 PM 13.84 56.912 0.109 7.42 13.17 10.07
4/27/2023 4:45:00 PM 13.78 56.804 0.109 7.43 13.98 10.07
4/27/2023 5:00:00 PM 13.66 56.588 0.109 7.43 14.04 10.07
4/27/2023 5:15:00 PM 13.5 56.3 0.108 7.42 13.57 10.09
4/27/2023 5:30:00 PM 13.3 55.94 0.109 7.42 13.97 10.11
4/27/2023 5:45:00 PM 13.05 55.49 0.108 7.41 14.43 10.15
4/27/2023 6:00:00 PM 12.84 55.112 0.108 7.41 14.32 10.19
4/27/2023 6:15:00 PM 12.66 54.788 0.108 7.41 13.86 10.22
4/27/2023 6:30:00 PM 12.47 54.446 0.108 7.39 13.79 10.23
4/27/2023 6:45:00 PM 12.31 54.158 0.109 7.39 14.95 10.25
4/27/2023 7:00:00 PM 12.14 53.852 0.109 7.38 14.6 10.25
4/27/2023 7:15:00 PM 11.99 53.582 0.108 7.36 13.48 10.24
4/27/2023 7:30:00 PM 11.84 53.312 0.109 7.35 14.4 10.23
4/27/2023 7:45:00 PM 11.68 53.024 0.109 7.34 14.2 10.22
4/27/2023 8:00:00 PM 11.51 52.718 0.109 7.31 14.35 10.2
4/27/2023 8:15:00 PM 11.35 52.43 0.109 7.3 14.17 10.2
4/27/2023 8:30:00 PM 11.19 52.142 0.109 7.28 14.41 10.2
4/27/2023 8:45:00 PM 11.04 51.872 0.109 7.26 14.46 10.2
4/27/2023 9:00:00 PM 10.89 51.602 0.109 7.25 14.55 10.23
4/27/2023 9:15:00 PM 10.74 51.332 0.109 7.24 14.87 10.25
4/27/2023 9:30:00 PM 10.6 51.08 0.109 7.24 14.61 10.28
4/27/2023 9:45:00 PM 10.46 50.828 0.109 7.23 14.49 10.3
4/27/2023 10:00:00 PM 10.33 50.594 0.109 7.22 15.07 10.34
4/27/2023 10:15:00 PM 10.2 50.36 0.109 7.22 15.64 10.37
4/27/2023 10:30:00 PM 10.07 50.126 0.109 7.22 14.84 10.4
4/27/2023 10:45:00 PM 9.95 49.91 0.109 7.21 14.59 10.43
4/27/2023 11:00:00 PM 9.83 49.694 0.109 7.21 15.18 10.46
4/27/2023 11:15:00 PM 9.71 49.478 0.109 7.21 13.91 10.49
4/27/2023 11:30:00 PM 9.6 49.28 0.109 7.2 13.8 10.52
4/27/2023 11:45:00 PM 9.48 49.064 0.109 7.21 13.73 10.56
4/28/2023 12:00:00 AM 9.37 48.866 0.11 7.2 14.66 10.57
4/28/2023 12:15:00 AM 9.27 48.686 0.109 7.2 14.5 10.61
4/28/2023 12:30:00 AM 9.17 48.506 0.109 7.2 14.53 10.63
4/28/2023 12:45:00 AM 9.08 48.344 0.11 7.2 19.03 10.65
4/28/2023 1:00:00 AM 8.99 48.182 0.11 7.2 15.02 10.68
4/28/2023 1:15:00 AM 8.9 48.02 0.109 7.2 15.9 10.71
4/28/2023 1:30:00 AM 8.82 47.876 0.11 7.2 17.18 10.74
4/28/2023 1:45:00 AM 8.75 47.75 0.11 7.19 16.23 10.76
4/28/2023 2:00:00 AM 8.69 47.642 0.109 7.19 14.49 10.77
4/28/2023 2:15:00 AM 8.63 47.534 0.109 7.2 16.47 10.79
4/28/2023 2:30:00 AM 8.62 47.516 0.109 7.2 14.5 10.8
4/28/2023 2:45:00 AM 8.59 47.462 0.11 7.2 15.77 10.81
4/28/2023 3:00:00 AM 8.57 47.426 0.11 7.19 14.34 10.82
4/28/2023 3:15:00 AM 8.56 47.408 0.11 7.19 15 10.82
4/28/2023 3:30:00 AM 8.54 47.372 0.11 7.19 14.75 10.83
4/28/2023 3:45:00 AM 8.52 47.336 0.11 7.19 12.87 10.83
4/28/2023 4:00:00 AM 8.51 47.318 0.11 7.19 14.29 10.84
4/28/2023 4:15:00 AM 8.5 47.3 0.11 7.19 13.77 10.84
4/28/2023 4:30:00 AM 8.49 47.282 0.11 7.19 14.13 10.84
4/28/2023 4:45:00 AM 8.5 47.3 0.11 7.19 15.97 10.85
4/28/2023 5:00:00 AM 8.51 47.318 0.11 7.19 13.77 10.84
4/28/2023 5:15:00 AM 8.52 47.336 0.11 7.19 14 10.84
4/28/2023 5:30:00 AM 8.54 47.372 0.11 7.19 14.9 10.84
4/28/2023 5:45:00 AM 8.55 47.39 0.11 7.2 15.75 10.84
4/28/2023 6:00:00 AM 8.57 47.426 0.11 7.2 15.3 10.84
4/28/2023 6:15:00 AM 8.59 47.462 0.11 7.2 14.69 10.82
4/28/2023 6:30:00 AM 8.6 47.48 0.109 7.21 14.64 10.82
4/28/2023 6:45:00 AM 8.61 47.498 0.11 7.21 14.86 10.83
4/28/2023 7:00:00 AM 8.63 47.534 0.11 7.22 14.42 10.84
4/28/2023 7:15:00 AM 8.64 47.552 0.109 7.23 14.45 10.87
4/28/2023 7:30:00 AM 8.66 47.588 0.109 7.24 14.77 10.89
4/28/2023 7:45:00 AM 8.66 47.588 0.109 7.25 14.67 10.94
4/28/2023 8:00:00 AM 8.71 47.678 0.109 7.26 14.94 10.98
4/28/2023 8:15:00 AM 8.75 47.75 0.109 7.28 15.17 11.02
4/28/2023 8:30:00 AM 8.79 47.822 0.109 7.29 14.83 11.06
4/28/2023 8:45:00 AM 8.84 47.912 0.109 7.3 14.82 11.09
4/28/2023 9:00:00 AM 8.89 48.002 0.108 7.32 15.06 11.12
4/28/2023 9:15:00 AM 8.94 48.092 0.108 7.33 15.13 11.12
4/28/2023 9:30:00 AM 8.99 48.182 0.108 7.33 15.08 11.11
4/28/2023 9:45:00 AM 9.03 48.254 0.108 7.34 15.19 11.11
4/28/2023 10:00:00 AM 9.08 48.344 0.108 7.35 14.79 11.11
4/28/2023 10:15:00 AM 9.14 48.452 0.108 7.35 14.8 11.11
4/28/2023 10:30:00 AM 9.16 48.488 0.108 7.36 14.69 11.08
4/28/2023 10:45:00 AM 9.18 48.524 0.108 7.35 14.71 11.06
4/28/2023 11:00:00 AM 9.18 48.524 0.108 7.35 14.36 11.07
4/28/2023 11:15:00 AM 9.22 48.596 0.108 7.33 14.87 11.05
4/28/2023 11:30:00 AM 9.24 48.632 0.108 7.35 14.59 11.06
4/28/2023 11:45:00 AM 9.26 48.668 0.108 7.36 14.47 11.06
4/28/2023 12:00:00 PM 9.28 48.704 0.107 7.36 14.56 11.06
4/28/2023 12:15:00 PM 9.3 48.74 0.108 7.36 14.55 11.06
4/28/2023 12:30:00 PM 9.31 48.758 0.108 7.36 14.01 11.03
4/28/2023 12:45:00 PM 9.31 48.758 0.108 7.36 14.21 11.01
4/28/2023 1:00:00 PM 9.34 48.812 0.108 7.36 13.71 11.05
4/28/2023 1:15:00 PM 9.39 48.902 0.108 7.37 13.7 11.07
4/28/2023 1:30:00 PM 9.44 48.992 0.108 7.37 14.47 11.08
4/28/2023 1:45:00 PM 9.49 49.082 0.107 7.39 15.97 11.08
4/28/2023 2:00:00 PM 9.54 49.172 0.107 7.39 13.93 11.07
4/28/2023 2:15:00 PM 9.58 49.244 0.108 7.36 14.63 11.06
4/28/2023 2:30:00 PM 9.59 49.262 0.107 7.39 14.51 11.01
4/28/2023 2:45:00 PM 9.59 49.262 0.109 7.33 14.68 10.99
4/28/2023 3:00:00 PM 9.6 49.28 0.107 7.38 14.21 11
4/28/2023 3:15:00 PM 9.62 49.316 0.107 7.38 15.16 10.99
4/28/2023 3:30:00 PM 9.65 49.37 0.107 7.38 13.83 10.99
4/28/2023 3:45:00 PM 9.64 49.352 0.107 7.37 16.67 10.96
4/28/2023 4:00:00 PM 9.67 49.406 0.106 7.38 14.32 10.97
4/28/2023 4:15:00 PM 9.71 49.478 0.106 7.38 15.61 10.98
4/28/2023 4:30:00 PM 9.72 49.496 0.106 7.38 14.1 10.95
4/28/2023 4:45:00 PM 9.74 49.532 0.106 7.38 14.09 10.96
4/28/2023 5:00:00 PM 9.75 49.55 0.106 7.39 14.1 10.95
4/28/2023 5:15:00 PM 9.74 49.532 0.106 7.39 13.95 10.94
4/28/2023 5:30:00 PM 9.7 49.46 0.106 7.37 13.46 10.9
4/28/2023 5:45:00 PM 9.63 49.334 0.106 7.35 14.57 10.83
4/28/2023 6:00:00 PM 9.57 49.226 0.105 7.33 13.13 10.79
4/28/2023 6:15:00 PM 9.53 49.154 0.105 7.31 13.88 10.77
4/28/2023 6:30:00 PM 9.5 49.1 0.106 7.31 13.88 10.79
4/28/2023 6:45:00 PM 9.46 49.028 0.106 7.31 13.72 10.8
4/28/2023 7:00:00 PM 9.43 48.974 0.106 7.3 14.01 10.8
4/28/2023 7:15:00 PM 9.4 48.92 0.105 7.3 13.85 10.79
4/28/2023 7:30:00 PM 9.36 48.848 0.106 7.29 14.29 10.76
4/28/2023 7:45:00 PM 9.3 48.74 0.106 7.28 14.64 10.74
4/28/2023 8:00:00 PM 9.26 48.668 0.106 7.27 14.59 10.71
4/28/2023 8:15:00 PM 9.22 48.596 0.106 7.26 14.44 10.69
4/28/2023 8:30:00 PM 9.18 48.524 0.107 7.25 14.21 10.68
4/28/2023 8:45:00 PM 9.14 48.452 0.107 7.24 16.91 10.68
4/28/2023 9:00:00 PM 9.1 48.38 0.108 7.23 14.79 10.68
4/28/2023 9:15:00 PM 9.06 48.308 0.108 7.23 14.52 10.68
4/28/2023 9:30:00 PM 9.02 48.236 0.108 7.23 14 10.69
4/28/2023 9:45:00 PM 8.98 48.164 0.108 7.23 14.74 10.7
4/28/2023 10:00:00 PM 8.95 48.11 0.108 7.22 14.37 10.71
4/28/2023 10:15:00 PM 8.92 48.056 0.108 7.22 14.08 10.71
4/28/2023 10:30:00 PM 8.89 48.002 0.108 7.22 14.39 10.72
4/28/2023 10:45:00 PM 8.86 47.948 0.108 7.22 14.75 10.73
4/28/2023 11:00:00 PM 8.83 47.894 0.108 7.22 14.14 10.74
4/28/2023 11:15:00 PM 8.81 47.858 0.108 7.21 14.64 10.74
4/28/2023 11:30:00 PM 8.78 47.804 0.109 7.21 14.95 10.74
4/28/2023 11:45:00 PM 8.76 47.768 0.108 7.21 15.3 10.75
4/29/2023 12:00:00 AM 8.73 47.714 0.108 7.21 15.12 10.76
4/29/2023 12:15:00 AM 8.71 47.678 0.108 7.21 14.54 10.76
4/29/2023 12:30:00 AM 8.68 47.624 0.108 7.21 14.54 10.77
4/29/2023 12:45:00 AM 8.65 47.57 0.108 7.21 14.67 10.77
4/29/2023 1:00:00 AM 8.63 47.534 0.108 7.21 14.2 10.78
4/29/2023 1:15:00 AM 8.6 47.48 0.108 7.21 14.51 10.78
4/29/2023 1:30:00 AM 8.57 47.426 0.109 7.21 14.35 10.79
4/29/2023 1:45:00 AM 8.55 47.39 0.108 7.21 13.44 10.8
4/29/2023 2:00:00 AM 8.53 47.354 0.109 7.21 13.42 10.8
4/29/2023 2:15:00 AM 8.49 47.282 0.108 7.21 14.11 10.81
4/29/2023 2:30:00 AM 8.48 47.264 0.108 7.21 12.69 10.81
4/29/2023 2:45:00 AM 8.46 47.228 0.108 7.21 13.97 10.81
4/29/2023 3:00:00 AM 8.44 47.192 0.108 7.21 14.38 10.81
4/29/2023 3:15:00 AM 8.43 47.174 0.109 7.21 14.8 10.82
4/29/2023 3:30:00 AM 8.41 47.138 0.109 7.21 14.88 10.82
4/29/2023 3:45:00 AM 8.4 47.12 0.109 7.21 12.06 10.83
4/29/2023 4:00:00 AM 8.39 47.102 0.109 7.21 13.36 10.83
4/29/2023 4:15:00 AM 8.37 47.066 0.109 7.21 12.79 10.83
4/29/2023 4:30:00 AM 8.36 47.048 0.109 7.21 12.89 10.83
4/29/2023 4:45:00 AM 8.35 47.03 0.109 7.21 12.9 10.84
4/29/2023 5:00:00 AM 8.33 46.994 0.11 7.21 13.82 10.84
4/29/2023 5:15:00 AM 8.32 46.976 0.11 7.21 13.86 10.84
4/29/2023 5:30:00 AM 8.31 46.958 0.11 7.21 14.61 10.84
4/29/2023 5:45:00 AM 8.3 46.94 0.11 7.21 14.7 10.84
4/29/2023 6:00:00 AM 8.29 46.922 0.11 7.21 14.51 10.85
4/29/2023 6:15:00 AM 8.28 46.904 0.111 7.21 16.13 10.86
4/29/2023 6:30:00 AM 8.27 46.886 0.111 7.21 14.87 10.86
4/29/2023 6:45:00 AM 8.27 46.886 0.111 7.21 14.56 10.87
4/29/2023 7:00:00 AM 8.26 46.868 0.111 7.21 14.67 10.89
4/29/2023 7:15:00 AM 8.26 46.868 0.111 7.22 14.94 10.91
4/29/2023 7:30:00 AM 8.27 46.886 0.111 7.23 14.9 10.95
4/29/2023 7:45:00 AM 8.28 46.904 0.111 7.24 15.35 10.98
4/29/2023 8:00:00 AM 8.29 46.922 0.111 7.25 14.51 11
4/29/2023 8:15:00 AM 8.3 46.94 0.111 7.25 14.25 11.02
4/29/2023 8:30:00 AM 8.31 46.958 0.111 7.26 14.45 11.04
4/29/2023 8:45:00 AM 8.34 47.012 0.111 7.27 14.25 11.07
4/29/2023 9:00:00 AM 8.36 47.048 0.111 7.28 14.28 11.08
4/29/2023 9:15:00 AM 8.38 47.084 0.111 7.29 14.59 11.09
4/29/2023 9:30:00 AM 8.42 47.156 0.11 7.3 14.47 11.12
4/29/2023 9:45:00 AM 8.46 47.228 0.11 7.31 14.16 11.14
4/29/2023 10:00:00 AM 8.51 47.318 0.11 7.32 15.34 11.15
4/29/2023 10:15:00 AM 8.54 47.372 0.11 7.32 14.59 11.14
4/29/2023 10:30:00 AM 8.58 47.444 0.11 7.33 14.43 11.14
4/29/2023 10:45:00 AM 8.61 47.498 0.11 7.33 14.89 11.14
4/29/2023 11:00:00 AM 8.64 47.552 0.11 7.34 14.06 11.13
4/29/2023 11:15:00 AM 8.67 47.606 0.11 7.34 13.3 11.12
4/29/2023 11:30:00 AM 8.74 47.732 0.11 7.35 14.18 11.15
4/29/2023 11:45:00 AM 8.84 47.912 0.11 7.36 14.5 11.16
4/29/2023 12:00:00 PM 8.91 48.038 0.11 7.37 15.69 11.15
4/29/2023 12:15:00 PM 8.95 48.11 0.11 7.37 14.08 11.13
4/29/2023 12:30:00 PM 8.97 48.146 0.11 7.37 14.19 11.12
4/29/2023 12:45:00 PM 9.03 48.254 0.11 7.38 15 11.1
4/29/2023 1:00:00 PM 9.09 48.362 0.11 7.38 15.91 11.1
4/29/2023 1:15:00 PM 9.15 48.47 0.11 7.39 15.28 11.1
4/29/2023 1:30:00 PM 9.19 48.542 0.11 7.39 15.31 11.08
4/29/2023 1:45:00 PM 9.22 48.596 0.11 7.39 15.97 11.06
4/29/2023 2:00:00 PM 9.25 48.65 0.11 7.39 15.32 11.04
4/29/2023 2:15:00 PM 9.28 48.704 0.11 7.39 15.78 11.03
4/29/2023 2:30:00 PM 9.3 48.74 0.11 7.39 15 11.01
4/29/2023 2:45:00 PM 9.38 48.884 0.111 7.4 15.84 11.03
4/29/2023 3:00:00 PM 9.43 48.974 0.11 7.4 14.33 11
4/29/2023 3:15:00 PM 9.45 49.01 0.111 7.4 16.27 10.98
4/29/2023 3:30:00 PM 9.47 49.046 0.111 7.4 14.98 10.97
4/29/2023 3:45:00 PM 9.5 49.1 0.11 7.4 15.19 10.95
4/29/2023 4:00:00 PM 9.51 49.118 0.111 7.4 14.49 10.92
4/29/2023 4:15:00 PM 9.53 49.154 0.11 7.4 14.37 10.91
4/29/2023 4:30:00 PM 9.56 49.208 0.111 7.4 15.71 10.91
4/29/2023 4:45:00 PM 9.58 49.244 0.111 7.4 15.23 10.89
4/29/2023 5:00:00 PM 9.6 49.28 0.111 7.4 14.55 10.89
4/29/2023 5:15:00 PM 9.62 49.316 0.111 7.4 14.79 10.88
4/29/2023 5:30:00 PM 9.62 49.316 0.111 7.39 15.72 10.85
4/29/2023 5:45:00 PM 9.61 49.298 0.111 7.38 23.02 10.82
4/29/2023 6:00:00 PM 9.6 49.28 0.111 7.37 15.72 10.79
4/29/2023 6:15:00 PM 9.59 49.262 0.111 7.36 14.3 10.77
4/29/2023 6:30:00 PM 9.58 49.244 0.111 7.35 13.09 10.76
4/29/2023 6:45:00 PM 9.56 49.208 0.111 7.35 13.83 10.73
4/29/2023 7:00:00 PM 9.54 49.172 0.111 7.33 23.48 10.7
4/29/2023 7:15:00 PM 9.51 49.118 0.111 7.32 15.55 10.67
4/29/2023 7:30:00 PM 9.49 49.082 0.112 7.31 15.84 10.65
4/29/2023 7:45:00 PM 9.46 49.028 0.112 7.3 14.56 10.63
4/29/2023 8:00:00 PM 9.43 48.974 0.112 7.29 15.01 10.6
4/29/2023 8:15:00 PM 9.4 48.92 0.112 7.28 13.94 10.59
4/29/2023 8:30:00 PM 9.38 48.884 0.112 7.27 13.69 10.58
4/29/2023 8:45:00 PM 9.35 48.83 0.112 7.26 13.94 10.58
4/29/2023 9:00:00 PM 9.33 48.794 0.112 7.25 13.72 10.58
4/29/2023 9:15:00 PM 9.31 48.758 0.112 7.25 14.42 10.58
4/29/2023 9:30:00 PM 9.29 48.722 0.112 7.25 13.92 10.58
4/29/2023 9:45:00 PM 9.27 48.686 0.112 7.24 13.51 10.59
4/29/2023 10:00:00 PM 9.25 48.65 0.112 7.24 13.75 10.59
4/29/2023 10:15:00 PM 9.21 48.578 0.112 7.23 13.11 10.6
4/29/2023 10:30:00 PM 9.2 48.56 0.112 7.22 13.4 10.6
4/29/2023 10:45:00 PM 9.19 48.542 0.112 7.22 14.11 10.6
4/29/2023 11:00:00 PM 9.17 48.506 0.112 7.22 13.58 10.6
4/29/2023 11:15:00 PM 9.16 48.488 0.112 7.21 13.28 10.61
4/29/2023 11:30:00 PM 9.14 48.452 0.112 7.21 13.36 10.61
4/29/2023 11:45:00 PM 9.13 48.434 0.112 7.21 13.6 10.61
4/30/2023 12:00:00 AM 9.12 48.416 0.113 7.21 13.98 10.61
4/30/2023 12:15:00 AM 9.11 48.398 0.112 7.21 13.81 10.61
4/30/2023 12:30:00 AM 9.1 48.38 0.112 7.21 14.15 10.61
4/30/2023 12:45:00 AM 9.09 48.362 0.112 7.2 13.86 10.61
4/30/2023 1:00:00 AM 9.08 48.344 0.112 7.2 13.53 10.61
4/30/2023 1:15:00 AM 9.07 48.326 0.112 7.21 13.73 10.61
4/30/2023 1:30:00 AM 9.07 48.326 0.112 7.22 14.28 10.61
4/30/2023 1:45:00 AM 9.07 48.326 0.112 7.22 14.89 10.61
4/30/2023 2:00:00 AM 9.06 48.308 0.112 7.22 13.13 10.61
4/30/2023 2:15:00 AM 9.06 48.308 0.112 7.22 14.29 10.61
4/30/2023 2:30:00 AM 9.05 48.29 0.112 7.22 13.18 10.61
4/30/2023 2:45:00 AM 9.05 48.29 0.112 7.22 14.27 10.6
4/30/2023 3:00:00 AM 9.05 48.29 0.112 7.23 14.18 10.6
4/30/2023 3:15:00 AM 9.05 48.29 0.112 7.23 14.17 10.61
4/30/2023 3:30:00 AM 9.04 48.272 0.112 7.23 13.11 10.61
4/30/2023 3:45:00 AM 9.04 48.272 0.112 7.23 12.77 10.6
4/30/2023 4:00:00 AM 9.04 48.272 0.112 7.23 13 10.6
4/30/2023 4:15:00 AM 9.04 48.272 0.112 7.23 12.91 10.6
4/30/2023 4:30:00 AM 9.04 48.272 0.112 7.23 13.01 10.6
4/30/2023 4:45:00 AM 9.03 48.254 0.112 7.23 13.49 10.6
4/30/2023 5:00:00 AM 9.03 48.254 0.112 7.23 13.16 10.6
4/30/2023 5:15:00 AM 9.03 48.254 0.112 7.23 12.47 10.6
4/30/2023 5:30:00 AM 9.02 48.236 0.112 7.23 12.8 10.6
4/30/2023 5:45:00 AM 9.02 48.236 0.111 7.23 13.32 10.6
4/30/2023 6:00:00 AM 9.01 48.218 0.112 7.23 13.01 10.6
4/30/2023 6:15:00 AM 9.01 48.218 0.112 7.22 12.87 10.59
4/30/2023 6:30:00 AM 9.01 48.218 0.111 7.22 13.35 10.6
4/30/2023 6:45:00 AM 9 48.2 0.111 7.23 14.92 10.61
4/30/2023 7:00:00 AM 9.01 48.218 0.111 7.23 13.58 10.62
4/30/2023 7:15:00 AM 9.01 48.218 0.111 7.24 13.98 10.64
4/30/2023 7:30:00 AM 9.02 48.236 0.111 7.24 12.41 10.67
4/30/2023 7:45:00 AM 9.04 48.272 0.111 7.25 14.26 10.71
4/30/2023 8:00:00 AM 9.05 48.29 0.111 7.26 13.32 10.73
4/30/2023 8:15:00 AM 9.07 48.326 0.111 7.27 13.52 10.75
4/30/2023 8:30:00 AM 9.1 48.38 0.111 7.28 12.76 10.78
4/30/2023 8:45:00 AM 9.16 48.488 0.11 7.3 14.12 10.84
4/30/2023 9:00:00 AM 9.24 48.632 0.11 7.32 13.05 10.88
4/30/2023 9:15:00 AM 9.29 48.722 0.11 7.33 13.58 10.87
4/30/2023 9:30:00 AM 9.34 48.812 0.11 7.34 13.04 10.87
4/30/2023 9:45:00 AM 9.38 48.884 0.11 7.35 13.21 10.86
4/30/2023 10:00:00 AM 9.42 48.956 0.11 7.35 14.07 10.83
4/30/2023 10:15:00 AM 9.43 48.974 0.109 7.35 13.79 10.81
4/30/2023 10:30:00 AM 9.45 49.01 0.11 7.34 22.96 10.78
4/30/2023 10:45:00 AM 9.46 49.028 0.11 7.35 13.03 10.77
4/30/2023 11:00:00 AM 9.49 49.082 0.11 7.35 14.58 10.78
4/30/2023 11:15:00 AM 9.52 49.136 0.11 7.35 14.19 10.78
4/30/2023 11:30:00 AM 9.53 49.154 0.109 7.35 14.8 10.76
4/30/2023 11:45:00 AM 9.55 49.19 0.109 7.35 14.7 10.75
4/30/2023 12:00:00 PM 9.57 49.226 0.109 7.35 14.99 10.75
4/30/2023 12:15:00 PM 9.6 49.28 0.108 7.35 14.41 10.76
4/30/2023 12:30:00 PM 9.64 49.352 0.108 7.36 14.57 10.77
4/30/2023 12:45:00 PM 9.69 49.442 0.108 7.37 14.32 10.8
4/30/2023 1:00:00 PM 9.75 49.55 0.108 7.38 14.08 10.8
4/30/2023 1:15:00 PM 9.81 49.658 0.108 7.38 14.68 10.8
4/30/2023 1:30:00 PM 9.85 49.73 0.108 7.38 14.44 10.77
4/30/2023 1:45:00 PM 9.88 49.784 0.109 7.38 14.79 10.74
4/30/2023 2:00:00 PM 9.9 49.82 0.109 7.37 13.56 10.71
4/30/2023 2:15:00 PM 9.91 49.838 0.109 7.37 13.67 10.69
4/30/2023 2:30:00 PM 9.92 49.856 0.109 7.36 13.67 10.67
4/30/2023 2:45:00 PM 9.94 49.892 0.109 7.36 13.66 10.67
4/30/2023 3:00:00 PM 9.95 49.91 0.109 7.36 14.16 10.66
4/30/2023 3:15:00 PM 9.95 49.91 0.108 7.35 14.59 10.64
4/30/2023 3:30:00 PM 9.94 49.892 0.108 7.34 15.82 10.61
4/30/2023 3:45:00 PM 9.94 49.892 0.109 7.34 14.72 10.62
4/30/2023 4:00:00 PM 9.94 49.892 0.11 7.34 15.47 10.62
4/30/2023 4:15:00 PM 9.97 49.946 0.109 7.34 16.87 10.63
4/30/2023 4:30:00 PM 9.97 49.946 0.109 7.34 22.33 10.6
4/30/2023 4:45:00 PM 9.95 49.91 0.109 7.33 20.61 10.57
4/30/2023 5:00:00 PM 9.97 49.946 0.109 7.32 26.45 10.56
4/30/2023 5:15:00 PM 9.99 49.982 0.109 7.32 23.72 10.56
4/30/2023 5:30:00 PM 10 50 0.108 7.31 26.21 10.54
4/30/2023 5:45:00 PM 10 50 0.109 7.31 30.7 10.51
4/30/2023 6:00:00 PM 10 50 0.109 7.31 32.53 10.48
4/30/2023 6:15:00 PM 9.99 49.982 0.111 7.3 37.42 10.46
4/30/2023 6:30:00 PM 9.98 49.964 0.112 7.29 44.37 10.43
4/30/2023 6:45:00 PM 9.96 49.928 0.114 7.28 47.52 10.41
4/30/2023 7:00:00 PM 9.94 49.892 0.115 7.28 43.81 10.4
4/30/2023 7:15:00 PM 9.92 49.856 0.117 7.27 46.61 10.39
4/30/2023 7:30:00 PM 9.9 49.82 0.118 7.27 46.75 10.38
4/30/2023 7:45:00 PM 9.87 49.766 0.116 7.27 50.87 10.38
4/30/2023 8:00:00 PM 9.84 49.712 0.12 7.27 47.69 10.38
4/30/2023 8:15:00 PM 9.8 49.64 0.121 7.27 48.54 10.38
4/30/2023 8:30:00 PM 9.76 49.568 0.121 7.26 38.04 10.38
4/30/2023 8:45:00 PM 9.72 49.496 0.121 7.26 44.4 10.39
4/30/2023 9:00:00 PM 9.66 49.388 0.12 7.25 42.65 10.4
4/30/2023 9:15:00 PM 9.6 49.28 0.119 7.24 41.4 10.42
4/30/2023 9:30:00 PM 9.54 49.172 0.118 7.23 40.48 10.43
4/30/2023 9:45:00 PM 9.47 49.046 0.117 7.22 40.02 10.44
4/30/2023 10:00:00 PM 9.41 48.938 0.116 7.21 44.78 10.46
4/30/2023 10:15:00 PM 9.35 48.83 0.115 7.21 41.87 10.48
4/30/2023 10:30:00 PM 9.28 48.704 0.114 7.2 39.81 10.49
4/30/2023 10:45:00 PM 9.22 48.596 0.113 7.19 32.98 10.51
4/30/2023 11:00:00 PM 9.16 48.488 0.112 7.19 37.65 10.52
4/30/2023 11:15:00 PM 9.11 48.398 0.113 7.18 39.9 10.54
4/30/2023 11:30:00 PM 9.06 48.308 0.113 7.17 36.8 10.55
4/30/2023 11:45:00 PM 9.01 48.218 0.113 7.17 32.75 10.56
5/1/2023 12:00:00 AM 8.96 48.128 0.113 7.17 37.23 10.57
5/1/2023 12:15:00 AM 8.92 48.056 0.114 7.17 56.29 10.58
5/1/2023 12:30:00 AM 8.87 47.966 0.114 7.16 32.74 10.59
5/1/2023 12:45:00 AM 8.83 47.894 0.114 7.17 39.37 10.6
5/1/2023 1:00:00 AM 8.8 47.84 0.114 7.16 37.89 10.61
5/1/2023 1:15:00 AM 8.76 47.768 0.114 7.17 28.95 10.62
5/1/2023 1:30:00 AM 8.72 47.696 0.113 7.16 27.96 10.62
5/1/2023 1:45:00 AM 8.68 47.624 0.112 7.16 30.19 10.63
5/1/2023 2:00:00 AM 8.64 47.552 0.112 7.16 29.99 10.64
5/1/2023 2:15:00 AM 8.6 47.48 0.112 7.16 27.86 10.64
5/1/2023 2:30:00 AM 8.56 47.408 0.112 7.16 25.48 10.65
5/1/2023 2:45:00 AM 8.53 47.354 0.112 7.16 24.7 10.66
5/1/2023 3:00:00 AM 8.49 47.282 0.111 7.15 25.31 10.67
5/1/2023 3:15:00 AM 8.44 47.192 0.11 7.15 23.47 10.68
5/1/2023 3:30:00 AM 8.39 47.102 0.11 7.15 25.11 10.69
5/1/2023 3:45:00 AM 8.33 46.994 0.11 7.15 23.59 10.7
5/1/2023 4:00:00 AM 8.28 46.904 0.11 7.15 21.19 10.71
5/1/2023 4:15:00 AM 8.23 46.814 0.11 7.15 22.11 10.73
5/1/2023 4:30:00 AM 8.2 46.76 0.11 7.15 22.12 10.74
5/1/2023 4:45:00 AM 8.15 46.67 0.11 7.15 30.2 10.75
5/1/2023 5:00:00 AM 8.11 46.598 0.11 7.15 20.7 10.76
5/1/2023 5:15:00 AM 8.06 46.508 0.11 7.15 20.99 10.77
5/1/2023 5:30:00 AM 8.02 46.436 0.11 7.15 18.99 10.78
5/1/2023 5:45:00 AM 7.98 46.364 0.11 7.15 18.24 10.79
5/1/2023 6:00:00 AM 7.94 46.292 0.11 7.15 22.02 10.81
5/1/2023 6:15:00 AM 7.91 46.238 0.11 7.15 19.11 10.82
5/1/2023 6:30:00 AM 7.89 46.202 0.11 7.15 18.21 10.83
5/1/2023 6:45:00 AM 7.86 46.148 0.11 7.15 22.02 10.85
5/1/2023 7:00:00 AM 7.84 46.112 0.11 7.16 19.63 10.87
5/1/2023 7:15:00 AM 7.84 46.112 0.11 7.17 20.7 10.91
5/1/2023 7:30:00 AM 7.83 46.094 0.11 7.18 18.74 10.94
5/1/2023 7:45:00 AM 7.84 46.112 0.11 7.19 17.64 10.95
5/1/2023 8:00:00 AM 7.84 46.112 0.11 7.19 16.51 10.96
5/1/2023 8:15:00 AM 7.86 46.148 0.11 7.2 17.87 11
5/1/2023 8:30:00 AM 7.89 46.202 0.11 7.21 16.11 11.02
5/1/2023 8:45:00 AM 7.93 46.274 0.11 7.23 20.03 11.04
5/1/2023 9:00:00 AM 7.98 46.364 0.109 7.23 15.15 11.05
5/1/2023 9:15:00 AM 8.03 46.454 0.109 7.24 17.09 11.06
5/1/2023 9:30:00 AM 8.05 46.49 0.11 7.25 15.91 11.06
5/1/2023 9:45:00 AM 8.1 46.58 0.109 7.26 14.85 11.06
5/1/2023 10:00:00 AM 8.18 46.724 0.109 7.26 14.93 11.05
5/1/2023 10:15:00 AM 8.38 47.084 0.109 7.27 14.6 11.05
5/1/2023 10:30:00 AM 8.49 47.282 0.109 7.28 16.62 11.04
5/1/2023 10:45:00 AM 8.62 47.516 0.108 7.29 16.43 11.03
5/1/2023 11:00:00 AM 8.71 47.678 0.108 7.29 16.54 10.99
5/1/2023 11:15:00 AM 8.96 48.128 0.108 7.3 13.6 10.95
5/1/2023 11:30:00 AM 9.12 48.416 0.108 7.3 15.77 10.91
5/1/2023 11:45:00 AM 9.26 48.668 0.108 7.31 14.39 10.88
5/1/2023 12:00:00 PM 9.29 48.722 0.108 7.31 24.51 10.83
5/1/2023 12:15:00 PM 9.18 48.524 0.108 7.3 14.82 10.79
5/1/2023 12:30:00 PM 9.1 48.38 0.107 7.29 15.53 10.79
5/1/2023 12:45:00 PM 9.05 48.29 0.107 7.3 15.11 10.83
5/1/2023 1:00:00 PM 9.23 48.614 0.107 7.3 15.69 10.85
5/1/2023 1:15:00 PM 9.51 49.118 0.107 7.32 17.16 10.83
5/1/2023 1:30:00 PM 9.57 49.226 0.107 7.32 14.75 10.76
5/1/2023 1:45:00 PM 9.65 49.37 0.106 7.31 13.29 10.74
5/1/2023 2:00:00 PM 9.92 49.856 0.106 7.32 13.26 10.73
5/1/2023 2:15:00 PM 10.09 50.162 0.106 7.33 14.28 10.68
5/1/2023 2:30:00 PM 10.16 50.288 0.106 7.33 13.88 10.64
5/1/2023 2:45:00 PM 10.25 50.45 0.106 7.33 12.66 10.62
5/1/2023 3:00:00 PM 10.43 50.774 0.106 7.34 14.56 10.59
5/1/2023 3:15:00 PM 10.54 50.972 0.106 7.34 15.08 10.56
5/1/2023 3:30:00 PM 10.43 50.774 0.105 7.33 14.07 10.5
5/1/2023 3:45:00 PM 10.33 50.594 0.105 7.32 12.84 10.52
5/1/2023 4:00:00 PM 10.25 50.45 0.105 7.32 14.73 10.51
5/1/2023 4:15:00 PM 10.15 50.27 0.105 7.32 14.35 10.54
5/1/2023 4:30:00 PM 10.04 50.072 0.105 7.31 13.9 10.55
5/1/2023 4:45:00 PM 9.99 49.982 0.106 7.32 13.15 10.59
5/1/2023 5:00:00 PM 9.98 49.964 0.106 7.32 13.83 10.61
5/1/2023 5:15:00 PM 9.96 49.928 0.106 7.32 13.73 10.62
5/1/2023 5:30:00 PM 9.93 49.874 0.106 7.32 14.45 10.62
5/1/2023 5:45:00 PM 9.91 49.838 0.107 7.32 14.26 10.62
5/1/2023 6:00:00 PM 9.86 49.748 0.106 7.32 14.2 10.61
5/1/2023 6:15:00 PM 9.78 49.604 0.107 7.31 12.98 10.59
5/1/2023 6:30:00 PM 9.71 49.478 0.107 7.3 13.75 10.57
5/1/2023 6:45:00 PM 9.63 49.334 0.107 7.29 14.19 10.58
5/1/2023 7:00:00 PM 9.55 49.19 0.107 7.29 14.6 10.58
5/1/2023 7:15:00 PM 9.47 49.046 0.107 7.28 14.1 10.57
5/1/2023 7:30:00 PM 9.37 48.866 0.107 7.27 14.34 10.56
5/1/2023 7:45:00 PM 9.28 48.704 0.107 7.26 14.24 10.57
5/1/2023 8:00:00 PM 9.19 48.542 0.107 7.25 14.75 10.57
5/1/2023 8:15:00 PM 9.1 48.38 0.107 7.24 14.6 10.57
5/1/2023 8:30:00 PM 9.03 48.254 0.107 7.23 14.18 10.57
5/1/2023 8:45:00 PM 8.97 48.146 0.108 7.23 14.7 10.58
5/1/2023 9:00:00 PM 8.9 48.02 0.108 7.22 14.74 10.59
5/1/2023 9:15:00 PM 8.84 47.912 0.107 7.22 15.37 10.6
5/1/2023 9:30:00 PM 8.77 47.786 0.108 7.22 14.28 10.62
5/1/2023 9:45:00 PM 8.71 47.678 0.108 7.22 14.7 10.64
5/1/2023 10:00:00 PM 8.64 47.552 0.108 7.22 14.88 10.66
5/1/2023 10:15:00 PM 8.58 47.444 0.107 7.21 14.3 10.67
5/1/2023 10:30:00 PM 8.52 47.336 0.107 7.21 14.15 10.68
5/1/2023 10:45:00 PM 8.46 47.228 0.107 7.2 13.77 10.7
5/1/2023 11:00:00 PM 8.41 47.138 0.107 7.2 14.47 10.71
5/1/2023 11:15:00 PM 8.35 47.03 0.107 7.2 14.69 10.73
5/1/2023 11:30:00 PM 8.3 46.94 0.107 7.2 13.84 10.74
5/1/2023 11:45:00 PM 8.25 46.85 0.107 7.2 13.32 10.75
5/2/2023 12:00:00 AM 8.2 46.76 0.107 7.2 13.95 10.76
5/2/2023 12:15:00 AM 8.16 46.688 0.106 7.19 14.35 10.77
5/2/2023 12:30:00 AM 8.12 46.616 0.106 7.19 13.79 10.78
5/2/2023 12:45:00 AM 8.08 46.544 0.106 7.19 13.77 10.79
5/2/2023 1:00:00 AM 8.04 46.472 0.106 7.19 13.52 10.8
5/2/2023 1:15:00 AM 8.01 46.418 0.106 7.19 13.91 10.81
5/2/2023 1:30:00 AM 7.97 46.346 0.106 7.19 13.7 10.82
5/2/2023 1:45:00 AM 7.93 46.274 0.105 7.19 14.49 10.83
5/2/2023 2:00:00 AM 7.89 46.202 0.105 7.18 13.94 10.84
5/2/2023 2:15:00 AM 7.85 46.13 0.105 7.18 12.98 10.85
5/2/2023 2:30:00 AM 7.81 46.058 0.105 7.18 13.42 10.86
5/2/2023 2:45:00 AM 7.77 45.986 0.105 7.18 13.43 10.87
5/2/2023 3:00:00 AM 7.72 45.896 0.105 7.18 12.82 10.88
5/2/2023 3:15:00 AM 7.69 45.842 0.104 7.17 12.66 10.89
5/2/2023 3:30:00 AM 7.65 45.77 0.104 7.17 13.38 10.9
5/2/2023 3:45:00 AM 7.6 45.68 0.104 7.17 12.66 10.91
5/2/2023 4:00:00 AM 7.55 45.59 0.104 7.17 15.05 10.92
5/2/2023 4:15:00 AM 7.5 45.5 0.104 7.17 13.59 10.94
5/2/2023 4:30:00 AM 7.47 45.446 0.104 7.16 13.08 10.95
5/2/2023 4:45:00 AM 7.44 45.392 0.103 7.16 13.64 10.96
5/2/2023 5:00:00 AM 7.42 45.356 0.104 7.16 13.03 10.97
5/2/2023 5:15:00 AM 7.4 45.32 0.103 7.16 13.53 10.97
5/2/2023 5:30:00 AM 7.38 45.284 0.103 7.16 12.76 10.98
5/2/2023 5:45:00 AM 7.35 45.23 0.103 7.16 13.55 10.99
5/2/2023 6:00:00 AM 7.33 45.194 0.103 7.16 13.39 10.99
5/2/2023 6:15:00 AM 7.3 45.14 0.103 7.16 14.26 11.01
5/2/2023 6:30:00 AM 7.28 45.104 0.103 7.16 14.55 11.02
5/2/2023 6:45:00 AM 7.26 45.068 0.103 7.17 14.2 11.05
5/2/2023 7:00:00 AM 7.25 45.05 0.103 7.17 13.77 11.07
5/2/2023 7:15:00 AM 7.25 45.05 0.103 7.18 13.82 11.11
5/2/2023 7:30:00 AM 7.26 45.068 0.102 7.19 13.33 11.16
5/2/2023 7:45:00 AM 7.29 45.122 0.102 7.21 13.49 11.2
5/2/2023 8:00:00 AM 7.32 45.176 0.102 7.22 13.52 11.22
5/2/2023 8:15:00 AM 7.35 45.23 0.102 7.22 13.35 11.23
5/2/2023 8:30:00 AM 7.38 45.284 0.102 7.23 12.48 11.24
5/2/2023 8:45:00 AM 7.42 45.356 0.102 7.24 12.96 11.25
5/2/2023 9:00:00 AM 7.48 45.464 0.102 7.25 13.02 11.26
5/2/2023 9:15:00 AM 7.54 45.572 0.101 7.25 12.81 11.25
5/2/2023 9:30:00 AM 7.6 45.68 0.102 7.26 13.24 11.26
5/2/2023 9:45:00 AM 7.71 45.878 0.102 7.27 14.15 11.25
5/2/2023 10:00:00 AM 7.82 46.076 0.101 7.27 13.22 11.23
5/2/2023 10:15:00 AM 7.94 46.292 0.101 7.28 13.03 11.22
5/2/2023 10:30:00 AM 8.09 46.562 0.101 7.28 12.95 11.19
5/2/2023 10:45:00 AM 8.18 46.724 0.101 7.29 12.58 11.17
5/2/2023 11:00:00 AM 8.17 46.706 0.101 7.29 12.96 11.16
5/2/2023 11:15:00 AM 8.21 46.778 0.101 7.29 12.93 11.14
5/2/2023 11:30:00 AM 8.26 46.868 0.1 7.29 13.26 11.14
5/2/2023 11:45:00 AM 8.4 47.12 0.1 7.3 13.27 11.13
5/2/2023 12:00:00 PM 8.49 47.282 0.1 7.3 13.08 11.1
5/2/2023 12:15:00 PM 8.62 47.516 0.1 7.3 13.1 11.08
5/2/2023 12:30:00 PM 8.66 47.588 0.1 7.3 14.1 11.04
5/2/2023 12:45:00 PM 8.76 47.768 0.1 7.31 14.29 11.04
5/2/2023 1:00:00 PM 8.87 47.966 0.099 7.31 13.08 11.01
5/2/2023 1:15:00 PM 9.01 48.218 0.099 7.31 12.99 10.99
5/2/2023 1:30:00 PM 9.18 48.524 0.099 7.32 13.15 10.96
5/2/2023 1:45:00 PM 9.28 48.704 0.099 7.32 12.72 10.94
5/2/2023 2:00:00 PM 9.31 48.758 0.099 7.32 12.37 10.91
5/2/2023 2:15:00 PM 9.24 48.632 0.099 7.31 12.63 10.89
5/2/2023 2:30:00 PM 9.29 48.722 0.099 7.31 12.8 10.9
5/2/2023 2:45:00 PM 9.31 48.758 0.098 7.31 13.06 10.89
5/2/2023 3:00:00 PM 9.37 48.866 0.099 7.32 12.85 10.88
5/2/2023 3:15:00 PM 9.4 48.92 0.098 7.32 12.94 10.86
5/2/2023 3:30:00 PM 9.43 48.974 0.098 7.32 13.19 10.85
5/2/2023 3:45:00 PM 9.45 49.01 0.098 7.32 12.62 10.83
5/2/2023 4:00:00 PM 9.44 48.992 0.098 7.32 13.26 10.82
5/2/2023 4:15:00 PM 9.45 49.01 0.098 7.31 12.98 10.82
5/2/2023 4:30:00 PM 9.45 49.01 0.098 7.31 12.91 10.81
5/2/2023 4:45:00 PM 9.39 48.902 0.098 7.3 13.32 10.77
5/2/2023 5:00:00 PM 9.32 48.776 0.098 7.29 12.95 10.76
5/2/2023 5:15:00 PM 9.29 48.722 0.097 7.29 13.43 10.78
5/2/2023 5:30:00 PM 9.23 48.614 0.097 7.28 13.44 10.79
5/2/2023 5:45:00 PM 9.21 48.578 0.097 7.29 13.06 10.81
5/2/2023 6:00:00 PM 9.19 48.542 0.097 7.29 13.74 10.82
5/2/2023 6:15:00 PM 9.13 48.434 0.097 7.28 13.14 10.81
5/2/2023 6:30:00 PM 9.08 48.344 0.097 7.27 13.78 10.81
5/2/2023 6:45:00 PM 9.02 48.236 0.097 7.27 13.24 10.81
5/2/2023 7:00:00 PM 8.95 48.11 0.097 7.26 13.21 10.81
5/2/2023 7:15:00 PM 8.9 48.02 0.098 7.25 12.95 10.78
5/2/2023 7:30:00 PM 8.83 47.894 0.098 7.23 13.18 10.78
5/2/2023 7:45:00 PM 8.74 47.732 0.098 7.22 13.06 10.77
5/2/2023 8:00:00 PM 8.66 47.588 0.098 7.21 13.77 10.77
5/2/2023 8:15:00 PM 8.59 47.462 0.098 7.2 13.58 10.76
5/2/2023 8:30:00 PM 8.52 47.336 0.098 7.19 14.3 10.76
5/2/2023 8:45:00 PM 8.46 47.228 0.098 7.18 14.14 10.77
5/2/2023 9:00:00 PM 8.4 47.12 0.098 7.18 13.91 10.78
5/2/2023 9:15:00 PM 8.33 46.994 0.098 7.17 14.46 10.79
5/2/2023 9:30:00 PM 8.27 46.886 0.098 7.17 14.61 10.8
5/2/2023 9:45:00 PM 8.21 46.778 0.098 7.16 14.1 10.82
5/2/2023 10:00:00 PM 8.15 46.67 0.098 7.16 14.42 10.83
5/2/2023 10:15:00 PM 8.09 46.562 0.098 7.16 14.22 10.85
5/2/2023 10:30:00 PM 8.04 46.472 0.098 7.16 13.77 10.86
5/2/2023 10:45:00 PM 7.99 46.382 0.098 7.15 13.88 10.87
5/2/2023 11:00:00 PM 7.94 46.292 0.098 7.15 13.7 10.89
5/2/2023 11:15:00 PM 7.9 46.22 0.098 7.15 13.51 10.9
5/2/2023 11:30:00 PM 7.86 46.148 0.098 7.15 12.57 10.91
5/2/2023 11:45:00 PM 7.82 46.076 0.099 7.15 12.58 10.92
5/3/2023 12:00:00 AM 7.78 46.004 0.098 7.15 13.12 10.93
5/3/2023 12:15:00 AM 7.75 45.95 0.098 7.15 12.9 10.94
5/3/2023 12:30:00 AM 7.72 45.896 0.098 7.14 12.74 10.95
5/3/2023 12:45:00 AM 7.68 45.824 0.098 7.14 13.1 10.96
5/3/2023 1:00:00 AM 7.65 45.77 0.098 7.14 12.87 10.97
5/3/2023 1:15:00 AM 7.61 45.698 0.098 7.14 12.62 10.98
5/3/2023 1:30:00 AM 7.57 45.626 0.098 7.14 13.34 10.99
5/3/2023 1:45:00 AM 7.55 45.59 0.098 7.14 12.54 10.99
5/3/2023 2:00:00 AM 7.52 45.536 0.098 7.14 12.85 11
5/3/2023 2:15:00 AM 7.49 45.482 0.098 7.14 13.4 11.01
5/3/2023 2:30:00 AM 7.47 45.446 0.098 7.14 13.95 11.01
5/3/2023 2:45:00 AM 7.44 45.392 0.098 7.14 12.84 11.02
5/3/2023 3:00:00 AM 7.42 45.356 0.098 7.14 13.4 11.03
5/3/2023 3:15:00 AM 7.39 45.302 0.098 7.14 13.7 11.04
5/3/2023 3:30:00 AM 7.37 45.266 0.098 7.14 12.72 11.04
5/3/2023 3:45:00 AM 7.34 45.212 0.098 7.14 14.29 11.05
5/3/2023 4:00:00 AM 7.32 45.176 0.098 7.14 13.08 11.06
5/3/2023 4:15:00 AM 7.29 45.122 0.098 7.13 12.66 11.06
5/3/2023 4:30:00 AM 7.27 45.086 0.098 7.13 12.96 11.06
5/3/2023 4:45:00 AM 7.25 45.05 0.098 7.13 13.11 11.07
5/3/2023 5:00:00 AM 7.22 44.996 0.098 7.13 13.11 11.08
5/3/2023 5:15:00 AM 7.19 44.942 0.098 7.13 13.06 11.08
5/3/2023 5:30:00 AM 7.17 44.906 0.098 7.13 13.41 11.09
5/3/2023 5:45:00 AM 7.14 44.852 0.098 7.13 13.93 11.1
5/3/2023 6:00:00 AM 7.12 44.816 0.098 7.13 13.04 11.11
5/3/2023 6:15:00 AM 7.09 44.762 0.098 7.13 12.98 11.12
5/3/2023 6:30:00 AM 7.08 44.744 0.098 7.13 13.87 11.14
5/3/2023 6:45:00 AM 7.07 44.726 0.098 7.14 14.56 11.16
5/3/2023 7:00:00 AM 7.06 44.708 0.098 7.14 15.53 11.19
5/3/2023 7:15:00 AM 7.06 44.708 0.097 7.15 13.36 11.23
5/3/2023 7:30:00 AM 7.07 44.726 0.098 7.16 13.15 11.26
5/3/2023 7:45:00 AM 7.08 44.744 0.097 7.17 14.53 11.29
5/3/2023 8:00:00 AM 7.12 44.816 0.097 7.18 13.55 11.33
5/3/2023 8:15:00 AM 7.17 44.906 0.097 7.19 13.01 11.35
5/3/2023 8:30:00 AM 7.22 44.996 0.097 7.2 13.92 11.36
5/3/2023 8:45:00 AM 7.27 45.086 0.097 7.21 14.11 11.37
5/3/2023 9:00:00 AM 7.33 45.194 0.097 7.22 13.63 11.37
5/3/2023 9:15:00 AM 7.39 45.302 0.097 7.23 12.85 11.36
5/3/2023 9:30:00 AM 7.42 45.356 0.096 7.23 12.74 11.35
5/3/2023 9:45:00 AM 7.45 45.41 0.097 7.23 12.71 11.35
5/3/2023 10:00:00 AM 7.49 45.482 0.097 7.24 13.13 11.35
5/3/2023 10:15:00 AM 7.58 45.644 0.097 7.25 13.26 11.35
5/3/2023 10:30:00 AM 7.66 45.788 0.097 7.25 13.86 11.34
5/3/2023 10:45:00 AM 7.75 45.95 0.096 7.26 13.45 11.33
5/3/2023 11:00:00 AM 7.95 46.31 0.096 7.26 14.34 11.31
5/3/2023 11:15:00 AM 8.05 46.49 0.096 7.26 12.96 11.28
5/3/2023 11:30:00 AM 8.28 46.904 0.096 7.27 12.86 11.24
5/3/2023 11:45:00 AM 8.25 46.85 0.096 7.27 12.99 11.2
5/3/2023 12:00:00 PM 8.28 46.904 0.096 7.27 13.58 11.2
5/3/2023 12:15:00 PM 8.28 46.904 0.096 7.27 14.44 11.21
5/3/2023 12:30:00 PM 8.42 47.156 0.096 7.28 13.29 11.17
5/3/2023 12:45:00 PM 8.39 47.102 0.096 7.27 12.75 11.12
5/3/2023 1:00:00 PM 8.34 47.012 0.096 7.26 13.84 11.1
5/3/2023 1:15:00 PM 8.26 46.868 0.096 7.26 13.75 11.14
5/3/2023 1:30:00 PM 8.4 47.12 0.096 7.28 12.76 11.17
5/3/2023 1:45:00 PM 8.6 47.48 0.096 7.28 13.47 11.15
5/3/2023 2:00:00 PM 8.49 47.282 0.095 7.27 13.54 11.09
5/3/2023 2:15:00 PM 8.49 47.282 0.095 7.26 13.2 11.08
5/3/2023 2:30:00 PM 8.6 47.48 0.095 7.27 13.33 11.09
5/3/2023 2:45:00 PM 8.79 47.822 0.095 7.28 13.67 11.09
5/3/2023 3:00:00 PM 8.88 47.984 0.095 7.27 13.62 11.04
5/3/2023 3:15:00 PM 8.98 48.164 0.095 7.28 13.7 11.02
5/3/2023 3:30:00 PM 9.16 48.488 0.095 7.28 13.94 11
5/3/2023 3:45:00 PM 9.13 48.434 0.096 7.28 13.39 10.96
5/3/2023 4:00:00 PM 9.1 48.38 0.096 7.28 13.66 10.97
5/3/2023 4:15:00 PM 9.15 48.47 0.095 7.28 13.34 10.96
5/3/2023 4:30:00 PM 9.13 48.434 0.095 7.28 13.49 10.95
5/3/2023 4:45:00 PM 9.05 48.29 0.095 7.27 14 10.92
5/3/2023 5:00:00 PM 9 48.2 0.095 7.26 14.2 10.92
5/3/2023 5:15:00 PM 8.94 48.092 0.095 7.26 14.34 10.92
5/3/2023 5:30:00 PM 8.93 48.074 0.095 7.26 13.79 10.95
5/3/2023 5:45:00 PM 8.91 48.038 0.095 7.26 14.24 10.96
5/3/2023 6:00:00 PM 8.87 47.966 0.095 7.26 14.22 10.96
5/3/2023 6:15:00 PM 8.83 47.894 0.095 7.26 14.03 10.96
5/3/2023 6:30:00 PM 8.77 47.786 0.096 7.25 14.11 10.96
5/3/2023 6:45:00 PM 8.73 47.714 0.096 7.25 13.28 10.96
5/3/2023 7:00:00 PM 8.69 47.642 0.096 7.24 14.46 10.95
5/3/2023 7:15:00 PM 8.63 47.534 0.096 7.23 14.04 10.93
5/3/2023 7:30:00 PM 8.57 47.426 0.097 7.22 14.73 10.91
5/3/2023 7:45:00 PM 8.5 47.3 0.096 7.21 14.54 10.89
5/3/2023 8:00:00 PM 8.44 47.192 0.096 7.19 14.28 10.89
5/3/2023 8:15:00 PM 8.38 47.084 0.097 7.19 14.9 10.89
5/3/2023 8:30:00 PM 8.32 46.976 0.097 7.17 14.85 10.89
5/3/2023 8:45:00 PM 8.25 46.85 0.097 7.17 15.15 10.9
5/3/2023 9:00:00 PM 8.18 46.724 0.097 7.16 13.72 10.91
5/3/2023 9:15:00 PM 8.12 46.616 0.097 7.16 14.43 10.92
5/3/2023 9:30:00 PM 8.08 46.544 0.098 7.16 15.47 10.94
5/3/2023 9:45:00 PM 8.03 46.454 0.097 7.15 16.21 10.95
5/3/2023 10:00:00 PM 7.99 46.382 0.098 7.15 15.89 10.96
5/3/2023 10:15:00 PM 7.95 46.31 0.098 7.15 15.19 10.97
5/3/2023 10:30:00 PM 7.92 46.256 0.098 7.15 14.47 10.98
5/3/2023 10:45:00 PM 7.89 46.202 0.099 7.15 14.68 10.99
5/3/2023 11:00:00 PM 7.86 46.148 0.099 7.15 14.3 11
5/3/2023 11:15:00 PM 7.83 46.094 0.099 7.14 14.83 11.01
5/3/2023 11:30:00 PM 7.8 46.04 0.099 7.14 15.64 11.02
5/3/2023 11:45:00 PM 7.78 46.004 0.099 7.14 14.74 11.03
5/4/2023 12:00:00 AM 7.75 45.95 0.099 7.15 15.39 11.04
5/4/2023 12:15:00 AM 7.72 45.896 0.1 7.14 16.29 11.04
5/4/2023 12:30:00 AM 7.7 45.86 0.1 7.14 15.09 11.05
5/4/2023 12:45:00 AM 7.68 45.824 0.1 7.14 15 11.06
5/4/2023 1:00:00 AM 7.66 45.788 0.1 7.14 16.09 11.07
5/4/2023 1:15:00 AM 7.64 45.752 0.1 7.14 14.62 11.07
5/4/2023 1:30:00 AM 7.62 45.716 0.099 7.14 14.84 11.08
5/4/2023 1:45:00 AM 7.6 45.68 0.1 7.14 14.9 11.09
5/4/2023 2:00:00 AM 7.58 45.644 0.1 7.14 14.75 11.09
5/4/2023 2:15:00 AM 7.56 45.608 0.1 7.14 16.26 11.1
5/4/2023 2:30:00 AM 7.55 45.59 0.1 7.14 14.82 11.1
5/4/2023 2:45:00 AM 7.53 45.554 0.1 7.14 14.89 11.11
5/4/2023 3:00:00 AM 7.52 45.536 0.1 7.14 18.01 11.11
5/4/2023 3:15:00 AM 7.5 45.5 0.1 7.14 15.43 11.12
5/4/2023 3:30:00 AM 7.48 45.464 0.1 7.14 13.94 11.13
5/4/2023 3:45:00 AM 7.46 45.428 0.1 7.14 13.33 11.13
5/4/2023 4:00:00 AM 7.44 45.392 0.1 7.14 16.69 11.14
5/4/2023 4:15:00 AM 7.42 45.356 0.1 7.14 15.58 11.14
5/4/2023 4:30:00 AM 7.4 45.32 0.1 7.14 14.33 11.15
5/4/2023 4:45:00 AM 7.39 45.302 0.1 7.14 16.83 11.16
5/4/2023 5:00:00 AM 7.38 45.284 0.1 7.14 14.27 11.16
5/4/2023 5:15:00 AM 7.38 45.284 0.1 7.13 14.14 11.16
5/4/2023 5:30:00 AM 7.36 45.248 0.1 7.13 15.54 11.17
5/4/2023 5:45:00 AM 7.35 45.23 0.099 7.13 14.73 11.18
5/4/2023 6:00:00 AM 7.34 45.212 0.099 7.13 14.72 11.18
5/4/2023 6:15:00 AM 7.33 45.194 0.099 7.13 14.44 11.19
5/4/2023 6:30:00 AM 7.32 45.176 0.099 7.13 14.16 11.2
5/4/2023 6:45:00 AM 7.32 45.176 0.099 7.14 14.59 11.22
5/4/2023 7:00:00 AM 7.33 45.194 0.099 7.14 14.54 11.25
5/4/2023 7:15:00 AM 7.34 45.212 0.099 7.15 14.71 11.29
5/4/2023 7:30:00 AM 7.35 45.23 0.099 7.16 14.09 11.32
5/4/2023 7:45:00 AM 7.38 45.284 0.099 7.17 14.63 11.35
5/4/2023 8:00:00 AM 7.42 45.356 0.099 7.18 13.63 11.38
5/4/2023 8:15:00 AM 7.48 45.464 0.098 7.2 14.48 11.41
5/4/2023 8:30:00 AM 7.53 45.554 0.099 7.21 14.3 11.42
5/4/2023 8:45:00 AM 7.58 45.644 0.099 7.21 14.4 11.42
5/4/2023 9:00:00 AM 7.66 45.788 0.098 7.22 13.76 11.43
5/4/2023 9:15:00 AM 7.75 45.95 0.098 7.23 13.63 11.43
5/4/2023 9:30:00 AM 7.81 46.058 0.098 7.24 13.25 11.42
5/4/2023 9:45:00 AM 7.86 46.148 0.098 7.24 15.21 11.4
5/4/2023 10:00:00 AM 7.96 46.328 0.098 7.25 12.25 11.4
5/4/2023 10:15:00 AM 8.04 46.472 0.098 7.25 13.28 11.38
5/4/2023 10:30:00 AM 8.2 46.76 0.097 7.26 11.27 11.37
5/4/2023 10:45:00 AM 8.27 46.886 0.097 7.26 13 11.35
5/4/2023 11:00:00 AM 8.44 47.192 0.097 7.27 12.72 11.34
5/4/2023 11:15:00 AM 8.54 47.372 0.097 7.27 12.76 11.32
5/4/2023 11:30:00 AM 8.66 47.588 0.097 7.28 13.59 11.29
5/4/2023 11:45:00 AM 8.83 47.894 0.097 7.28 13.16 11.27
5/4/2023 12:00:00 PM 8.95 48.11 0.097 7.28 13.48 11.2
5/4/2023 12:15:00 PM 9.04 48.272 0.097 7.29 13.21 11.19
5/4/2023 12:30:00 PM 9.23 48.614 0.096 7.29 13.02 11.16
5/4/2023 12:45:00 PM 9.35 48.83 0.096 7.29 12.99 11.12
5/4/2023 1:00:00 PM 9.63 49.334 0.096 7.3 12.67 11.09
5/4/2023 1:15:00 PM 9.56 49.208 0.097 7.29 13.53 11.03
5/4/2023 1:30:00 PM 9.89 49.802 0.096 7.29 13.12 11.01
5/4/2023 1:45:00 PM 10.01 50.018 0.097 7.29 13.34 10.94
5/4/2023 2:00:00 PM 10.2 50.36 0.096 7.3 13.62 10.93
5/4/2023 2:15:00 PM 10.12 50.216 0.097 7.3 13.43 10.9
5/4/2023 2:30:00 PM 10.17 50.306 0.096 7.3 13.49 10.89
5/4/2023 2:45:00 PM 10.2 50.36 0.096 7.3 13.46 10.86
5/4/2023 3:00:00 PM 10.12 50.216 0.096 7.3 12.84 10.84
5/4/2023 3:15:00 PM 10.04 50.072 0.096 7.29 13.06 10.86
5/4/2023 3:30:00 PM 10.03 50.054 0.096 7.3 13.15 10.88
5/4/2023 3:45:00 PM 10 50 0.096 7.29 12.75 10.87
5/4/2023 4:00:00 PM 10.04 50.072 0.096 7.3 14.72 10.89
5/4/2023 4:15:00 PM 10.14 50.252 0.096 7.31 14 10.89
5/4/2023 4:30:00 PM 10.14 50.252 0.096 7.31 14.59 10.89
5/4/2023 4:45:00 PM 10.1 50.18 0.096 7.3 14.54 10.88
5/4/2023 5:00:00 PM 10.1 50.18 0.095 7.31 13.94 10.88
5/4/2023 5:15:00 PM 10.04 50.072 0.095 7.3 12.74 10.87
5/4/2023 5:30:00 PM 10.01 50.018 0.096 7.29 12.96 10.87
5/4/2023 5:45:00 PM 9.95 49.91 0.096 7.28 14.31 10.81
5/4/2023 6:00:00 PM 9.89 49.802 0.095 7.27 13.97 10.82
5/4/2023 6:15:00 PM 9.84 49.712 0.096 7.27 13.91 10.84
5/4/2023 6:30:00 PM 9.77 49.586 0.095 7.26 13.42 10.83
5/4/2023 6:45:00 PM 9.7 49.46 0.096 7.25 13.97 10.81
5/4/2023 7:00:00 PM 9.65 49.37 0.096 7.24 13.69 10.81
5/4/2023 7:15:00 PM 9.6 49.28 0.096 7.24 13.4 10.83
5/4/2023 7:30:00 PM 9.54 49.172 0.096 7.23 13.84 10.82
5/4/2023 7:45:00 PM 9.47 49.046 0.096 7.22 13.7 10.81
5/4/2023 8:00:00 PM 9.4 48.92 0.097 7.21 14.54 10.79
5/4/2023 8:15:00 PM 9.32 48.776 0.097 7.19 16.87 10.78
5/4/2023 8:30:00 PM 9.25 48.65 0.097 7.18 14.22 10.78
5/4/2023 8:45:00 PM 9.19 48.542 0.097 7.18 12.65 10.78
5/4/2023 9:00:00 PM 9.13 48.434 0.097 7.17 14.89 10.79
5/4/2023 9:15:00 PM 9.08 48.344 0.097 7.17 14.49 10.8
5/4/2023 9:30:00 PM 9.02 48.236 0.098 7.16 14.65 10.81
5/4/2023 9:45:00 PM 8.97 48.146 0.098 7.16 13.54 10.83
5/4/2023 10:00:00 PM 8.93 48.074 0.098 7.15 14.73 10.84
5/4/2023 10:15:00 PM 8.88 47.984 0.098 7.15 15.57 10.85
5/4/2023 10:30:00 PM 8.84 47.912 0.098 7.15 13.53 10.87
5/4/2023 10:45:00 PM 8.79 47.822 0.098 7.15 14.77 10.88
5/4/2023 11:00:00 PM 8.75 47.75 0.099 7.15 12.8 10.89
5/4/2023 11:15:00 PM 8.72 47.696 0.099 7.15 13.32 10.91
5/4/2023 11:30:00 PM 8.69 47.642 0.099 7.15 13.39 10.91
5/4/2023 11:45:00 PM 8.66 47.588 0.099 7.15 14.37 10.92
5/5/2023 12:00:00 AM 8.63 47.534 0.099 7.15 14.34 10.93
5/5/2023 12:15:00 AM 8.6 47.48 0.099 7.15 15.04 10.94
5/5/2023 12:30:00 AM 8.55 47.39 0.099 7.15 15.63 10.96
5/5/2023 12:45:00 AM 8.53 47.354 0.1 7.15 15.8 10.96
5/5/2023 1:00:00 AM 8.49 47.282 0.1 7.15 14.03 10.97
5/5/2023 1:15:00 AM 8.44 47.192 0.1 7.14 15.17 10.98
5/5/2023 1:30:00 AM 8.38 47.084 0.1 7.14 15.01 11
5/5/2023 1:45:00 AM 8.34 47.012 0.099 7.14 13.26 11.01
5/5/2023 2:00:00 AM 8.31 46.958 0.1 7.14 13.24 11.02
5/5/2023 2:15:00 AM 8.28 46.904 0.1 7.13 14.94 11.03
5/5/2023 2:30:00 AM 8.24 46.832 0.1 7.13 14.7 11.03
5/5/2023 2:45:00 AM 8.2 46.76 0.1 7.13 14.97 11.05
5/5/2023 3:00:00 AM 8.17 46.706 0.1 7.13 14.64 11.06
5/5/2023 3:15:00 AM 8.14 46.652 0.1 7.13 14.06 11.07
5/5/2023 3:30:00 AM 8.11 46.598 0.1 7.14 14.59 11.08
5/5/2023 3:45:00 AM 8.08 46.544 0.1 7.14 14.56 11.08
5/5/2023 4:00:00 AM 8.04 46.472 0.099 7.14 13.92 11.1
5/5/2023 4:15:00 AM 8.01 46.418 0.1 7.14 14.56 11.11
5/5/2023 4:30:00 AM 7.97 46.346 0.099 7.13 14.53 11.12
5/5/2023 4:45:00 AM 7.94 46.292 0.1 7.14 11.65 11.13
5/5/2023 5:00:00 AM 7.9 46.22 0.099 7.13 13.45 11.14
5/5/2023 5:15:00 AM 7.87 46.166 0.1 7.13 14.97 11.15
5/5/2023 5:30:00 AM 7.83 46.094 0.099 7.13 14.01 11.16
5/5/2023 5:45:00 AM 7.8 46.04 0.099 7.13 14.33 11.17
5/5/2023 6:00:00 AM 7.76 45.968 0.099 7.13 15.74 11.19
5/5/2023 6:15:00 AM 7.73 45.914 0.099 7.13 13.65 11.2
5/5/2023 6:30:00 AM 7.7 45.86 0.099 7.14 13.97 11.22
5/5/2023 6:45:00 AM 7.68 45.824 0.099 7.14 13.59 11.25
5/5/2023 7:00:00 AM 7.67 45.806 0.099 7.15 12.44 11.29
5/5/2023 7:15:00 AM 7.67 45.806 0.099 7.16 13.99 11.32
5/5/2023 7:30:00 AM 7.66 45.788 0.098 7.16 11.58 11.35
5/5/2023 7:45:00 AM 7.66 45.788 0.098 7.17 13.75 11.39
5/5/2023 8:00:00 AM 7.68 45.824 0.098 7.18 12.81 11.43
5/5/2023 8:15:00 AM 7.71 45.878 0.098 7.2 13.75 11.47
5/5/2023 8:30:00 AM 7.75 45.95 0.098 7.21 13.6 11.49
5/5/2023 8:45:00 AM 7.79 46.022 0.098 7.22 14.86 11.51
5/5/2023 9:00:00 AM 7.86 46.148 0.098 7.23 13.78 11.52
5/5/2023 9:15:00 AM 7.96 46.328 0.098 7.24 12.99 11.53
5/5/2023 9:30:00 AM 8.08 46.544 0.097 7.25 13.6 11.52
5/5/2023 9:45:00 AM 8.26 46.868 0.098 7.26 13 11.5
5/5/2023 10:00:00 AM 8.44 47.192 0.098 7.26 13.57 11.46
5/5/2023 10:15:00 AM 8.62 47.516 0.098 7.26 12.91 11.42
5/5/2023 10:30:00 AM 8.89 48.002 0.097 7.27 12.4 11.38
5/5/2023 10:45:00 AM 9.03 48.254 0.098 7.27 12.92 11.32
5/5/2023 11:00:00 AM 9.17 48.506 0.097 7.28 15.03 11.28
5/5/2023 11:15:00 AM 9.13 48.434 0.097 7.28 13.42 11.27
5/5/2023 11:30:00 AM 9.24 48.632 0.097 7.29 14.88 11.27
5/5/2023 11:45:00 AM 9.26 48.668 0.097 7.29 13.38 11.26
5/5/2023 12:00:00 PM 9.33 48.794 0.097 7.3 12.7 11.25
5/5/2023 12:15:00 PM 9.33 48.794 0.096 7.3 13.35 11.21
5/5/2023 12:30:00 PM 9.41 48.938 0.097 7.3 13.2 11.2
5/5/2023 12:45:00 PM 9.46 49.028 0.096 7.3 13.16 11.16
5/5/2023 1:00:00 PM 9.5 49.1 0.096 7.3 14.24 11.15
5/5/2023 1:15:00 PM 9.55 49.19 0.096 7.31 13.18 11.15
5/5/2023 1:30:00 PM 9.56 49.208 0.096 7.31 12.9 11.16
5/5/2023 1:45:00 PM 9.81 49.658 0.096 7.31 13.62 11.14
5/5/2023 2:00:00 PM 9.87 49.766 0.096 7.31 14.23 11.09
5/5/2023 2:15:00 PM 9.89 49.802 0.096 7.31 14.68 11.07
5/5/2023 2:30:00 PM 9.91 49.838 0.096 7.31 13.92 11.07
5/5/2023 2:45:00 PM 9.94 49.892 0.096 7.32 13.55 11.07
5/5/2023 3:00:00 PM 9.97 49.946 0.096 7.32 13.47 11.08
5/5/2023 3:15:00 PM 10.09 50.162 0.096 7.33 13.24 11.07
5/5/2023 3:30:00 PM 10.12 50.216 0.096 7.33 13.08 11.05
5/5/2023 3:45:00 PM 10.21 50.378 0.096 7.32 14.58 11.02
5/5/2023 4:00:00 PM 10.45 50.81 0.096 7.33 12.91 10.98
5/5/2023 4:15:00 PM 10.56 51.008 0.096 7.32 13.24 10.94
5/5/2023 4:30:00 PM 10.46 50.828 0.096 7.31 13.08 10.9
5/5/2023 4:45:00 PM 10.47 50.846 0.096 7.31 13.46 10.9
5/5/2023 5:00:00 PM 10.6 51.08 0.095 7.32 13.35 10.89
5/5/2023 5:15:00 PM 10.51 50.918 0.095 7.31 12.6 10.87
5/5/2023 5:30:00 PM 10.45 50.81 0.096 7.31 13.43 10.86
5/5/2023 5:45:00 PM 10.44 50.792 0.095 7.3 13.14 10.84
5/5/2023 6:00:00 PM 10.38 50.684 0.095 7.3 12.78 10.84
5/5/2023 6:15:00 PM 10.32 50.576 0.095 7.29 13.11 10.84
5/5/2023 6:30:00 PM 10.3 50.54 0.095 7.28 13.21 10.83
5/5/2023 6:45:00 PM 10.26 50.468 0.095 7.28 13.56 10.81
5/5/2023 7:00:00 PM 10.21 50.378 0.096 7.27 12.91 10.79
5/5/2023 7:15:00 PM 10.14 50.252 0.095 7.25 12.73 10.78
5/5/2023 7:30:00 PM 10.05 50.09 0.095 7.24 12.73 10.76
5/5/2023 7:45:00 PM 9.95 49.91 0.096 7.22 13.5 10.75
5/5/2023 8:00:00 PM 9.87 49.766 0.096 7.21 13.71 10.74
5/5/2023 8:15:00 PM 9.78 49.604 0.096 7.19 13.32 10.73
5/5/2023 8:30:00 PM 9.7 49.46 0.096 7.18 13.1 10.73
5/5/2023 8:45:00 PM 9.63 49.334 0.096 7.17 13.77 10.72
5/5/2023 9:00:00 PM 9.56 49.208 0.096 7.16 14.21 10.73
5/5/2023 9:15:00 PM 9.49 49.082 0.097 7.16 13.31 10.74
5/5/2023 9:30:00 PM 9.41 48.938 0.097 7.15 14.38 10.76
5/5/2023 9:45:00 PM 9.32 48.776 0.097 7.15 13.78 10.78
5/5/2023 10:00:00 PM 9.23 48.614 0.097 7.14 14.63 10.8
5/5/2023 10:15:00 PM 9.14 48.452 0.097 7.14 13.26 10.82
5/5/2023 10:30:00 PM 9.05 48.29 0.097 7.13 14.3 10.85
5/5/2023 10:45:00 PM 8.96 48.128 0.097 7.13 12.36 10.87
5/5/2023 11:00:00 PM 8.87 47.966 0.097 7.13 13.05 10.89
5/5/2023 11:15:00 PM 8.79 47.822 0.097 7.13 13.77 10.92
5/5/2023 11:30:00 PM 8.69 47.642 0.097 7.13 13.94 10.95
5/5/2023 11:45:00 PM 8.62 47.516 0.097 7.12 14.07 10.96
5/6/2023 12:00:00 AM 8.52 47.336 0.097 7.12 13.92 11
5/6/2023 12:15:00 AM 8.46 47.228 0.097 7.12 13.94 11.01
5/6/2023 12:30:00 AM 8.39 47.102 0.097 7.12 12.78 11.04
5/6/2023 12:45:00 AM 8.31 46.958 0.097 7.12 12.52 11.06
5/6/2023 1:00:00 AM 8.23 46.814 0.097 7.12 13.13 11.08
5/6/2023 1:15:00 AM 8.16 46.688 0.098 7.12 13.03 11.1
5/6/2023 1:30:00 AM 8.09 46.562 0.098 7.11 14.93 11.12
5/6/2023 1:45:00 AM 8.02 46.436 0.098 7.11 18.03 11.14
5/6/2023 2:00:00 AM 7.95 46.31 0.098 7.11 13.41 11.16
5/6/2023 2:15:00 AM 7.88 46.184 0.098 7.11 14.24 11.18
5/6/2023 2:30:00 AM 7.81 46.058 0.098 7.11 13.52 11.2
5/6/2023 2:45:00 AM 7.74 45.932 0.098 7.11 14.68 11.21
5/6/2023 3:00:00 AM 7.68 45.824 0.098 7.11 14.75 11.23
5/6/2023 3:15:00 AM 7.61 45.698 0.098 7.11 14.2 11.25
5/6/2023 3:30:00 AM 7.55 45.59 0.098 7.11 14.49 11.27
5/6/2023 3:45:00 AM 7.49 45.482 0.098 7.11 14.19 11.29
5/6/2023 4:00:00 AM 7.43 45.374 0.098 7.11 13.8 11.31
5/6/2023 4:15:00 AM 7.37 45.266 0.097 7.11 14.19 11.32
5/6/2023 4:30:00 AM 7.31 45.158 0.098 7.1 13.69 11.34
5/6/2023 4:45:00 AM 7.26 45.068 0.098 7.11 13.84 11.36
5/6/2023 5:00:00 AM 7.21 44.978 0.098 7.1 13.94 11.38
5/6/2023 5:15:00 AM 7.16 44.888 0.098 7.1 14.66 11.39
5/6/2023 5:30:00 AM 7.13 44.834 0.098 7.1 14.64 11.41
5/6/2023 5:45:00 AM 7.09 44.762 0.098 7.1 15.27 11.42
5/6/2023 6:00:00 AM 7.06 44.708 0.098 7.1 15.46 11.43
5/6/2023 6:15:00 AM 7.04 44.672 0.098 7.11 14.11 11.45
5/6/2023 6:30:00 AM 7.02 44.636 0.098 7.11 14.55 11.47
5/6/2023 6:45:00 AM 7.01 44.618 0.098 7.11 14.4 11.5
5/6/2023 7:00:00 AM 7.01 44.618 0.098 7.12 14.41 11.54
5/6/2023 7:15:00 AM 7 44.6 0.097 7.13 13.98 11.57
5/6/2023 7:30:00 AM 7.01 44.618 0.097 7.15 14.18 11.62
5/6/2023 7:45:00 AM 7.02 44.636 0.097 7.16 13.66 11.66
5/6/2023 8:00:00 AM 7.06 44.708 0.097 7.17 14.17 11.7
5/6/2023 8:15:00 AM 7.11 44.798 0.097 7.19 13.89 11.74
5/6/2023 8:30:00 AM 7.15 44.87 0.097 7.2 11.9 11.74
5/6/2023 8:45:00 AM 7.22 44.996 0.097 7.21 12.77 11.73
5/6/2023 9:00:00 AM 7.29 45.122 0.097 7.21 13.58 11.72
5/6/2023 9:15:00 AM 7.4 45.32 0.097 7.22 12.17 11.7
5/6/2023 9:30:00 AM 7.56 45.608 0.097 7.22 13.22 11.68
5/6/2023 9:45:00 AM 7.74 45.932 0.096 7.23 12.76 11.65
5/6/2023 10:00:00 AM 7.95 46.31 0.097 7.24 14.13 11.62
5/6/2023 10:15:00 AM 8.19 46.742 0.096 7.24 13.25 11.57
5/6/2023 10:30:00 AM 8.45 47.21 0.096 7.25 13.66 11.53
5/6/2023 10:45:00 AM 8.73 47.714 0.096 7.26 13.74 11.47
5/6/2023 11:00:00 AM 9.01 48.218 0.096 7.27 13.33 11.41
5/6/2023 11:15:00 AM 9.31 48.758 0.096 7.27 13.91 11.35
5/6/2023 11:30:00 AM 9.62 49.316 0.096 7.28 13.34 11.28
5/6/2023 11:45:00 AM 9.93 49.874 0.096 7.29 13.47 11.21
5/6/2023 12:00:00 PM 10.24 50.432 0.095 7.29 13.08 11.14
5/6/2023 12:15:00 PM 10.56 51.008 0.095 7.3 13.26 11.06
5/6/2023 12:30:00 PM 10.88 51.584 0.095 7.31 13.85 10.99
5/6/2023 12:45:00 PM 11.18 52.124 0.095 7.31 12.98 10.92
5/6/2023 1:00:00 PM 11.46 52.628 0.095 7.32 13.7 10.85
5/6/2023 1:15:00 PM 11.71 53.078 0.095 7.33 13.14 10.79
5/6/2023 1:30:00 PM 11.97 53.546 0.095 7.33 13.3 10.72
5/6/2023 1:45:00 PM 12.21 53.978 0.095 7.33 12.86 10.64
5/6/2023 2:00:00 PM 12.41 54.338 0.094 7.33 12.33 10.58
5/6/2023 2:15:00 PM 12.61 54.698 0.094 7.34 12.86 10.53
5/6/2023 2:30:00 PM 12.79 55.022 0.094 7.34 12.87 10.48
5/6/2023 2:45:00 PM 12.94 55.292 0.094 7.34 14.28 10.44
5/6/2023 3:00:00 PM 13.07 55.526 0.094 7.35 14.39 10.4
5/6/2023 3:15:00 PM 13.19 55.742 0.094 7.35 13.48 10.36
5/6/2023 3:30:00 PM 13.27 55.886 0.094 7.35 13.59 10.33
5/6/2023 3:45:00 PM 13.34 56.012 0.094 7.35 12.48 10.3
5/6/2023 4:00:00 PM 13.36 56.048 0.094 7.35 13.01 10.27
5/6/2023 4:15:00 PM 13.36 56.048 0.094 7.34 13.56 10.25
5/6/2023 4:30:00 PM 13.29 55.922 0.093 7.34 14.13 10.23
5/6/2023 4:45:00 PM 13.26 55.868 0.094 7.33 13.76 10.23
5/6/2023 5:00:00 PM 13.17 55.706 0.094 7.33 13.54 10.22
5/6/2023 5:15:00 PM 13.03 55.454 0.093 7.32 15.1 10.22
5/6/2023 5:30:00 PM 12.89 55.202 0.093 7.31 13.99 10.22
5/6/2023 5:45:00 PM 12.76 54.968 0.093 7.3 14.15 10.22
5/6/2023 6:00:00 PM 12.62 54.716 0.093 7.29 13.88 10.22
5/6/2023 6:15:00 PM 12.47 54.446 0.094 7.28 13.92 10.23
5/6/2023 6:30:00 PM 12.33 54.194 0.093 7.26 13.67 10.23
5/6/2023 6:45:00 PM 12.23 54.014 0.093 7.26 13.96 10.27
5/6/2023 7:00:00 PM 12.14 53.852 0.094 7.26 14.32 10.29
5/6/2023 7:15:00 PM 12.04 53.672 0.094 7.25 14 10.29
5/6/2023 7:30:00 PM 11.95 53.51 0.093 7.24 13.5 10.29
5/6/2023 7:45:00 PM 11.84 53.312 0.094 7.23 13.75 10.27
5/6/2023 8:00:00 PM 11.72 53.096 0.094 7.21 13.82 10.26
5/6/2023 8:15:00 PM 11.58 52.844 0.094 7.19 13.7 10.26
5/6/2023 8:30:00 PM 11.44 52.592 0.094 7.17 13.04 10.26
5/6/2023 8:45:00 PM 11.29 52.322 0.094 7.16 13.44 10.27
5/6/2023 9:00:00 PM 11.15 52.07 0.094 7.15 13.57 10.29
5/6/2023 9:15:00 PM 11.01 51.818 0.094 7.14 13.96 10.32
5/6/2023 9:30:00 PM 10.88 51.584 0.094 7.13 13.72 10.35
5/6/2023 9:45:00 PM 10.75 51.35 0.094 7.13 14.09 10.37
5/6/2023 10:00:00 PM 10.63 51.134 0.094 7.12 15.97 10.4
5/6/2023 10:15:00 PM 10.51 50.918 0.094 7.12 15.26 10.43
5/6/2023 10:30:00 PM 10.4 50.72 0.094 7.12 14.75 10.46
5/6/2023 10:45:00 PM 10.29 50.522 0.094 7.11 14.45 10.48
5/6/2023 11:00:00 PM 10.2 50.36 0.094 7.11 14.77 10.5
5/6/2023 11:15:00 PM 10.09 50.162 0.094 7.11 14.76 10.53
5/6/2023 11:30:00 PM 9.99 49.982 0.094 7.11 14.73 10.56
5/6/2023 11:45:00 PM 9.9 49.82 0.094 7.11 14.36 10.59
5/7/2023 12:00:00 AM 9.8 49.64 0.094 7.11 15.11 10.61
5/7/2023 12:15:00 AM 9.72 49.496 0.094 7.11 15.72 10.63
5/7/2023 12:30:00 AM 9.63 49.334 0.094 7.11 15.51 10.65
5/7/2023 12:45:00 AM 9.55 49.19 0.094 7.1 14.7 10.67
5/7/2023 1:00:00 AM 9.46 49.028 0.094 7.1 15.06 10.69
5/7/2023 1:15:00 AM 9.38 48.884 0.094 7.1 15.6 10.72
5/7/2023 1:30:00 AM 9.3 48.74 0.094 7.1 15.19 10.73
5/7/2023 1:45:00 AM 9.22 48.596 0.094 7.1 14.74 10.75
5/7/2023 2:00:00 AM 9.14 48.452 0.094 7.09 15.43 10.77
5/7/2023 2:15:00 AM 9.07 48.326 0.094 7.1 14.78 10.79
5/7/2023 2:30:00 AM 9 48.2 0.094 7.09 14.55 10.81
5/7/2023 2:45:00 AM 8.93 48.074 0.094 7.09 14.14 10.83
5/7/2023 3:00:00 AM 8.86 47.948 0.094 7.09 14.65 10.85
5/7/2023 3:15:00 AM 8.79 47.822 0.095 7.09 14.37 10.87
5/7/2023 3:30:00 AM 8.72 47.696 0.094 7.09 14.8 10.88
5/7/2023 3:45:00 AM 8.65 47.57 0.094 7.09 14.34 10.9
5/7/2023 4:00:00 AM 8.58 47.444 0.094 7.09 14.49 10.92
5/7/2023 4:15:00 AM 8.52 47.336 0.094 7.09 13.9 10.93
5/7/2023 4:30:00 AM 8.45 47.21 0.094 7.09 14.14 10.95
5/7/2023 4:45:00 AM 8.39 47.102 0.094 7.09 14.39 10.97
5/7/2023 5:00:00 AM 8.32 46.976 0.094 7.08 14.15 10.99
5/7/2023 5:15:00 AM 8.26 46.868 0.094 7.09 13.96 11
5/7/2023 5:30:00 AM 8.2 46.76 0.094 7.09 14.24 11.02
5/7/2023 5:45:00 AM 8.14 46.652 0.094 7.08 14.02 11.03
5/7/2023 6:00:00 AM 8.08 46.544 0.095 7.09 14.34 11.05
5/7/2023 6:15:00 AM 8.02 46.436 0.095 7.09 13.74 11.07
5/7/2023 6:30:00 AM 7.95 46.31 0.095 7.09 13.95 11.12
5/7/2023 6:45:00 AM 7.92 46.256 0.095 7.1 13.68 11.14
5/7/2023 7:00:00 AM 7.87 46.166 0.094 7.1 13.8 11.19
5/7/2023 7:15:00 AM 7.84 46.112 0.095 7.11 13.61 11.22
5/7/2023 7:30:00 AM 7.8 46.04 0.095 7.12 14.37 11.25
5/7/2023 7:45:00 AM 7.79 46.022 0.094 7.13 14.22 11.3
5/7/2023 8:00:00 AM 7.8 46.04 0.094 7.14 14.29 11.34
5/7/2023 8:15:00 AM 7.87 46.166 0.095 7.16 13.58 11.39
5/7/2023 8:30:00 AM 7.95 46.31 0.094 7.17 13.25 11.41
5/7/2023 8:45:00 AM 8.03 46.454 0.094 7.19 13.81 11.41
5/7/2023 9:00:00 AM 8.11 46.598 0.094 7.2 13.87 11.42
5/7/2023 9:15:00 AM 8.23 46.814 0.094 7.22 13.84 11.42
5/7/2023 9:30:00 AM 8.36 47.048 0.094 7.23 13.22 11.42
5/7/2023 9:45:00 AM 8.5 47.3 0.094 7.24 13.4 11.41
5/7/2023 10:00:00 AM 8.64 47.552 0.093 7.25 14 11.38
5/7/2023 10:15:00 AM 8.76 47.768 0.094 7.26 14.3 11.34
5/7/2023 10:30:00 AM 8.89 48.002 0.093 7.27 15.2 11.32
5/7/2023 10:45:00 AM 9.05 48.29 0.093 7.28 13.71 11.29
5/7/2023 11:00:00 AM 9.21 48.578 0.093 7.29 13.15 11.26
5/7/2023 11:15:00 AM 9.38 48.884 0.093 7.3 13.74 11.22
5/7/2023 11:30:00 AM 9.51 49.118 0.093 7.31 14.27 11.19
5/7/2023 11:45:00 AM 9.71 49.478 0.093 7.31 12.98 11.16
5/7/2023 12:00:00 PM 9.97 49.946 0.093 7.32 13.48 11.12
5/7/2023 12:15:00 PM 10.22 50.396 0.093 7.33 13.27 11.07
5/7/2023 12:30:00 PM 10.41 50.738 0.092 7.34 13.59 11.01
5/7/2023 12:45:00 PM 10.6 51.08 0.092 7.34 13.02 10.97
5/7/2023 1:00:00 PM 10.76 51.368 0.092 7.35 12.8 10.91
5/7/2023 1:15:00 PM 10.83 51.494 0.092 7.35 13.17 10.87
5/7/2023 1:30:00 PM 10.88 51.584 0.093 7.35 13.2 10.84
5/7/2023 1:45:00 PM 10.94 51.692 0.092 7.36 13.29 10.82
5/7/2023 2:00:00 PM 10.99 51.782 0.092 7.36 13.43 10.79
5/7/2023 2:15:00 PM 10.99 51.782 0.092 7.35 46.64 10.75
5/7/2023 2:30:00 PM 10.95 51.71 0.092 7.33 13.16 10.71
5/7/2023 2:45:00 PM 10.91 51.638 0.092 7.32 13.16 10.68
5/7/2023 3:00:00 PM 10.88 51.584 0.092 7.31 13.62 10.67
5/7/2023 3:15:00 PM 10.84 51.512 0.092 7.3 13.67 10.64
5/7/2023 3:30:00 PM 10.78 51.404 0.092 7.28 14.47 10.59
5/7/2023 3:45:00 PM 10.73 51.314 0.092 7.26 13.72 10.56
5/7/2023 4:00:00 PM 10.69 51.242 0.092 7.24 13.86 10.54
5/7/2023 4:15:00 PM 10.64 51.152 0.092 7.23 13.88 10.54
5/7/2023 4:30:00 PM 10.6 51.08 0.092 7.23 14.09 10.56
5/7/2023 4:45:00 PM 10.57 51.026 0.091 7.23 14.02 10.6
5/7/2023 5:00:00 PM 10.55 50.99 0.092 7.24 17.65 10.65
5/7/2023 5:15:00 PM 10.55 50.99 0.092 7.24 13.8 10.62
5/7/2023 5:30:00 PM 10.52 50.936 0.092 7.23 13.21 10.61
5/7/2023 5:45:00 PM 10.49 50.882 0.092 7.22 13.99 10.59
5/7/2023 6:00:00 PM 10.44 50.792 0.092 7.21 13.89 10.55
5/7/2023 6:15:00 PM 10.39 50.702 0.092 7.2 13.53 10.54
5/7/2023 6:30:00 PM 10.35 50.63 0.092 7.18 13.73 10.53
5/7/2023 6:45:00 PM 10.32 50.576 0.093 7.18 13.37 10.55
5/7/2023 7:00:00 PM 10.29 50.522 0.093 7.18 13.07 10.54
5/7/2023 7:15:00 PM 10.25 50.45 0.092 7.17 13.75 10.53
5/7/2023 7:30:00 PM 10.22 50.396 0.093 7.17 14.5 10.54
5/7/2023 7:45:00 PM 10.19 50.342 0.093 7.16 13.54 10.53
5/7/2023 8:00:00 PM 10.15 50.27 0.093 7.15 13.57 10.51
5/7/2023 8:15:00 PM 10.11 50.198 0.093 7.14 15.05 10.5
5/7/2023 8:30:00 PM 10.07 50.126 0.093 7.12 14.32 10.48
5/7/2023 8:45:00 PM 10.04 50.072 0.093 7.11 15.03 10.48
5/7/2023 9:00:00 PM 10 50 0.093 7.09 14.81 10.48
5/7/2023 9:15:00 PM 9.97 49.946 0.093 7.09 14.17 10.48
5/7/2023 9:30:00 PM 9.94 49.892 0.093 7.08 14.9 10.49
5/7/2023 9:45:00 PM 9.9 49.82 0.093 7.07 13.39 10.49
5/7/2023 10:00:00 PM 9.88 49.784 0.093 7.06 14.09 10.5
5/7/2023 10:15:00 PM 9.85 49.73 0.093 7.05 14.25 10.5
5/7/2023 10:30:00 PM 9.83 49.694 0.094 7.05 14.87 10.5
5/7/2023 10:45:00 PM 9.81 49.658 0.094 7.05 14.37 10.51
5/7/2023 11:00:00 PM 9.79 49.622 0.094 7.04 14.36 10.51
5/7/2023 11:15:00 PM 9.77 49.586 0.094 7.04 14.62 10.52
5/7/2023 11:30:00 PM 9.76 49.568 0.094 7.04 14.34 10.52
5/7/2023 11:45:00 PM 9.75 49.55 0.095 7.04 13.92 10.52
5/8/2023 12:00:00 AM 9.73 49.514 0.095 7.04 13.97 10.52
5/8/2023 12:15:00 AM 9.72 49.496 0.095 7.04 14.05 10.53
5/8/2023 12:30:00 AM 9.71 49.478 0.095 7.04 14 10.53
5/8/2023 12:45:00 AM 9.69 49.442 0.095 7.03 14.12 10.53
5/8/2023 1:00:00 AM 9.68 49.424 0.095 7.03 14.56 10.53
5/8/2023 1:15:00 AM 9.66 49.388 0.095 7.02 13.89 10.54
5/8/2023 1:30:00 AM 9.65 49.37 0.095 7.03 14.54 10.54
5/8/2023 1:45:00 AM 9.64 49.352 0.095 7.03 14.67 10.55
5/8/2023 2:00:00 AM 9.63 49.334 0.095 7.03 13.67 10.54
5/8/2023 2:15:00 AM 9.62 49.316 0.095 7.03 15.19 10.55
5/8/2023 2:30:00 AM 9.61 49.298 0.095 7.03 14.65 10.55
5/8/2023 2:45:00 AM 9.61 49.298 0.095 7.03 14.64 10.55
5/8/2023 3:00:00 AM 9.6 49.28 0.095 7.03 14.76 10.55
5/8/2023 3:15:00 AM 9.59 49.262 0.095 7.04 14.59 10.56
5/8/2023 3:30:00 AM 9.59 49.262 0.095 7.05 14.77 10.56
5/8/2023 3:45:00 AM 9.59 49.262 0.095 7.08 14.34 10.57
5/8/2023 4:00:00 AM 9.59 49.262 0.096 7.1 14.6 10.57
5/8/2023 4:15:00 AM 9.58 49.244 0.095 7.1 15.05 10.58
5/8/2023 4:30:00 AM 9.56 49.208 0.095 7.1 14.87 10.58
5/8/2023 4:45:00 AM 9.55 49.19 0.095 7.1 15 10.59
5/8/2023 5:00:00 AM 9.54 49.172 0.095 7.11 14.71 10.58
5/8/2023 5:15:00 AM 9.5 49.1 0.095 7.1 14.84 10.6
5/8/2023 5:30:00 AM 9.5 49.1 0.095 7.1 14.61 10.59
5/8/2023 5:45:00 AM 9.49 49.082 0.095 7.1 19.8 10.6
5/8/2023 6:00:00 AM 9.48 49.064 0.095 7.1 14.74 10.6
5/8/2023 6:15:00 AM 9.47 49.046 0.095 7.11 15.98 10.61
5/8/2023 6:30:00 AM 9.46 49.028 0.095 7.11 14.45 10.63
5/8/2023 6:45:00 AM 9.46 49.028 0.095 7.12 14.82 10.65
5/8/2023 7:00:00 AM 9.46 49.028 0.095 7.12 16.86 10.68
5/8/2023 7:15:00 AM 9.46 49.028 0.095 7.13 13.91 10.72
5/8/2023 7:30:00 AM 9.44 48.992 0.094 7.14 13.8 10.74
5/8/2023 7:45:00 AM 9.47 49.046 0.095 7.15 14.34 10.78
5/8/2023 8:00:00 AM 9.51 49.118 0.094 7.17 16.91 10.84
5/8/2023 8:15:00 AM 9.54 49.172 0.095 7.2 17.4 10.89
5/8/2023 8:30:00 AM 9.6 49.28 0.094 7.22 14.78 10.95
5/8/2023 8:45:00 AM 9.73 49.514 0.092 7.26 25.11 10.97
5/8/2023 9:00:00 AM 9.89 49.802 0.095 7.28 40.99 10.99
5/8/2023 9:15:00 AM 10.03 50.054 0.094 7.28 17.57 10.98
5/8/2023 9:30:00 AM 10.19 50.342 0.094 7.29 14.11 10.96
5/8/2023 9:45:00 AM 10.3 50.54 0.095 7.3 16.09 10.93
5/8/2023 10:00:00 AM 10.29 50.522 0.094 7.3 15.55 10.88
5/8/2023 10:15:00 AM 10.55 50.99 0.095 7.31 14.72 10.88
5/8/2023 10:30:00 AM 10.76 51.368 0.094 7.31 15.66 10.86
5/8/2023 10:45:00 AM 10.85 51.53 0.094 7.32 14.93 10.82
5/8/2023 11:00:00 AM 10.88 51.584 0.095 7.32 15.97 10.81
5/8/2023 11:15:00 AM 11.1 51.98 0.095 7.33 15.08 10.8
5/8/2023 11:30:00 AM 11.37 52.466 0.094 7.34 14.23 10.76
5/8/2023 11:45:00 AM 11.64 52.952 0.094 7.35 13.32 10.72
5/8/2023 12:00:00 PM 12 53.6 0.094 7.36 14.3 10.66
5/8/2023 12:15:00 PM 12.26 54.068 0.094 7.36 14.43 10.6
5/8/2023 12:30:00 PM 12.42 54.356 0.095 7.37 12.79 10.54
5/8/2023 12:45:00 PM 12.68 54.824 0.094 7.37 13.33 10.5
5/8/2023 1:00:00 PM 12.96 55.328 0.094 7.39 14.52 10.45
5/8/2023 1:15:00 PM 13.11 55.598 0.094 7.39 14.7 10.39
5/8/2023 1:30:00 PM 13.13 55.634 0.094 7.4 14.04 10.35
5/8/2023 1:45:00 PM 13.22 55.796 0.094 7.4 13.65 10.33
5/8/2023 2:00:00 PM 13.32 55.976 0.094 7.41 14.61 10.3
5/8/2023 2:15:00 PM 13.56 56.408 0.094 7.41 13.89 10.25
5/8/2023 2:30:00 PM 13.53 56.354 0.094 7.41 14.73 10.22
5/8/2023 2:45:00 PM 13.71 56.678 0.094 7.41 28.67 10.22
5/8/2023 3:00:00 PM 13.73 56.714 0.094 7.41 13.91 10.17
5/8/2023 3:15:00 PM 13.86 56.948 0.094 7.4 14.74 10.16
5/8/2023 3:30:00 PM 13.89 57.002 0.094 7.4 14.28 10.13
5/8/2023 3:45:00 PM 13.96 57.128 0.094 7.4 13.28 10.12
5/8/2023 4:00:00 PM 13.89 57.002 0.094 7.4 14.29 10.12
5/8/2023 4:15:00 PM 13.87 56.966 0.094 7.4 14.63 10.1
5/8/2023 4:30:00 PM 13.86 56.948 0.094 7.39 13.68 10.09
5/8/2023 4:45:00 PM 13.82 56.876 0.094 7.39 14.65 10.07
5/8/2023 5:00:00 PM 13.76 56.768 0.094 7.38 14.79 10.05
5/8/2023 5:15:00 PM 13.68 56.624 0.094 7.37 14.16 10.04
5/8/2023 5:30:00 PM 13.57 56.426 0.093 7.36 13.09 10.03
5/8/2023 5:45:00 PM 13.44 56.192 0.094 7.34 15.39 10.02
5/8/2023 6:00:00 PM 13.3 55.94 0.094 7.33 14.46 10.01
5/8/2023 6:15:00 PM 13.16 55.688 0.094 7.32 14.25 10.02
5/8/2023 6:30:00 PM 13.03 55.454 0.094 7.31 15.31 10.04
5/8/2023 6:45:00 PM 12.92 55.256 0.094 7.3 13.95 10.05
5/8/2023 7:00:00 PM 12.82 55.076 0.094 7.29 14.56 10.05
5/8/2023 7:15:00 PM 12.73 54.914 0.094 7.28 14.7 10.05
5/8/2023 7:30:00 PM 12.64 54.752 0.094 7.26 15.03 10.03
5/8/2023 7:45:00 PM 12.54 54.572 0.094 7.24 14.87 10.02
5/8/2023 8:00:00 PM 12.44 54.392 0.094 7.22 14.38 10
5/8/2023 8:15:00 PM 12.32 54.176 0.095 7.2 14.53 9.98
5/8/2023 8:30:00 PM 12.19 53.942 0.095 7.18 14.11 9.97
5/8/2023 8:45:00 PM 12.07 53.726 0.095 7.17 15.46 9.98
5/8/2023 9:00:00 PM 11.95 53.51 0.095 7.16 15.54 9.99
5/8/2023 9:15:00 PM 11.83 53.294 0.095 7.14 15.68 10.01
5/8/2023 9:30:00 PM 11.71 53.078 0.095 7.13 15.38 10.03
5/8/2023 9:45:00 PM 11.59 52.862 0.095 7.13 14.49 10.06
5/8/2023 10:00:00 PM 11.49 52.682 0.095 7.12 15.62 10.08
5/8/2023 10:15:00 PM 11.38 52.484 0.095 7.12 15.02 10.11
5/8/2023 10:30:00 PM 11.29 52.322 0.095 7.12 15.27 10.13
5/8/2023 10:45:00 PM 11.2 52.16 0.095 7.12 14.61 10.16
5/8/2023 11:00:00 PM 11.11 51.998 0.095 7.12 14.69 10.18
5/8/2023 11:15:00 PM 11.02 51.836 0.095 7.11 14.92 10.2
5/8/2023 11:30:00 PM 10.94 51.692 0.095 7.11 14.17 10.22
5/8/2023 11:45:00 PM 10.86 51.548 0.095 7.11 14.97 10.24
5/9/2023 12:00:00 AM 10.77 51.386 0.095 7.11 15.27 10.26
5/9/2023 12:15:00 AM 10.69 51.242 0.095 7.11 14.73 10.28
5/9/2023 12:30:00 AM 10.59 51.062 0.095 7.11 15.34 10.31
5/9/2023 12:45:00 AM 10.53 50.954 0.095 7.11 14.78 10.32
5/9/2023 1:00:00 AM 10.45 50.81 0.095 7.1 15.81 10.33
5/9/2023 1:15:00 AM 10.37 50.666 0.095 7.1 15.18 10.35
5/9/2023 1:30:00 AM 10.29 50.522 0.095 7.1 15.24 10.37
5/9/2023 1:45:00 AM 10.22 50.396 0.095 7.1 19.41 10.39
5/9/2023 2:00:00 AM 10.15 50.27 0.095 7.1 15.57 10.41
5/9/2023 2:15:00 AM 10.1 50.18 0.095 7.11 14.77 10.43
5/9/2023 2:30:00 AM 10.04 50.072 0.095 7.11 16.49 10.44
5/9/2023 2:45:00 AM 9.99 49.982 0.095 7.11 14.46 10.46
5/9/2023 3:00:00 AM 9.94 49.892 0.095 7.11 14.27 10.47
5/9/2023 3:15:00 AM 9.89 49.802 0.095 7.11 14.33 10.48
5/9/2023 3:30:00 AM 9.85 49.73 0.095 7.11 14.52 10.5
5/9/2023 3:45:00 AM 9.8 49.64 0.095 7.11 14.27 10.51
5/9/2023 4:00:00 AM 9.76 49.568 0.095 7.11 14.47 10.52
5/9/2023 4:15:00 AM 9.71 49.478 0.095 7.1 14 10.53
5/9/2023 4:30:00 AM 9.67 49.406 0.095 7.1 14.13 10.55
5/9/2023 4:45:00 AM 9.62 49.316 0.095 7.1 14.05 10.56
5/9/2023 5:00:00 AM 9.58 49.244 0.095 7.1 15.38 10.57
5/9/2023 5:15:00 AM 9.54 49.172 0.095 7.1 15.07 10.58
5/9/2023 5:30:00 AM 9.5 49.1 0.095 7.1 14.92 10.59
5/9/2023 5:45:00 AM 9.47 49.046 0.095 7.1 14.58 10.6
5/9/2023 6:00:00 AM 9.44 48.992 0.095 7.1 14.21 10.61
5/9/2023 6:15:00 AM 9.41 48.938 0.095 7.1 14.77 10.62
5/9/2023 6:30:00 AM 9.38 48.884 0.095 7.1 15.23 10.64
5/9/2023 6:45:00 AM 9.36 48.848 0.095 7.11 14.11 10.67
5/9/2023 7:00:00 AM 9.34 48.812 0.095 7.12 14.27 10.71
5/9/2023 7:15:00 AM 9.33 48.794 0.095 7.13 14.59 10.75
5/9/2023 7:30:00 AM 9.33 48.794 0.095 7.14 14.99 10.8
5/9/2023 7:45:00 AM 9.34 48.812 0.094 7.15 13.95 10.86
5/9/2023 8:00:00 AM 9.36 48.848 0.094 7.18 14.12 10.93
5/9/2023 8:15:00 AM 9.38 48.884 0.095 7.19 13.94 10.96
5/9/2023 8:30:00 AM 9.44 48.992 0.094 7.21 13.37 11
5/9/2023 8:45:00 AM 9.5 49.1 0.094 7.23 14.56 11.03
5/9/2023 9:00:00 AM 9.58 49.244 0.094 7.25 14.04 11.05
5/9/2023 9:15:00 AM 9.71 49.478 0.094 7.26 14.66 11.05
5/9/2023 9:30:00 AM 9.85 49.73 0.094 7.28 13.75 11.04
5/9/2023 9:45:00 AM 10.03 50.054 0.093 7.29 13.37 11.03
5/9/2023 10:00:00 AM 10.19 50.342 0.093 7.3 14.02 11.01
5/9/2023 10:15:00 AM 10.3 50.54 0.093 7.32 13.51 10.99
5/9/2023 10:30:00 AM 10.38 50.684 0.093 7.33 13.81 10.98
5/9/2023 10:45:00 AM 10.53 50.954 0.093 7.34 13.59 10.95
5/9/2023 11:00:00 AM 10.77 51.386 0.093 7.35 13.9 10.93
5/9/2023 11:15:00 AM 10.83 51.494 0.093 7.35 13.34 10.88
5/9/2023 11:30:00 AM 10.97 51.746 0.093 7.35 13.47 10.87
5/9/2023 11:45:00 AM 11.21 52.178 0.093 7.36 12.97 10.83
5/9/2023 12:00:00 PM 11.5 52.7 0.093 7.36 12.49 10.79
5/9/2023 12:15:00 PM 11.86 53.348 0.094 7.37 13.25 10.72
5/9/2023 12:30:00 PM 12.18 53.924 0.094 7.37 14.32 10.66
5/9/2023 12:45:00 PM 12.48 54.464 0.093 7.38 13.53 10.59
5/9/2023 1:00:00 PM 12.69 54.842 0.094 7.39 13.12 10.53
5/9/2023 1:15:00 PM 12.9 55.22 0.093 7.39 13.93 10.48
5/9/2023 1:30:00 PM 13.14 55.652 0.094 7.4 12.64 10.43
5/9/2023 1:45:00 PM 13.36 56.048 0.094 7.4 14.27 10.37
5/9/2023 2:00:00 PM 13.57 56.426 0.094 7.41 14.3 10.31
5/9/2023 2:15:00 PM 13.75 56.75 0.094 7.41 13.55 10.26
5/9/2023 2:30:00 PM 13.93 57.074 0.094 7.41 13.7 10.22
5/9/2023 2:45:00 PM 14.07 57.326 0.094 7.41 13.69 10.18
5/9/2023 3:00:00 PM 14.19 57.542 0.094 7.42 13.93 10.15
5/9/2023 3:15:00 PM 14.25 57.65 0.094 7.42 13.33 10.12
5/9/2023 3:30:00 PM 14.28 57.704 0.094 7.43 13.4 10.11
5/9/2023 3:45:00 PM 14.26 57.668 0.094 7.43 13.44 10.11
5/9/2023 4:00:00 PM 14.17 57.506 0.093 7.43 13.15 10.11
5/9/2023 4:15:00 PM 14.12 57.416 0.093 7.44 13.81 10.11
5/9/2023 4:30:00 PM 14.04 57.272 0.093 7.44 13.73 10.12
5/9/2023 4:45:00 PM 13.92 57.056 0.093 7.43 13.83 10.13
5/9/2023 5:00:00 PM 13.78 56.804 0.093 7.42 14.03 10.14
5/9/2023 5:15:00 PM 13.6 56.48 0.093 7.41 13.55 10.15
5/9/2023 5:30:00 PM 13.43 56.174 0.093 7.41 14.59 10.17
5/9/2023 5:45:00 PM 13.27 55.886 0.093 7.4 14.2 10.18
5/9/2023 6:00:00 PM 13.13 55.634 0.093 7.39 13.81 10.2
5/9/2023 6:15:00 PM 12.98 55.364 0.093 7.38 13.56 10.21
5/9/2023 6:30:00 PM 12.8 55.04 0.093 7.36 14.22 10.2
5/9/2023 6:45:00 PM 12.65 54.77 0.093 7.34 14.19 10.19
5/9/2023 7:00:00 PM 12.49 54.482 0.093 7.32 14.3 10.19
5/9/2023 7:15:00 PM 12.34 54.212 0.093 7.31 14.57 10.19
5/9/2023 7:30:00 PM 12.2 53.96 0.093 7.29 14.29 10.19
5/9/2023 7:45:00 PM 12.06 53.708 0.094 7.27 14.05 10.18
5/9/2023 8:00:00 PM 11.93 53.474 0.094 7.25 14.32 10.16
5/9/2023 8:15:00 PM 11.8 53.24 0.094 7.23 13.28 10.15
5/9/2023 8:30:00 PM 11.66 52.988 0.094 7.21 14.67 10.14
5/9/2023 8:45:00 PM 11.52 52.736 0.094 7.19 14.38 10.14
5/9/2023 9:00:00 PM 11.38 52.484 0.094 7.18 13.86 10.16
5/9/2023 9:15:00 PM 11.25 52.25 0.095 7.16 14.08 10.19
5/9/2023 9:30:00 PM 11.11 51.998 0.095 7.15 13.86 10.21
5/9/2023 9:45:00 PM 10.98 51.764 0.094 7.15 14.31 10.24
5/9/2023 10:00:00 PM 10.85 51.53 0.095 7.15 14.45 10.27
5/9/2023 10:15:00 PM 10.73 51.314 0.095 7.14 14.5 10.3
5/9/2023 10:30:00 PM 10.61 51.098 0.095 7.14 14.27 10.33
5/9/2023 10:45:00 PM 10.49 50.882 0.095 7.14 13.2 10.36
5/9/2023 11:00:00 PM 10.37 50.666 0.095 7.14 14.22 10.39
5/9/2023 11:15:00 PM 10.25 50.45 0.095 7.14 14.38 10.42
5/9/2023 11:30:00 PM 10.14 50.252 0.095 7.13 14.39 10.45
5/9/2023 11:45:00 PM 10.03 50.054 0.095 7.13 14.43 10.48
5/10/2023 12:00:00 AM 9.93 49.874 0.095 7.13 14.59 10.51
5/10/2023 12:15:00 AM 9.83 49.694 0.095 7.13 14.3 10.53
5/10/2023 12:30:00 AM 9.73 49.514 0.095 7.13 14.4 10.55
5/10/2023 12:45:00 AM 9.61 49.298 0.094 7.13 14.68 10.59
5/10/2023 1:00:00 AM 9.54 49.172 0.095 7.13 14.37 10.61
5/10/2023 1:15:00 AM 9.44 48.992 0.095 7.12 14.31 10.63
5/10/2023 1:30:00 AM 9.35 48.83 0.095 7.12 14.21 10.66
5/10/2023 1:45:00 AM 9.26 48.668 0.095 7.12 14.12 10.68
5/10/2023 2:00:00 AM 9.17 48.506 0.095 7.12 14.12 10.71
5/10/2023 2:15:00 AM 9.09 48.362 0.095 7.12 13.7 10.73
5/10/2023 2:30:00 AM 9 48.2 0.095 7.12 13.58 10.76
5/10/2023 2:45:00 AM 8.92 48.056 0.095 7.11 13.71 10.78
5/10/2023 3:00:00 AM 8.84 47.912 0.094 7.11 14.06 10.8
5/10/2023 3:15:00 AM 8.75 47.75 0.095 7.11 14.82 10.83
5/10/2023 3:30:00 AM 8.68 47.624 0.095 7.11 14.79 10.85
5/10/2023 3:45:00 AM 8.6 47.48 0.095 7.11 14.56 10.87
5/10/2023 4:00:00 AM 8.52 47.336 0.095 7.11 14.54 10.89
5/10/2023 4:15:00 AM 8.44 47.192 0.095 7.11 14.21 10.92
5/10/2023 4:30:00 AM 8.37 47.066 0.095 7.1 14.5 10.93
5/10/2023 4:45:00 AM 8.3 46.94 0.095 7.1 14.5 10.95
5/10/2023 5:00:00 AM 8.23 46.814 0.095 7.1 14.52 10.97
5/10/2023 5:15:00 AM 8.16 46.688 0.095 7.1 14.46 11
5/10/2023 5:30:00 AM 8.09 46.562 0.095 7.1 14.22 11.01
5/10/2023 5:45:00 AM 8.03 46.454 0.095 7.1 14.04 11.03
5/10/2023 6:00:00 AM 7.97 46.346 0.095 7.1 13.82 11.05
5/10/2023 6:15:00 AM 7.91 46.238 0.095 7.11 14.18 11.08
5/10/2023 6:30:00 AM 7.86 46.148 0.095 7.11 14.17 11.12
5/10/2023 6:45:00 AM 7.81 46.058 0.095 7.12 14.34 11.17
5/10/2023 7:00:00 AM 7.77 45.986 0.095 7.13 14.73 11.23
5/10/2023 7:15:00 AM 7.74 45.932 0.095 7.14 14.95 11.29
5/10/2023 7:30:00 AM 7.71 45.878 0.095 7.15 15.05 11.33
5/10/2023 7:45:00 AM 7.69 45.842 0.095 7.16 14.87 11.37
5/10/2023 8:00:00 AM 7.69 45.842 0.095 7.17 14.62 11.41
5/10/2023 8:15:00 AM 7.7 45.86 0.095 7.18 14.99 11.44
5/10/2023 8:30:00 AM 7.74 45.932 0.1 7.14 17.5 11.48
5/10/2023 8:45:00 AM 7.83 46.094 0.095 7.21 16.62 11.48
5/10/2023 9:00:00 AM 7.95 46.31 0.095 7.21 16.72 11.49
5/10/2023 9:15:00 AM 8.12 46.616 0.096 7.23 15.82 11.48
5/10/2023 9:30:00 AM 8.32 46.976 0.095 7.24 15.65 11.47
5/10/2023 9:45:00 AM 8.54 47.372 0.095 7.25 15.58 11.44
5/10/2023 10:00:00 AM 8.77 47.786 0.095 7.26 16.26 11.41
5/10/2023 10:15:00 AM 9.04 48.272 0.095 7.27 15.99 11.36
5/10/2023 10:30:00 AM 9.33 48.794 0.094 7.29 16.6 11.31
5/10/2023 10:45:00 AM 9.66 49.388 0.094 7.3 15.48 11.25
5/10/2023 11:00:00 AM 10 50 0.095 7.31 15.64 11.18
5/10/2023 11:15:00 AM 10.34 50.612 0.094 7.32 14.75 11.11
5/10/2023 11:30:00 AM 10.69 51.242 0.094 7.33 15.32 11.05
5/10/2023 11:45:00 AM 11.03 51.854 0.094 7.34 14.74 10.98
5/10/2023 12:00:00 PM 11.38 52.484 0.094 7.35 15.01 10.9
5/10/2023 12:15:00 PM 11.71 53.078 0.094 7.36 14.99 10.82
5/10/2023 12:30:00 PM 12.04 53.672 0.094 7.36 14.09 10.75
5/10/2023 12:45:00 PM 12.34 54.212 0.094 7.37 15.36 10.68
5/10/2023 1:00:00 PM 12.64 54.752 0.094 7.38 15.7 10.61
5/10/2023 1:15:00 PM 12.91 55.238 0.094 7.39 15.89 10.54
5/10/2023 1:30:00 PM 13.16 55.688 0.094 7.4 16.01 10.48
5/10/2023 1:45:00 PM 13.36 56.048 0.094 7.4 15.34 10.43
5/10/2023 2:00:00 PM 13.59 56.462 0.094 7.41 15.41 10.37
5/10/2023 2:15:00 PM 13.78 56.804 0.094 7.42 15.3 10.33
5/10/2023 2:30:00 PM 13.93 57.074 0.094 7.43 15.22 10.28
5/10/2023 2:45:00 PM 14.07 57.326 0.094 7.43 15.08 10.25
5/10/2023 3:00:00 PM 14.16 57.488 0.094 7.44 15.23 10.21
5/10/2023 3:15:00 PM 14.27 57.686 0.094 7.44 14.83 10.17
5/10/2023 3:30:00 PM 14.33 57.794 0.094 7.44 15.74 10.15
5/10/2023 3:45:00 PM 14.38 57.884 0.094 7.45 15.52 10.13
5/10/2023 4:00:00 PM 14.4 57.92 0.094 7.44 14.53 10.1
5/10/2023 4:15:00 PM 14.39 57.902 0.094 7.44 14.55 10.07
5/10/2023 4:30:00 PM 14.36 57.848 0.094 7.44 14.62 10.06
5/10/2023 4:45:00 PM 14.31 57.758 0.094 7.43 14.32 10.05
5/10/2023 5:00:00 PM 14.22 57.596 0.094 7.42 18.44 10.03
5/10/2023 5:15:00 PM 14.09 57.362 0.094 7.41 14.03 10.04
5/10/2023 5:30:00 PM 13.93 57.074 0.094 7.39 14.51 10.04
5/10/2023 5:45:00 PM 13.78 56.804 0.094 7.38 14.1 10.04
5/10/2023 6:00:00 PM 13.62 56.516 0.094 7.37 14.11 10.05
5/10/2023 6:15:00 PM 13.44 56.192 0.094 7.36 13.79 10.05
5/10/2023 6:30:00 PM 13.29 55.922 0.094 7.35 13.94 10.05
5/10/2023 6:45:00 PM 13.16 55.688 0.094 7.33 13.68 10.07
5/10/2023 7:00:00 PM 13.05 55.49 0.094 7.32 13.54 10.09
5/10/2023 7:15:00 PM 12.93 55.274 0.094 7.32 14.02 10.11
5/10/2023 7:30:00 PM 12.82 55.076 0.094 7.31 14.3 10.11
5/10/2023 7:45:00 PM 12.7 54.86 0.094 7.29 14.05 10.09
5/10/2023 8:00:00 PM 12.58 54.644 0.094 7.27 14.04 10.05
5/10/2023 8:15:00 PM 12.45 54.41 0.094 7.24 13.52 10.02
5/10/2023 8:30:00 PM 12.31 54.158 0.095 7.22 14.24 10
5/10/2023 8:45:00 PM 12.18 53.924 0.095 7.2 15.12 9.99
5/10/2023 9:00:00 PM 12.04 53.672 0.095 7.18 15.29 10
5/10/2023 9:15:00 PM 11.9 53.42 0.095 7.17 14.85 10.02
5/10/2023 9:30:00 PM 11.76 53.168 0.095 7.17 14.25 10.05
5/10/2023 9:45:00 PM 11.63 52.934 0.096 7.16 17.6 10.08
5/10/2023 10:00:00 PM 11.5 52.7 0.095 7.15 13.88 10.1
5/10/2023 10:15:00 PM 11.37 52.466 0.095 7.15 13.34 10.14
5/10/2023 10:30:00 PM 11.24 52.232 0.095 7.14 13.98 10.17
5/10/2023 10:45:00 PM 11.12 52.016 0.096 7.14 14.32 10.19
5/10/2023 11:00:00 PM 11.01 51.818 0.095 7.14 14.5 10.23
5/10/2023 11:15:00 PM 10.89 51.602 0.095 7.13 14.84 10.25
5/10/2023 11:30:00 PM 10.78 51.404 0.095 7.13 14.15 10.27
5/10/2023 11:45:00 PM 10.68 51.224 0.096 7.13 14.46 10.3
5/11/2023 12:00:00 AM 10.58 51.044 0.095 7.13 14.61 10.32
5/11/2023 12:15:00 AM 10.48 50.864 0.095 7.13 14.17 10.35
5/11/2023 12:30:00 AM 10.38 50.684 0.096 7.12 14.12 10.38
5/11/2023 12:45:00 AM 10.28 50.504 0.095 7.12 15.32 10.4
5/11/2023 1:00:00 AM 10.19 50.342 0.095 7.12 15.05 10.43
5/11/2023 1:15:00 AM 10.1 50.18 0.095 7.12 14.8 10.46
5/11/2023 1:30:00 AM 10.01 50.018 0.095 7.12 14.56 10.48
5/11/2023 1:45:00 AM 9.92 49.856 0.095 7.11 14.52 10.5
5/11/2023 2:00:00 AM 9.83 49.694 0.095 7.11 15.41 10.52
5/11/2023 2:15:00 AM 9.75 49.55 0.095 7.11 13.93 10.54
5/11/2023 2:30:00 AM 9.66 49.388 0.095 7.11 14.78 10.56
5/11/2023 2:45:00 AM 9.58 49.244 0.095 7.11 14.41 10.58
5/11/2023 3:00:00 AM 9.5 49.1 0.095 7.11 13.69 10.6
5/11/2023 3:15:00 AM 9.43 48.974 0.096 7.11 14.64 10.62
5/11/2023 3:30:00 AM 9.35 48.83 0.095 7.11 14.47 10.64
5/11/2023 3:45:00 AM 9.27 48.686 0.095 7.11 15.49 10.66
5/11/2023 4:00:00 AM 9.19 48.542 0.096 7.11 15.5 10.68
5/11/2023 4:15:00 AM 9.12 48.416 0.095 7.11 14.27 10.7
5/11/2023 4:30:00 AM 9.05 48.29 0.096 7.11 14.39 10.72
5/11/2023 4:45:00 AM 8.98 48.164 0.095 7.11 17.04 10.74
5/11/2023 5:00:00 AM 8.92 48.056 0.095 7.11 14.92 10.76
5/11/2023 5:15:00 AM 8.85 47.93 0.095 7.1 15.22 10.79
5/11/2023 5:30:00 AM 8.78 47.804 0.095 7.11 14.36 10.8
5/11/2023 5:45:00 AM 8.72 47.696 0.095 7.11 15.15 10.82
5/11/2023 6:00:00 AM 8.66 47.588 0.096 7.11 14.76 10.84
5/11/2023 6:15:00 AM 8.6 47.48 0.096 7.11 13.78 10.88
5/11/2023 6:30:00 AM 8.55 47.39 0.095 7.12 13.83 10.92
5/11/2023 6:45:00 AM 8.51 47.318 0.096 7.12 13.09 10.98
5/11/2023 7:00:00 AM 8.47 47.246 0.096 7.14 13.35 11.05
5/11/2023 7:15:00 AM 8.45 47.21 0.097 7.15 13.41 11.1
5/11/2023 7:30:00 AM 8.41 47.138 0.095 7.16 13.29 11.17
5/11/2023 7:45:00 AM 8.43 47.174 0.096 7.18 15.56 11.2
5/11/2023 8:00:00 AM 8.43 47.174 0.096 7.19 13.98 11.24
5/11/2023 8:15:00 AM 8.46 47.228 0.095 7.2 14.42 11.27
5/11/2023 8:30:00 AM 8.51 47.318 0.095 7.22 13.34 11.29
5/11/2023 8:45:00 AM 8.61 47.498 0.095 7.23 13.89 11.31
5/11/2023 9:00:00 AM 8.73 47.714 0.095 7.25 13.94 11.32
5/11/2023 9:15:00 AM 8.88 47.984 0.095 7.26 14.6 11.31
5/11/2023 9:30:00 AM 9.07 48.326 0.095 7.28 13.85 11.29
5/11/2023 9:45:00 AM 9.29 48.722 0.095 7.3 13.99 11.27
5/11/2023 10:00:00 AM 9.49 49.082 0.095 7.31 13.67 11.24
5/11/2023 10:15:00 AM 9.71 49.478 0.095 7.32 13.79 11.21
5/11/2023 10:30:00 AM 9.96 49.928 0.095 7.33 12.7 11.17
5/11/2023 10:45:00 AM 10.26 50.468 0.094 7.34 12.2 11.12
5/11/2023 11:00:00 AM 10.6 51.08 0.095 7.35 12.89 11.06
5/11/2023 11:15:00 AM 10.96 51.728 0.095 7.36 13.14 10.99
5/11/2023 11:30:00 AM 11.34 52.412 0.094 7.37 12.79 10.91
5/11/2023 11:45:00 AM 11.72 53.096 0.094 7.38 12.32 10.83
5/11/2023 12:00:00 PM 12.08 53.744 0.095 7.38 12.6 10.76
5/11/2023 12:15:00 PM 12.43 54.374 0.094 7.39 13.04 10.68
5/11/2023 12:30:00 PM 12.79 55.022 0.094 7.4 13.18 10.61
5/11/2023 12:45:00 PM 13.11 55.598 0.094 7.41 13.11 10.54
5/11/2023 1:00:00 PM 13.43 56.174 0.095 7.42 13.15 10.47
5/11/2023 1:15:00 PM 13.68 56.624 0.094 7.43 13.64 10.42
5/11/2023 1:30:00 PM 13.87 56.966 0.094 7.44 13.05 10.35
5/11/2023 1:45:00 PM 14.03 57.254 0.094 7.45 12.56 10.31
5/11/2023 2:00:00 PM 14.14 57.452 0.094 7.46 12.78 10.27
5/11/2023 2:15:00 PM 14.19 57.542 0.094 7.47 12.47 10.25
5/11/2023 2:30:00 PM 14.25 57.65 0.094 7.47 13.5 10.23
5/11/2023 2:45:00 PM 14.43 57.974 0.094 7.48 13.21 10.19
5/11/2023 3:00:00 PM 14.68 58.424 0.094 7.48 13.2 10.15
5/11/2023 3:15:00 PM 14.83 58.694 0.094 7.48 12.98 10.1
5/11/2023 3:30:00 PM 14.85 58.73 0.094 7.47 13.38 10.03
5/11/2023 3:45:00 PM 14.85 58.73 0.094 7.45 13.13 9.98
5/11/2023 4:00:00 PM 14.88 58.784 0.094 7.46 13.68 9.99
5/11/2023 4:15:00 PM 14.82 58.676 0.094 7.46 13.27 10
5/11/2023 4:30:00 PM 14.71 58.478 0.094 7.45 13.31 10
5/11/2023 4:45:00 PM 14.6 58.28 0.094 7.44 13.18 9.99
5/11/2023 5:00:00 PM 14.55 58.19 0.094 7.43 14.23 9.98
5/11/2023 5:15:00 PM 14.47 58.046 0.094 7.43 14.37 9.99
5/11/2023 5:30:00 PM 14.32 57.776 0.094 7.42 14.44 10
5/11/2023 5:45:00 PM 14.15 57.47 0.094 7.41 13.36 10.01
5/11/2023 6:00:00 PM 14.03 57.254 0.094 7.39 13.54 10.01
5/11/2023 6:15:00 PM 13.93 57.074 0.094 7.38 13.75 9.99
5/11/2023 6:30:00 PM 13.85 56.93 0.094 7.36 14.12 9.97
5/11/2023 6:45:00 PM 13.73 56.714 0.094 7.33 14.01 9.95
5/11/2023 7:00:00 PM 13.61 56.498 0.095 7.31 13.92 9.93
5/11/2023 7:15:00 PM 13.49 56.282 0.095 7.29 14.42 9.94
5/11/2023 7:30:00 PM 13.37 56.066 0.095 7.28 14.43 9.94
5/11/2023 7:45:00 PM 13.23 55.814 0.095 7.26 14.21 9.93
5/11/2023 8:00:00 PM 13.08 55.544 0.095 7.24 14.66 9.91
5/11/2023 8:15:00 PM 12.93 55.274 0.095 7.22 14.26 9.89
5/11/2023 8:30:00 PM 12.78 55.004 0.095 7.2 14.08 9.87
5/11/2023 8:45:00 PM 12.65 54.77 0.096 7.18 14.32 9.87
5/11/2023 9:00:00 PM 12.49 54.482 0.095 7.17 14.19 9.88
5/11/2023 9:15:00 PM 12.38 54.284 0.096 7.16 13.65 9.89
5/11/2023 9:30:00 PM 12.26 54.068 0.096 7.15 14.29 9.9
5/11/2023 9:45:00 PM 12.14 53.852 0.096 7.14 14.19 9.93
5/11/2023 10:00:00 PM 12.03 53.654 0.096 7.14 14.39 9.96
5/11/2023 10:15:00 PM 11.92 53.456 0.096 7.14 14.29 9.98
5/11/2023 10:30:00 PM 11.8 53.24 0.097 7.13 14.59 10.01
5/11/2023 10:45:00 PM 11.69 53.042 0.096 7.13 14.68 10.03
5/11/2023 11:00:00 PM 11.59 52.862 0.097 7.13 14.83 10.05
5/11/2023 11:15:00 PM 11.49 52.682 0.097 7.12 14.32 10.08
5/11/2023 11:30:00 PM 11.4 52.52 0.097 7.12 14.08 10.11
5/11/2023 11:45:00 PM 11.3 52.34 0.097 7.12 14.83 10.12
5/12/2023 12:00:00 AM 11.21 52.178 0.097 7.12 14.92 10.15
5/12/2023 12:15:00 AM 11.12 52.016 0.097 7.11 14.85 10.17
5/12/2023 12:30:00 AM 11.04 51.872 0.097 7.12 15.24 10.19
5/12/2023 12:45:00 AM 10.95 51.71 0.097 7.12 15.03 10.22
5/12/2023 1:00:00 AM 10.87 51.566 0.097 7.11 14.89 10.23
5/12/2023 1:15:00 AM 10.79 51.422 0.097 7.11 15.09 10.25
5/12/2023 1:30:00 AM 10.71 51.278 0.097 7.11 15.43 10.27
5/12/2023 1:45:00 AM 10.63 51.134 0.097 7.11 15.43 10.29
5/12/2023 2:00:00 AM 10.55 50.99 0.097 7.11 15.64 10.31
5/12/2023 2:15:00 AM 10.48 50.864 0.097 7.11 15.9 10.33
5/12/2023 2:30:00 AM 10.41 50.738 0.097 7.11 15.6 10.35
5/12/2023 2:45:00 AM 10.33 50.594 0.097 7.1 15.1 10.36
5/12/2023 3:00:00 AM 10.27 50.486 0.096 7.1 15.47 10.38
5/12/2023 3:15:00 AM 10.2 50.36 0.097 7.1 15.19 10.4
5/12/2023 3:30:00 AM 10.14 50.252 0.096 7.1 15.19 10.42
5/12/2023 3:45:00 AM 10.08 50.144 0.096 7.1 15.24 10.44
5/12/2023 4:00:00 AM 10.01 50.018 0.096 7.1 15.32 10.45
5/12/2023 4:15:00 AM 9.95 49.91 0.097 7.09 15.67 10.46
5/12/2023 4:30:00 AM 9.89 49.802 0.097 7.09 15.27 10.48
5/12/2023 4:45:00 AM 9.83 49.694 0.096 7.09 15.07 10.5
5/12/2023 5:00:00 AM 9.78 49.604 0.097 7.09 15.26 10.51
5/12/2023 5:15:00 AM 9.72 49.496 0.096 7.09 15.45 10.53
5/12/2023 5:30:00 AM 9.66 49.388 0.097 7.09 15.1 10.54
5/12/2023 5:45:00 AM 9.61 49.298 0.097 7.09 15.01 10.56
5/12/2023 6:00:00 AM 9.55 49.19 0.096 7.09 14.87 10.58
5/12/2023 6:15:00 AM 9.5 49.1 0.097 7.09 15.77 10.61
5/12/2023 6:30:00 AM 9.46 49.028 0.097 7.1 18.42 10.66
5/12/2023 6:45:00 AM 9.43 48.974 0.096 7.11 15.88 10.72
5/12/2023 7:00:00 AM 9.42 48.956 0.096 7.12 15.29 10.78
5/12/2023 7:15:00 AM 9.41 48.938 0.096 7.14 15.79 10.86
5/12/2023 7:30:00 AM 9.42 48.956 0.096 7.16 15.68 10.91
5/12/2023 7:45:00 AM 9.46 49.028 0.096 7.18 17.28 10.97
5/12/2023 8:00:00 AM 9.49